Darstellungsparameter: Aktuell verwendete Einstellungen:
Skalierung der Graphiken ... ?
xyx+y,   Skalierungsfaktor:      Skalierung: Modus: x, Faktor: 1
Darstellungszeitraum ... ?
Vom - - bis: - -   Zeitraum: 10.05.2020 - 16.05.2020
Min/Max/Avg-Anzeige ... ?
Zeige MMA aktuell
Zeige MMA Monat
Zeige MMA alles
Zeige --A aktuell
Zeige --A Monat
Zeige --A alles
Keine MMA-Anzeige
MMA:
Minimum Maximum Average (ber die Originaldaten)
MMA-Basis: 23.02.2003 - 17.05.2020
Quicknavigation für Darstellung... ?
Tage:      1T, 2T, 3T, 5T -1T -2T -3T -5T +1T +2T +3T +5T
Wochen: 1W, 2W, 3W -1W -2W -3W +1W +2W +3W
Monate: 1M, 3M, 6M -1M -3M -6M +1M +3M +6M
Jahre:    1J, 3J, 5J, 10J -1J -3J -5J -10J +1J +3J +5J +10J
Nutze für die Darstellung ... ?
Originaldaten oder Mittelwerte auf ...
Stundenbasis Tagesbasis Wochenbasis
Monatsbasis Jahresbasis      Datenbasis: Original-Daten
Darstellen als:
Statistik (Auto) Statistik J:M      Darstellung:
Zur Graphik,    zurück zur Übersicht aller Sensoren.
 
Tabellarische Datenbersicht: ?
 
Sensor: Nr:Datum:Temp:Abs-Feuchte:Windchill:Wind:
Aussen-T/F 1 10-05-2020 00:00:00 12.9 C 10.14 g/m*3 12.9 C 0 km/h
2 10-05-2020 00:05:00 12.8 C 10.08 g/m*3 12.8 C 0 km/h
3 10-05-2020 00:10:00 12.7 C 10.02 g/m*3 12.7 C 0 km/h
4 10-05-2020 00:15:00 12.6 C 9.96 g/m*3 12.6 C 0 km/h
5 10-05-2020 00:20:00 12.6 C 10.07 g/m*3 12.6 C 0 km/h
6 10-05-2020 00:25:00 12.5 C 10 g/m*3 12.5 C 0 km/h
7 10-05-2020 00:30:00 12.4 C 9.94 g/m*3 12.4 C 1.6 km/h
8 10-05-2020 00:35:00 12.4 C 9.94 g/m*3 12.4 C 1.6 km/h
9 10-05-2020 00:40:00 12.3 C 9.88 g/m*3 12.3 C 0 km/h
10 10-05-2020 00:45:00 12.2 C 9.82 g/m*3 12.2 C 0 km/h
11 10-05-2020 00:50:00 12.1 C 9.76 g/m*3 12.1 C 0 km/h
12 10-05-2020 00:55:00 11.9 C 9.64 g/m*3 11.9 C 0 km/h
13 10-05-2020 01:00:00 11.9 C 9.64 g/m*3 11.9 C 0 km/h
14 10-05-2020 01:05:00 11.9 C 9.64 g/m*3 11.9 C 0 km/h
15 10-05-2020 01:10:00 11.9 C 9.64 g/m*3 11.9 C 0 km/h
16 10-05-2020 01:15:00 11.8 C 9.58 g/m*3 11.8 C 0 km/h
17 10-05-2020 01:20:00 11.7 C 9.52 g/m*3 11.7 C 0 km/h
18 10-05-2020 01:25:00 11.7 C 9.52 g/m*3 11.7 C 0 km/h
19 10-05-2020 01:30:00 11.7 C 9.52 g/m*3 11.7 C 0 km/h
20 10-05-2020 01:35:00 11.6 C 9.46 g/m*3 11.6 C 0 km/h
21 10-05-2020 01:40:00 11.6 C 9.46 g/m*3 11.6 C 0 km/h
22 10-05-2020 01:45:00 11.6 C 9.56 g/m*3 11.6 C 0 km/h
23 10-05-2020 01:50:00 11.7 C 9.73 g/m*3 11.7 C 0 km/h
24 10-05-2020 01:55:00 11.8 C 9.68 g/m*3 11.8 C 0 km/h
25 10-05-2020 02:00:00 11.8 C 9.68 g/m*3 11.8 C 0 km/h
Sensor: Nr:Datum:Temp:Abs-Feuchte:Windchill:Wind:
Aussen-T/F 26 10-05-2020 02:05:00 11.7 C 9.62 g/m*3 11.7 C 0 km/h
27 10-05-2020 02:10:00 11.6 C 9.56 g/m*3 11.6 C 0 km/h
28 10-05-2020 02:15:00 11.5 C 9.5 g/m*3 11.5 C 0 km/h
29 10-05-2020 02:20:00 11.4 C 9.44 g/m*3 11.4 C 0 km/h
30 10-05-2020 02:25:00 11.3 C 9.38 g/m*3 11.3 C 0 km/h
31 10-05-2020 02:30:00 11.3 C 9.38 g/m*3 11.3 C 0 km/h
32 10-05-2020 02:35:00 11.2 C 9.33 g/m*3 11.2 C 0 km/h
33 10-05-2020 02:40:00 11.1 C 9.27 g/m*3 11.1 C 0 km/h
34 10-05-2020 02:45:00 11.1 C 9.27 g/m*3 11.1 C 0 km/h
35 10-05-2020 02:50:00 11.1 C 9.27 g/m*3 11.1 C 0 km/h
36 10-05-2020 02:55:00 11 C 9.21 g/m*3 11 C 0 km/h
37 10-05-2020 03:00:00 10.9 C 9.15 g/m*3 10.9 C 0 km/h
38 10-05-2020 03:05:00 10.9 C 9.25 g/m*3 10.9 C 0 km/h
39 10-05-2020 03:10:00 10.9 C 9.25 g/m*3 10.9 C 0 km/h
40 10-05-2020 03:15:00 10.9 C 9.25 g/m*3 10.9 C 0 km/h
41 10-05-2020 03:20:00 10.9 C 9.25 g/m*3 10.9 C 0 km/h
42 10-05-2020 03:25:00 10.9 C 9.25 g/m*3 10.9 C 0 km/h
43 10-05-2020 03:30:00 10.9 C 9.25 g/m*3 10.9 C 0 km/h
44 10-05-2020 03:35:00 10.9 C 9.35 g/m*3 10.9 C 0 km/h
45 10-05-2020 03:40:00 11 C 9.41 g/m*3 11 C 0 km/h
46 10-05-2020 03:45:00 10.9 C 9.35 g/m*3 10.9 C 0 km/h
47 10-05-2020 03:50:00 10.9 C 9.35 g/m*3 10.9 C 0 km/h
48 10-05-2020 03:55:00 10.9 C 9.35 g/m*3 10.9 C 0 km/h
49 10-05-2020 04:00:00 10.9 C 9.35 g/m*3 10.9 C 0 km/h
50 10-05-2020 04:05:00 10.9 C 9.35 g/m*3 10.9 C 0 km/h
Sensor: Nr:Datum:Temp:Abs-Feuchte:Windchill:Wind:
Aussen-T/F 51 10-05-2020 04:10:00 10.9 C 9.35 g/m*3 10.9 C 0 km/h
52 10-05-2020 04:15:00 10.8 C 9.29 g/m*3 10.8 C 0 km/h
53 10-05-2020 04:20:00 10.8 C 9.29 g/m*3 10.8 C 0 km/h
54 10-05-2020 04:25:00 10.8 C 9.29 g/m*3 10.8 C 0 km/h
55 10-05-2020 04:30:00 10.8 C 9.29 g/m*3 10.8 C 0 km/h
56 10-05-2020 04:35:00 10.8 C 9.29 g/m*3 10.8 C 0 km/h
57 10-05-2020 04:40:00 10.8 C 9.29 g/m*3 10.8 C 0 km/h
58 10-05-2020 04:45:00 10.7 C 9.23 g/m*3 10.7 C 0 km/h
59 10-05-2020 04:50:00 10.7 C 9.23 g/m*3 10.7 C 0 km/h
60 10-05-2020 04:55:00 10.7 C 9.23 g/m*3 10.7 C 1.6 km/h
61 10-05-2020 05:00:00 10.7 C 9.23 g/m*3 10.7 C 1.6 km/h
62 10-05-2020 05:05:00 10.8 C 9.39 g/m*3 10.8 C 1.6 km/h
63 10-05-2020 05:10:00 10.8 C 9.39 g/m*3 10.8 C 1.6 km/h
64 10-05-2020 05:15:00 10.9 C 9.45 g/m*3 10.9 C 1.6 km/h
65 10-05-2020 05:20:00 10.9 C 9.45 g/m*3 10.9 C 0 km/h
66 10-05-2020 05:25:00 10.9 C 9.45 g/m*3 10.9 C 0 km/h
67 10-05-2020 05:30:00 10.9 C 9.45 g/m*3 10.9 C 0 km/h
68 10-05-2020 05:35:00 10.9 C 9.45 g/m*3 10.9 C 0 km/h
69 10-05-2020 05:40:00 11 C 9.51 g/m*3 11 C 0 km/h
70 10-05-2020 05:45:00 11 C 9.51 g/m*3 11 C 0 km/h
71 10-05-2020 05:50:00 11 C 9.51 g/m*3 11 C 0 km/h
72 10-05-2020 05:55:00 11 C 9.51 g/m*3 11 C 0 km/h
73 10-05-2020 06:00:00 10.9 C 9.45 g/m*3 10.9 C 0 km/h
74 10-05-2020 06:05:00 10.9 C 9.45 g/m*3 10.9 C 0 km/h
75 10-05-2020 06:10:00 11 C 9.51 g/m*3 11 C 0 km/h
Sensor: Nr:Datum:Temp:Abs-Feuchte:Windchill:Wind:
Aussen-T/F 76 10-05-2020 06:15:00 11 C 9.51 g/m*3 11 C 0 km/h
77 10-05-2020 06:20:00 11.1 C 9.57 g/m*3 11.1 C 0 km/h
78 10-05-2020 06:25:00 11.1 C 9.57 g/m*3 11.1 C 0 km/h
79 10-05-2020 06:30:00 11.1 C 9.57 g/m*3 11.1 C 0 km/h
80 10-05-2020 06:35:00 11.2 C 9.63 g/m*3 11.2 C 0 km/h
81 10-05-2020 06:40:00 11.2 C 9.63 g/m*3 11.2 C 0 km/h
82 10-05-2020 06:45:00 11.2 C 9.63 g/m*3 11.2 C 0 km/h
83 10-05-2020 06:50:00 11.3 C 9.69 g/m*3 11.3 C 0 km/h
84 10-05-2020 06:55:00 11.3 C 9.69 g/m*3 11.3 C 0 km/h
85 10-05-2020 07:00:00 11.3 C 9.69 g/m*3 11.3 C 0 km/h
86 10-05-2020 07:05:00 11.4 C 9.75 g/m*3 11.4 C 0 km/h
87 10-05-2020 07:10:00 11.4 C 9.75 g/m*3 11.4 C 0 km/h
88 10-05-2020 07:15:00 11.4 C 9.75 g/m*3 11.4 C 0 km/h
89 10-05-2020 07:20:00 11.6 C 9.98 g/m*3 11.6 C 0 km/h
90 10-05-2020 07:25:00 11.6 C 9.98 g/m*3 11.6 C 0 km/h
91 10-05-2020 07:30:00 11.7 C 10.04 g/m*3 11.7 C 0 km/h
92 10-05-2020 07:35:00 11.7 C 9.94 g/m*3 11.7 C 0 km/h
93 10-05-2020 07:40:00 11.7 C 9.94 g/m*3 11.7 C 0 km/h
94 10-05-2020 07:45:00 11.8 C 10 g/m*3 11.8 C 0 km/h
95 10-05-2020 07:50:00 11.8 C 10 g/m*3 11.8 C 0 km/h
96 10-05-2020 07:55:00 11.8 C 10 g/m*3 11.8 C 0 km/h
97 10-05-2020 08:00:00 11.9 C 10.17 g/m*3 11.9 C 0 km/h
98 10-05-2020 08:05:00 11.9 C 10.17 g/m*3 11.9 C 0 km/h
99 10-05-2020 08:10:00 11.9 C 10.06 g/m*3 11.9 C 0 km/h
100 10-05-2020 08:15:00 11.9 C 10.06 g/m*3 11.9 C 0 km/h
Sensor: Nr:Datum:Temp:Abs-Feuchte:Windchill:Wind:
Aussen-T/F 101 10-05-2020 08:20:00 12 C 10.12 g/m*3 12 C 0 km/h
102 10-05-2020 08:25:00 12.1 C 10.19 g/m*3 12.1 C 0 km/h
103 10-05-2020 08:30:00 12.1 C 10.19 g/m*3 12.1 C 0 km/h
104 10-05-2020 08:35:00 12.1 C 10.19 g/m*3 12.1 C 0 km/h
105 10-05-2020 08:40:00 12.2 C 10.25 g/m*3 12.2 C 0 km/h
106 10-05-2020 08:45:00 12.2 C 10.25 g/m*3 12.2 C 0 km/h
107 10-05-2020 08:50:00 12.3 C 10.32 g/m*3 12.3 C 0 km/h
108 10-05-2020 08:55:00 12.3 C 10.32 g/m*3 12.3 C 1.6 km/h
109 10-05-2020 09:00:00 12.4 C 10.38 g/m*3 12.4 C 1.6 km/h
110 10-05-2020 09:05:00 12.4 C 10.27 g/m*3 12.4 C 0 km/h
111 10-05-2020 09:10:00 12.4 C 10.38 g/m*3 12.4 C 0 km/h
112 10-05-2020 09:15:00 12.6 C 10.51 g/m*3 12.6 C 0 km/h
113 10-05-2020 09:20:00 12.7 C 10.58 g/m*3 12.7 C 0 km/h
114 10-05-2020 09:25:00 12.8 C 10.64 g/m*3 12.8 C 0 km/h
115 10-05-2020 09:30:00 13 C 10.77 g/m*3 13 C 0 km/h
116 10-05-2020 09:35:00 13.1 C 10.73 g/m*3 13.1 C 1.6 km/h
117 10-05-2020 09:40:00 13.2 C 10.79 g/m*3 13.2 C 0 km/h
118 10-05-2020 09:45:00 13.3 C 10.86 g/m*3 13.3 C 1.6 km/h
119 10-05-2020 09:50:00 13.4 C 10.81 g/m*3 13.4 C 0 km/h
120 10-05-2020 09:55:00 13.5 C 10.88 g/m*3 13.5 C 1.6 km/h
121 10-05-2020 10:00:00 13.7 C 11.01 g/m*3 13.7 C 0 km/h
122 10-05-2020 10:05:00 13.8 C 11.08 g/m*3 13.8 C 0 km/h
123 10-05-2020 10:10:00 13.9 C 11.03 g/m*3 13.9 C 0 km/h
124 10-05-2020 10:15:00 14.1 C 11.29 g/m*3 14.1 C 0 km/h
125 10-05-2020 10:20:00 14.3 C 11.3 g/m*3 14.3 C 1.6 km/h
Sensor: Nr:Datum:Temp:Abs-Feuchte:Windchill:Wind:
Aussen-T/F 126 10-05-2020 10:25:00 14.6 C 11.51 g/m*3 14.6 C 0 km/h
127 10-05-2020 10:30:00 14.8 C 11.65 g/m*3 14.8 C 0 km/h
128 10-05-2020 10:35:00 15 C 11.67 g/m*3 15 C 3.2 km/h
129 10-05-2020 10:40:00 15.2 C 11.68 g/m*3 15.2 C 1.6 km/h
130 10-05-2020 10:45:00 15.4 C 11.82 g/m*3 15.4 C 0 km/h
131 10-05-2020 10:50:00 15.6 C 11.7 g/m*3 15.6 C 0 km/h
132 10-05-2020 10:55:00 15.8 C 11.85 g/m*3 15.8 C 0 km/h
133 10-05-2020 11:00:00 16.2 C 12.14 g/m*3 16.2 C 1.6 km/h
134 10-05-2020 11:05:00 16.6 C 12.29 g/m*3 16.6 C 0 km/h
135 10-05-2020 11:10:00 16.9 C 12.23 g/m*3 16.9 C 0 km/h
136 10-05-2020 11:15:00 17.2 C 12.45 g/m*3 17.2 C 0 km/h
137 10-05-2020 11:20:00 17.4 C 12.45 g/m*3 17.4 C 4.8 km/h
138 10-05-2020 11:25:00 17.8 C 12.45 g/m*3 17.8 C 4.8 km/h
139 10-05-2020 11:30:00 18.1 C 12.52 g/m*3 18.1 C 3.2 km/h
140 10-05-2020 11:35:00 18.3 C 12.51 g/m*3 18.3 C 1.6 km/h
141 10-05-2020 11:40:00 18.5 C 12.5 g/m*3 18.5 C 1.6 km/h
142 10-05-2020 11:45:00 18.7 C 12.49 g/m*3 18.7 C 1.6 km/h
143 10-05-2020 11:50:00 18.9 C 12.64 g/m*3 18.9 C 3.2 km/h
144 10-05-2020 11:55:00 19.1 C 12.62 g/m*3 19.1 C 1.6 km/h
145 10-05-2020 12:00:00 19.2 C 12.7 g/m*3 19.2 C 4.8 km/h
146 10-05-2020 12:05:00 19.3 C 12.61 g/m*3 19.3 C 8.1 km/h
147 10-05-2020 12:10:00 19.4 C 12.68 g/m*3 19.4 C 8.1 km/h
148 10-05-2020 12:15:00 19.5 C 12.75 g/m*3 19.5 C 3.2 km/h
149 10-05-2020 12:20:00 19.6 C 12.83 g/m*3 19.6 C 4.8 km/h
150 10-05-2020 12:25:00 19.7 C 12.91 g/m*3 19.7 C 4.8 km/h
Sensor: Nr:Datum:Temp:Abs-Feuchte:Windchill:Wind:
Aussen-T/F 151 10-05-2020 12:30:00 19.8 C 12.81 g/m*3 19.8 C 0 km/h
152 10-05-2020 12:35:00 19.9 C 12.89 g/m*3 19.9 C 6.4 km/h
153 10-05-2020 12:40:00 20.2 C 13.11 g/m*3 20.2 C 8.1 km/h
154 10-05-2020 12:45:00 20.3 C 13.01 g/m*3 20.3 C 6.4 km/h
155 10-05-2020 12:50:00 20.5 C 13.17 g/m*3 20.5 C 4.8 km/h
156 10-05-2020 12:55:00 20.7 C 13.14 g/m*3 20.7 C 6.4 km/h
157 10-05-2020 13:00:00 20.7 C 13.14 g/m*3 20.7 C 3.2 km/h
158 10-05-2020 13:05:00 20.7 C 13.5 g/m*3 20.7 C 4.8 km/h
159 10-05-2020 13:10:00 20.8 C 13.22 g/m*3 20.8 C 8.1 km/h
160 10-05-2020 13:15:00 20.8 C 13.22 g/m*3 20.8 C 6.4 km/h
161 10-05-2020 13:20:00 20.8 C 13.22 g/m*3 20.8 C 4.8 km/h
162 10-05-2020 13:25:00 21 C 13.74 g/m*3 21 C 3.2 km/h
163 10-05-2020 13:30:00 21.2 C 13.34 g/m*3 21.2 C 9.7 km/h
164 10-05-2020 13:35:00 21.3 C 13.42 g/m*3 21.3 C 6.4 km/h
165 10-05-2020 13:40:00 21.3 C 13.42 g/m*3 21.3 C 4.8 km/h
166 10-05-2020 13:45:00 21.5 C 14.14 g/m*3 21.5 C 1.6 km/h
167 10-05-2020 13:50:00 21.6 C 14.22 g/m*3 21.6 C 3.2 km/h
168 10-05-2020 13:55:00 21.7 C 13.35 g/m*3 21.7 C 6.4 km/h
169 10-05-2020 14:00:00 21.8 C 13.43 g/m*3 21.8 C 4.8 km/h
170 10-05-2020 14:05:00 22 C 13.59 g/m*3 22 C 1.6 km/h
171 10-05-2020 14:10:00 22.2 C 13.74 g/m*3 22.2 C 1.6 km/h
172 10-05-2020 14:15:00 22.3 C 13.62 g/m*3 22.3 C 6.4 km/h
173 10-05-2020 14:20:00 22.4 C 14.1 g/m*3 22.4 C 8.1 km/h
174 10-05-2020 14:25:00 22.5 C 13.58 g/m*3 22.5 C 4.8 km/h
175 10-05-2020 14:30:00 22.6 C 13.86 g/m*3 22.6 C 4.8 km/h
Sensor: Nr:Datum:Temp:Abs-Feuchte:Windchill:Wind:
Aussen-T/F 176 10-05-2020 14:35:00 22.6 C 13.66 g/m*3 22.6 C 4.8 km/h
177 10-05-2020 14:40:00 22.6 C 13.86 g/m*3 22.6 C 1.6 km/h
178 10-05-2020 14:45:00 22.6 C 13.66 g/m*3 22.6 C 16.1 km/h
179 10-05-2020 14:50:00 21.8 C 13.43 g/m*3 21.8 C 17.7 km/h
180 10-05-2020 14:55:00 21.3 C 13.61 g/m*3 21.3 C 6.4 km/h
181 10-05-2020 15:00:00 20.9 C 13.48 g/m*3 20.9 C 9.7 km/h
182 10-05-2020 15:05:00 20.7 C 13.32 g/m*3 20.7 C 6.4 km/h
183 10-05-2020 15:10:00 20.4 C 13.09 g/m*3 20.4 C 6.4 km/h
184 10-05-2020 15:15:00 20.3 C 13.01 g/m*3 20.3 C 4.8 km/h
185 10-05-2020 15:20:00 20.4 C 13.09 g/m*3 20.4 C 9.7 km/h
186 10-05-2020 15:25:00 20.6 C 13.07 g/m*3 20.6 C 9.7 km/h
187 10-05-2020 15:30:00 20.6 C 13.07 g/m*3 20.6 C 8.1 km/h
188 10-05-2020 15:35:00 20.6 C 12.89 g/m*3 20.6 C 4.8 km/h
189 10-05-2020 15:40:00 20.6 C 12.89 g/m*3 20.6 C 6.4 km/h
190 10-05-2020 15:45:00 20.6 C 12.53 g/m*3 20.6 C 9.7 km/h
191 10-05-2020 15:50:00 20.6 C 12.35 g/m*3 20.6 C 4.8 km/h
192 10-05-2020 15:55:00 20.7 C 12.42 g/m*3 20.7 C 4.8 km/h
193 10-05-2020 16:00:00 20.7 C 12.42 g/m*3 20.7 C 4.8 km/h
194 10-05-2020 16:05:00 20.7 C 12.96 g/m*3 20.7 C 3.2 km/h
195 10-05-2020 16:10:00 20.7 C 13.68 g/m*3 20.7 C 1.6 km/h
196 10-05-2020 16:15:00 20.6 C 13.96 g/m*3 20.6 C 4.8 km/h
197 10-05-2020 16:20:00 20.3 C 14.07 g/m*3 20.3 C 3.2 km/h
198 10-05-2020 16:25:00 20.1 C 13.56 g/m*3 20.1 C 6.4 km/h
199 10-05-2020 16:30:00 19.9 C 13.57 g/m*3 19.9 C 12.9 km/h
200 10-05-2020 16:35:00 19.9 C 13.23 g/m*3 19.9 C 11.3 km/h
Sensor: Nr:Datum:Temp:Abs-Feuchte:Windchill:Wind:
Aussen-T/F 201 10-05-2020 16:40:00 19.5 C 13.09 g/m*3 19.5 C 19.3 km/h
202 10-05-2020 16:45:00 18.7 C 12.81 g/m*3 18.7 C 16.1 km/h
203 10-05-2020 16:50:00 17.9 C 12.21 g/m*3 17.9 C 11.3 km/h
204 10-05-2020 16:55:00 17.3 C 12.23 g/m*3 17.3 C 11.3 km/h
205 10-05-2020 17:00:00 17 C 12.3 g/m*3 17 C 4.8 km/h
206 10-05-2020 17:05:00 17.1 C 12.81 g/m*3 17.1 C 3.2 km/h
207 10-05-2020 17:10:00 17.4 C 13.04 g/m*3 17.4 C 4.8 km/h
208 10-05-2020 17:15:00 17.8 C 13.05 g/m*3 17.8 C 6.4 km/h
209 10-05-2020 17:20:00 18.3 C 13.29 g/m*3 18.3 C 1.6 km/h
210 10-05-2020 17:25:00 18.5 C 12.82 g/m*3 18.5 C 3.2 km/h
211 10-05-2020 17:30:00 18.6 C 12.89 g/m*3 18.6 C 0 km/h
212 10-05-2020 17:35:00 18.7 C 13.13 g/m*3 18.7 C 6.4 km/h
213 10-05-2020 17:40:00 18.9 C 13.12 g/m*3 18.9 C 4.8 km/h
214 10-05-2020 17:45:00 18.9 C 13.12 g/m*3 18.9 C 3.2 km/h
215 10-05-2020 17:50:00 18.9 C 12.8 g/m*3 18.9 C 0 km/h
216 10-05-2020 17:55:00 19.1 C 12.95 g/m*3 19.1 C 1.6 km/h
217 10-05-2020 18:00:00 18.9 C 12.64 g/m*3 18.9 C 3.2 km/h
218 10-05-2020 18:05:00 18.8 C 12.72 g/m*3 18.8 C 0 km/h
219 10-05-2020 18:10:00 18.7 C 12.81 g/m*3 18.7 C 4.8 km/h
220 10-05-2020 18:15:00 18.5 C 12.66 g/m*3 18.5 C 3.2 km/h
221 10-05-2020 18:20:00 18.4 C 13.05 g/m*3 18.4 C 6.4 km/h
222 10-05-2020 18:25:00 18.4 C 13.21 g/m*3 18.4 C 3.2 km/h
223 10-05-2020 18:30:00 18.4 C 13.37 g/m*3 18.4 C 1.6 km/h
224 10-05-2020 18:35:00 18.5 C 13.61 g/m*3 18.5 C 0 km/h
225 10-05-2020 18:40:00 18.6 C 13.53 g/m*3 18.6 C 0 km/h
Sensor: Nr:Datum:Temp:Abs-Feuchte:Windchill:Wind:
Aussen-T/F 226 10-05-2020 18:45:00 18.8 C 13.53 g/m*3 18.8 C 3.2 km/h
227 10-05-2020 18:50:00 18.8 C 13.53 g/m*3 18.8 C 3.2 km/h
228 10-05-2020 18:55:00 18.8 C 13.37 g/m*3 18.8 C 1.6 km/h
229 10-05-2020 19:00:00 18.7 C 13.45 g/m*3 18.7 C 3.2 km/h
230 10-05-2020 19:05:00 18.7 C 13.45 g/m*3 18.7 C 1.6 km/h
231 10-05-2020 19:10:00 18.6 C 13.53 g/m*3 18.6 C 1.6 km/h
232 10-05-2020 19:15:00 18.6 C 13.53 g/m*3 18.6 C 4.8 km/h
233 10-05-2020 19:20:00 18.6 C 13.53 g/m*3 18.6 C 3.2 km/h
234 10-05-2020 19:25:00 18.5 C 13.45 g/m*3 18.5 C 4.8 km/h
235 10-05-2020 19:30:00 18.3 C 13.29 g/m*3 18.3 C 1.6 km/h
236 10-05-2020 19:35:00 18.3 C 13.29 g/m*3 18.3 C 3.2 km/h
237 10-05-2020 19:40:00 18.3 C 13.45 g/m*3 18.3 C 0 km/h
238 10-05-2020 19:45:00 18.3 C 13.45 g/m*3 18.3 C 0 km/h
239 10-05-2020 19:50:00 18.2 C 13.37 g/m*3 18.2 C 1.6 km/h
240 10-05-2020 19:55:00 18.2 C 13.37 g/m*3 18.2 C 1.6 km/h
241 10-05-2020 20:00:00 18.1 C 13.29 g/m*3 18.1 C 1.6 km/h
242 10-05-2020 20:05:00 18.1 C 13.29 g/m*3 18.1 C 0 km/h
243 10-05-2020 20:10:00 17.9 C 13.28 g/m*3 17.9 C 0 km/h
244 10-05-2020 20:15:00 17.9 C 13.28 g/m*3 17.9 C 0 km/h
245 10-05-2020 20:20:00 17.8 C 13.2 g/m*3 17.8 C 1.6 km/h
246 10-05-2020 20:25:00 17.7 C 13.13 g/m*3 17.7 C 0 km/h
247 10-05-2020 20:30:00 17.7 C 13.28 g/m*3 17.7 C 0 km/h
248 10-05-2020 20:35:00 17.6 C 13.2 g/m*3 17.6 C 0 km/h
249 10-05-2020 20:40:00 17.5 C 13.12 g/m*3 17.5 C 1.6 km/h
250 10-05-2020 20:45:00 17.4 C 13.04 g/m*3 17.4 C 3.2 km/h
Sensor: Nr:Datum:Temp:Abs-Feuchte:Windchill:Wind:
Aussen-T/F 251 10-05-2020 20:50:00 17.4 C 13.19 g/m*3 17.4 C 0 km/h
252 10-05-2020 20:55:00 17.3 C 13.11 g/m*3 17.3 C 0 km/h
253 10-05-2020 21:00:00 17.3 C 13.11 g/m*3 17.3 C 0 km/h
254 10-05-2020 21:05:00 17.2 C 13.03 g/m*3 17.2 C 0 km/h
255 10-05-2020 21:10:00 17.1 C 12.96 g/m*3 17.1 C 0 km/h
256 10-05-2020 21:15:00 17 C 12.88 g/m*3 17 C 0 km/h
257 10-05-2020 21:20:00 16.9 C 12.8 g/m*3 16.9 C 0 km/h
258 10-05-2020 21:25:00 16.8 C 12.87 g/m*3 16.8 C 0 km/h
259 10-05-2020 21:30:00 16.7 C 12.79 g/m*3 16.7 C 3.2 km/h
260 10-05-2020 21:35:00 16.6 C 12.71 g/m*3 16.6 C 1.6 km/h
261 10-05-2020 21:40:00 16.6 C 12.71 g/m*3 16.6 C 0 km/h
262 10-05-2020 21:45:00 16.5 C 12.78 g/m*3 16.5 C 3.2 km/h
263 10-05-2020 21:50:00 16.4 C 12.7 g/m*3 16.4 C 1.6 km/h
264 10-05-2020 21:55:00 16.3 C 12.62 g/m*3 16.3 C 3.2 km/h
265 10-05-2020 22:00:00 16.2 C 12.55 g/m*3 16.2 C 0 km/h
266 10-05-2020 22:05:00 16.1 C 12.47 g/m*3 16.1 C 4.8 km/h
267 10-05-2020 22:10:00 16.1 C 12.47 g/m*3 16.1 C 3.2 km/h
268 10-05-2020 22:15:00 16 C 12.4 g/m*3 16 C 1.6 km/h
269 10-05-2020 22:20:00 15.9 C 12.32 g/m*3 15.9 C 1.6 km/h
270 10-05-2020 22:25:00 15.8 C 12.38 g/m*3 15.8 C 4.8 km/h
271 10-05-2020 22:30:00 15.8 C 12.38 g/m*3 15.8 C 3.2 km/h
272 10-05-2020 22:35:00 15.7 C 12.31 g/m*3 15.7 C 3.2 km/h
273 10-05-2020 22:40:00 15.7 C 12.31 g/m*3 15.7 C 0 km/h
274 10-05-2020 22:45:00 15.6 C 12.23 g/m*3 15.6 C 1.6 km/h
275 10-05-2020 22:50:00 15.6 C 12.23 g/m*3 15.6 C 0 km/h
Sensor: Nr:Datum:Temp:Abs-Feuchte:Windchill:Wind:
Aussen-T/F 276 10-05-2020 22:55:00 15.6 C 12.37 g/m*3 15.6 C 1.6 km/h
277 10-05-2020 23:00:00 15.6 C 12.37 g/m*3 15.6 C 1.6 km/h
278 10-05-2020 23:05:00 15.6 C 12.37 g/m*3 15.6 C 0 km/h
279 10-05-2020 23:10:00 15.6 C 12.37 g/m*3 15.6 C 0 km/h
280 10-05-2020 23:15:00 15.6 C 12.37 g/m*3 15.6 C 0 km/h
281 10-05-2020 23:20:00 15.6 C 12.37 g/m*3 15.6 C 0 km/h
282 10-05-2020 23:25:00 15.6 C 12.37 g/m*3 15.6 C 0 km/h
283 10-05-2020 23:30:00 15.6 C 12.37 g/m*3 15.6 C 0 km/h
284 10-05-2020 23:35:00 15.6 C 12.37 g/m*3 15.6 C 0 km/h
285 10-05-2020 23:40:00 15.6 C 12.37 g/m*3 15.6 C 0 km/h
286 10-05-2020 23:45:00 15.6 C 12.37 g/m*3 15.6 C 1.6 km/h
287 10-05-2020 23:50:00 15.7 C 12.44 g/m*3 15.7 C 0 km/h
288 10-05-2020 23:55:00 15.7 C 12.44 g/m*3 15.7 C 3.2 km/h
289 11-05-2020 00:00:00 15.8 C 12.52 g/m*3 15.8 C 8.1 km/h
290 11-05-2020 00:05:00 15.9 C 12.59 g/m*3 15.9 C 1.6 km/h
291 11-05-2020 00:10:00 16.1 C 12.61 g/m*3 16.1 C 9.7 km/h
292 11-05-2020 00:15:00 16.1 C 12.61 g/m*3 16.1 C 4.8 km/h
293 11-05-2020 00:20:00 16.1 C 12.47 g/m*3 16.1 C 6.4 km/h
294 11-05-2020 00:25:00 16.1 C 12.47 g/m*3 16.1 C 16.1 km/h
295 11-05-2020 00:30:00 16.1 C 12.34 g/m*3 16.1 C 11.3 km/h
296 11-05-2020 00:35:00 16 C 12.13 g/m*3 16 C 12.9 km/h
297 11-05-2020 00:40:00 15.9 C 11.92 g/m*3 15.9 C 11.3 km/h
298 11-05-2020 00:45:00 15.7 C 11.51 g/m*3 15.7 C 16.1 km/h
299 11-05-2020 00:50:00 15.6 C 11.3 g/m*3 15.6 C 11.3 km/h
300 11-05-2020 00:55:00 15.4 C 11.3 g/m*3 15.4 C 11.3 km/h
Sensor: Nr:Datum:Temp:Abs-Feuchte:Windchill:Wind:
Aussen-T/F 301 11-05-2020 01:00:00 15.3 C 11.1 g/m*3 15.3 C 14.5 km/h
302 11-05-2020 01:05:00 15.1 C 10.97 g/m*3 15.1 C 12.9 km/h
303 11-05-2020 01:10:00 14.9 C 10.83 g/m*3 14.9 C 11.3 km/h
304 11-05-2020 01:15:00 14.8 C 10.77 g/m*3 14.8 C 12.9 km/h
305 11-05-2020 01:20:00 14.7 C 10.7 g/m*3 14.7 C 11.3 km/h
306 11-05-2020 01:25:00 14.5 C 10.7 g/m*3 14.5 C 9.7 km/h
307 11-05-2020 01:30:00 14.4 C 10.63 g/m*3 14.4 C 16.1 km/h
308 11-05-2020 01:35:00 14.2 C 10.5 g/m*3 14.2 C 14.5 km/h
309 11-05-2020 01:40:00 14.1 C 10.32 g/m*3 14.1 C 12.9 km/h
310 11-05-2020 01:45:00 13.9 C 10.19 g/m*3 13.9 C 16.1 km/h
311 11-05-2020 01:50:00 13.8 C 10.01 g/m*3 13.8 C 17.7 km/h
312 11-05-2020 01:55:00 13.6 C 10 g/m*3 13.6 C 14.5 km/h
313 11-05-2020 02:00:00 13.4 C 9.88 g/m*3 13.4 C 11.3 km/h
314 11-05-2020 02:05:00 13.3 C 9.82 g/m*3 13.3 C 17.7 km/h
315 11-05-2020 02:10:00 13.1 C 9.59 g/m*3 13.1 C 12.9 km/h
316 11-05-2020 02:15:00 12.9 C 9.58 g/m*3 12.9 C 14.5 km/h
317 11-05-2020 02:20:00 12.8 C 9.63 g/m*3 12.8 C 17.7 km/h
318 11-05-2020 02:25:00 12.7 C 9.57 g/m*3 12.7 C 12.9 km/h
319 11-05-2020 02:30:00 12.5 C 9.46 g/m*3 12.5 C 8.1 km/h
320 11-05-2020 02:35:00 12.3 C 9.34 g/m*3 12.3 C 12.9 km/h
321 11-05-2020 02:40:00 12.1 C 9.22 g/m*3 12.1 C 19.3 km/h
322 11-05-2020 02:45:00 11.8 C 8.95 g/m*3 11.8 C 19.3 km/h
323 11-05-2020 02:50:00 11.7 C 8.89 g/m*3 11.7 C 16.1 km/h
324 11-05-2020 02:55:00 11.6 C 8.83 g/m*3 11.6 C 14.5 km/h
325 11-05-2020 03:00:00 11.4 C 8.72 g/m*3 11.4 C 16.1 km/h
Sensor: Nr:Datum:Temp:Abs-Feuchte:Windchill:Wind:
Aussen-T/F 326 11-05-2020 03:05:00 11.3 C 8.67 g/m*3 11.3 C 17.7 km/h
327 11-05-2020 03:10:00 11.2 C 8.62 g/m*3 11.2 C 11.3 km/h
328 11-05-2020 03:15:00 11.2 C 8.62 g/m*3 11.2 C 9.7 km/h
329 11-05-2020 03:20:00 11.1 C 8.56 g/m*3 11.1 C 14.5 km/h
330 11-05-2020 03:25:00 11 C 8.41 g/m*3 9.4 C 12.9 km/h
331 11-05-2020 03:30:00 10.8 C 8.2 g/m*3 8.78 C 16.1 km/h
332 11-05-2020 03:35:00 10.6 C 8.1 g/m*3 8.53 C 16.1 km/h
333 11-05-2020 03:40:00 10.4 C 8 g/m*3 7.8 C 20.9 km/h
334 11-05-2020 03:45:00 10.4 C 8.1 g/m*3 8.47 C 14.5 km/h
335 11-05-2020 03:50:00 10.2 C 8.09 g/m*3 8.03 C 16.1 km/h
336 11-05-2020 03:55:00 10 C 7.99 g/m*3 7.98 C 14.5 km/h
337 11-05-2020 04:00:00 9.8 C 7.98 g/m*3 7.36 C 17.7 km/h
338 11-05-2020 04:05:00 9.6 C 7.97 g/m*3 6.94 C 19.3 km/h
339 11-05-2020 04:10:00 9.4 C 7.96 g/m*3 7.7 C 11.3 km/h
340 11-05-2020 04:15:00 9.2 C 7.95 g/m*3 6.61 C 17.7 km/h
341 11-05-2020 04:20:00 8.9 C 7.8 g/m*3 5.9 C 20.9 km/h
342 11-05-2020 04:25:00 8.7 C 7.78 g/m*3 6.85 C 11.3 km/h
343 11-05-2020 04:30:00 8.6 C 7.73 g/m*3 7.34 C 8.1 km/h
344 11-05-2020 04:35:00 8.4 C 7.72 g/m*3 7.11 C 8.1 km/h
345 11-05-2020 04:40:00 8.3 C 7.67 g/m*3 6.99 C 8.1 km/h
346 11-05-2020 04:45:00 8.3 C 7.75 g/m*3 6.37 C 11.3 km/h
347 11-05-2020 04:50:00 8.2 C 7.7 g/m*3 6.54 C 9.7 km/h
348 11-05-2020 04:55:00 8 C 7.61 g/m*3 5.52 C 14.5 km/h
349 11-05-2020 05:00:00 8 C 7.61 g/m*3 6.01 C 11.3 km/h
350 11-05-2020 05:05:00 7.9 C 7.64 g/m*3 4.98 C 17.7 km/h
Sensor: Nr:Datum:Temp:Abs-Feuchte:Windchill:Wind:
Aussen-T/F 351 11-05-2020 05:10:00 7.8 C 7.59 g/m*3 5.27 C 14.5 km/h
352 11-05-2020 05:15:00 7.7 C 7.46 g/m*3 5.15 C 14.5 km/h
353 11-05-2020 05:20:00 7.5 C 7.36 g/m*3 4.48 C 17.7 km/h
354 11-05-2020 05:25:00 7.4 C 7.32 g/m*3 4 C 20.9 km/h
355 11-05-2020 05:30:00 7.3 C 7.27 g/m*3 5.16 C 11.3 km/h
356 11-05-2020 05:35:00 7.3 C 7.35 g/m*3 5.16 C 11.3 km/h
357 11-05-2020 05:40:00 7.2 C 7.3 g/m*3 4.11 C 17.7 km/h
358 11-05-2020 05:45:00 7.1 C 7.25 g/m*3 4.41 C 14.5 km/h
359 11-05-2020 05:50:00 6.9 C 7.08 g/m*3 3.94 C 16.1 km/h
360 11-05-2020 05:55:00 6.9 C 7.08 g/m*3 3.37 C 20.9 km/h
361 11-05-2020 06:00:00 6.8 C 7.04 g/m*3 5.22 C 8.1 km/h
362 11-05-2020 06:05:00 6.8 C 7.04 g/m*3 4.56 C 11.3 km/h
363 11-05-2020 06:10:00 6.8 C 7.04 g/m*3 4.29 C 12.9 km/h
364 11-05-2020 06:15:00 6.8 C 7.11 g/m*3 4.87 C 9.7 km/h
365 11-05-2020 06:20:00 6.8 C 7.11 g/m*3 4.56 C 11.3 km/h
366 11-05-2020 06:25:00 6.8 C 7.11 g/m*3 5.22 C 8.1 km/h
367 11-05-2020 06:30:00 6.8 C 7.11 g/m*3 5.22 C 8.1 km/h
368 11-05-2020 06:35:00 6.8 C 7.11 g/m*3 4.87 C 9.7 km/h
369 11-05-2020 06:40:00 6.8 C 7.11 g/m*3 4.87 C 9.7 km/h
370 11-05-2020 06:45:00 6.8 C 7.19 g/m*3 6.8 C 4.8 km/h
371 11-05-2020 06:50:00 6.8 C 7.19 g/m*3 5.22 C 8.1 km/h
372 11-05-2020 06:55:00 6.7 C 7.14 g/m*3 4.75 C 9.7 km/h
373 11-05-2020 07:00:00 6.6 C 7.02 g/m*3 4.04 C 12.9 km/h
374 11-05-2020 07:05:00 6.4 C 6.85 g/m*3 4.08 C 11.3 km/h
375 11-05-2020 07:10:00 6.3 C 6.81 g/m*3 3.68 C 12.9 km/h
Sensor: Nr:Datum:Temp:Abs-Feuchte:Windchill:Wind:
Aussen-T/F 376 11-05-2020 07:15:00 6.2 C 6.69 g/m*3 3.3 C 14.5 km/h
377 11-05-2020 07:20:00 6.2 C 6.69 g/m*3 4.15 C 9.7 km/h
378 11-05-2020 07:25:00 6.2 C 6.77 g/m*3 3.56 C 12.9 km/h
379 11-05-2020 07:30:00 6.2 C 6.77 g/m*3 4.15 C 9.7 km/h
380 11-05-2020 07:35:00 6.1 C 6.72 g/m*3 4.04 C 9.7 km/h
381 11-05-2020 07:40:00 6.1 C 6.72 g/m*3 4.4 C 8.1 km/h
382 11-05-2020 07:45:00 6.1 C 6.79 g/m*3 4.04 C 9.7 km/h
383 11-05-2020 07:50:00 6 C 6.75 g/m*3 3.92 C 9.7 km/h
384 11-05-2020 07:55:00 5.9 C 6.71 g/m*3 4.63 C 6.4 km/h
385 11-05-2020 08:00:00 5.9 C 6.71 g/m*3 4.63 C 6.4 km/h
386 11-05-2020 08:05:00 6 C 6.82 g/m*3 3.6 C 11.3 km/h
387 11-05-2020 08:10:00 5.9 C 6.78 g/m*3 3.48 C 11.3 km/h
388 11-05-2020 08:15:00 5.8 C 6.66 g/m*3 1.8 C 22.5 km/h
389 11-05-2020 08:20:00 5.8 C 6.66 g/m*3 2.58 C 16.1 km/h
390 11-05-2020 08:25:00 5.8 C 6.66 g/m*3 2.81 C 14.5 km/h
391 11-05-2020 08:30:00 5.7 C 6.62 g/m*3 2.45 C 16.1 km/h
392 11-05-2020 08:35:00 5.8 C 6.66 g/m*3 4.05 C 8.1 km/h
393 11-05-2020 08:40:00 5.8 C 6.66 g/m*3 3.36 C 11.3 km/h
394 11-05-2020 08:45:00 5.8 C 6.66 g/m*3 3.07 C 12.9 km/h
395 11-05-2020 08:50:00 5.7 C 6.62 g/m*3 2.69 C 14.5 km/h
396 11-05-2020 08:55:00 5.6 C 6.5 g/m*3 2.33 C 16.1 km/h
397 11-05-2020 09:00:00 5.6 C 6.43 g/m*3 1.54 C 22.5 km/h
398 11-05-2020 09:05:00 5.6 C 6.43 g/m*3 2.33 C 16.1 km/h
399 11-05-2020 09:10:00 5.5 C 6.32 g/m*3 1.99 C 17.7 km/h
400 11-05-2020 09:15:00 5.4 C 6.21 g/m*3 2.32 C 14.5 km/h
Sensor: Nr:Datum:Temp:Abs-Feuchte:Windchill:Wind:
Aussen-T/F 401 11-05-2020 09:20:00 5.4 C 6.21 g/m*3 1.29 C 22.5 km/h
402 11-05-2020 09:25:00 5.4 C 6.07 g/m*3 1.12 C 24.1 km/h
403 11-05-2020 09:30:00 5.3 C 5.96 g/m*3 0.53 C 29 km/h
404 11-05-2020 09:35:00 5.3 C 5.96 g/m*3 1.74 C 17.7 km/h
405 11-05-2020 09:40:00 5.3 C 6.03 g/m*3 2.75 C 11.3 km/h
406 11-05-2020 09:45:00 5.3 C 6.03 g/m*3 2.2 C 14.5 km/h
407 11-05-2020 09:50:00 5.2 C 6.06 g/m*3 2.07 C 14.5 km/h
408 11-05-2020 09:55:00 5.3 C 6.1 g/m*3 2.75 C 11.3 km/h
409 11-05-2020 10:00:00 5.3 C 6.1 g/m*3 3.08 C 9.7 km/h
410 11-05-2020 10:05:00 5.4 C 6.14 g/m*3 2.32 C 14.5 km/h
411 11-05-2020 10:10:00 5.4 C 6.14 g/m*3 2.08 C 16.1 km/h
412 11-05-2020 10:15:00 5.6 C 6.22 g/m*3 3.11 C 11.3 km/h
413 11-05-2020 10:20:00 5.6 C 6.15 g/m*3 3.11 C 11.3 km/h
414 11-05-2020 10:25:00 5.7 C 6.19 g/m*3 2.95 C 12.9 km/h
415 11-05-2020 10:30:00 5.7 C 6.19 g/m*3 3.93 C 8.1 km/h
416 11-05-2020 10:35:00 5.8 C 6.23 g/m*3 3.07 C 12.9 km/h
417 11-05-2020 10:40:00 5.9 C 6.2 g/m*3 2.7 C 16.1 km/h
418 11-05-2020 10:45:00 5.9 C 6.13 g/m*3 2.93 C 14.5 km/h
419 11-05-2020 10:50:00 5.9 C 5.98 g/m*3 2.29 C 19.3 km/h
420 11-05-2020 10:55:00 6 C 6.02 g/m*3 2.41 C 19.3 km/h
421 11-05-2020 11:00:00 6.1 C 5.99 g/m*3 2.54 C 19.3 km/h
422 11-05-2020 11:05:00 6.1 C 5.92 g/m*3 2.73 C 17.7 km/h
423 11-05-2020 11:10:00 6.1 C 5.92 g/m*3 2.54 C 19.3 km/h
424 11-05-2020 11:15:00 6.1 C 5.92 g/m*3 2.54 C 19.3 km/h
425 11-05-2020 11:20:00 6.1 C 5.92 g/m*3 2.54 C 19.3 km/h
Sensor: Nr:Datum:Temp:Abs-Feuchte:Windchill:Wind:
Aussen-T/F 426 11-05-2020 11:25:00 6.1 C 5.92 g/m*3 3.43 C 12.9 km/h
427 11-05-2020 11:30:00 6.1 C 5.99 g/m*3 3.43 C 12.9 km/h
428 11-05-2020 11:35:00 6.1 C 5.99 g/m*3 2.95 C 16.1 km/h
429 11-05-2020 11:40:00 6.2 C 6.03 g/m*3 3.3 C 14.5 km/h
430 11-05-2020 11:45:00 6.3 C 6.07 g/m*3 3.43 C 14.5 km/h
431 11-05-2020 11:50:00 6.3 C 6.07 g/m*3 3.96 C 11.3 km/h
432 11-05-2020 11:55:00 6.4 C 6.04 g/m*3 2.91 C 19.3 km/h
433 11-05-2020 12:00:00 6.4 C 6.04 g/m*3 2.73 C 20.9 km/h
434 11-05-2020 12:05:00 6.5 C 6 g/m*3 1.96 C 30.6 km/h
435 11-05-2020 12:10:00 6.6 C 6.04 g/m*3 3.79 C 14.5 km/h
436 11-05-2020 12:15:00 6.6 C 5.96 g/m*3 3.36 C 17.7 km/h
437 11-05-2020 12:20:00 6.7 C 6.08 g/m*3 4.44 C 11.3 km/h
438 11-05-2020 12:25:00 6.8 C 6.04 g/m*3 4.29 C 12.9 km/h
439 11-05-2020 12:30:00 6.8 C 5.89 g/m*3 3.24 C 20.9 km/h
440 11-05-2020 12:35:00 6.8 C 5.97 g/m*3 4.04 C 14.5 km/h
441 11-05-2020 12:40:00 6.9 C 6.08 g/m*3 4.68 C 11.3 km/h
442 11-05-2020 12:45:00 6.9 C 5.93 g/m*3 4.41 C 12.9 km/h
443 11-05-2020 12:50:00 7.1 C 6.08 g/m*3 4.19 C 16.1 km/h
444 11-05-2020 12:55:00 7.2 C 6.04 g/m*3 3.92 C 19.3 km/h
445 11-05-2020 13:00:00 7.2 C 5.97 g/m*3 3.92 C 19.3 km/h
446 11-05-2020 13:05:00 7.3 C 5.93 g/m*3 4.9 C 12.9 km/h
447 11-05-2020 13:10:00 7.3 C 5.77 g/m*3 3.71 C 22.5 km/h
448 11-05-2020 13:15:00 7.4 C 5.88 g/m*3 4.36 C 17.7 km/h
449 11-05-2020 13:20:00 7.5 C 5.84 g/m*3 5.41 C 11.3 km/h
450 11-05-2020 13:25:00 7.6 C 5.88 g/m*3 4.61 C 17.7 km/h
Sensor: Nr:Datum:Temp:Abs-Feuchte:Windchill:Wind:
Aussen-T/F 451 11-05-2020 13:30:00 7.7 C 5.92 g/m*3 5.15 C 14.5 km/h
452 11-05-2020 13:35:00 7.8 C 5.88 g/m*3 5.06 C 16.1 km/h
453 11-05-2020 13:40:00 7.8 C 5.88 g/m*3 5.06 C 16.1 km/h
454 11-05-2020 13:45:00 7.9 C 5.83 g/m*3 4.8 C 19.3 km/h
455 11-05-2020 13:50:00 8.1 C 5.66 g/m*3 4.58 C 24.1 km/h
456 11-05-2020 13:55:00 8.2 C 5.69 g/m*3 5.18 C 19.3 km/h
457 11-05-2020 14:00:00 8.3 C 5.65 g/m*3 5.14 C 20.9 km/h
458 11-05-2020 14:05:00 8.4 C 5.6 g/m*3 5.11 C 22.5 km/h
459 11-05-2020 14:10:00 8.6 C 5.59 g/m*3 5.68 C 19.3 km/h
460 11-05-2020 14:15:00 8.7 C 5.62 g/m*3 6.17 C 16.1 km/h
461 11-05-2020 14:20:00 8.7 C 5.53 g/m*3 6.38 C 14.5 km/h
462 11-05-2020 14:25:00 8.8 C 5.48 g/m*3 6.5 C 14.5 km/h
463 11-05-2020 14:30:00 8.9 C 5.52 g/m*3 5.9 C 20.9 km/h
464 11-05-2020 14:35:00 9.1 C 5.59 g/m*3 6.15 C 20.9 km/h
465 11-05-2020 14:40:00 9.2 C 5.45 g/m*3 6.28 C 20.9 km/h
466 11-05-2020 14:45:00 9.4 C 5.61 g/m*3 6.86 C 17.7 km/h
467 11-05-2020 14:50:00 9.7 C 5.62 g/m*3 7.23 C 17.7 km/h
468 11-05-2020 14:55:00 9.9 C 5.6 g/m*3 7.48 C 17.7 km/h
469 11-05-2020 15:00:00 10.1 C 5.58 g/m*3 7.73 C 17.7 km/h
470 11-05-2020 15:05:00 10.3 C 5.55 g/m*3 7.98 C 17.7 km/h
471 11-05-2020 15:10:00 10.3 C 5.55 g/m*3 7.03 C 29 km/h
472 11-05-2020 15:15:00 10.8 C 5.73 g/m*3 8.96 C 14.5 km/h
473 11-05-2020 15:20:00 11.2 C 5.78 g/m*3 11.2 C 16.1 km/h
474 11-05-2020 15:25:00 11.1 C 5.74 g/m*3 11.1 C 14.5 km/h
475 11-05-2020 15:30:00 11.3 C 5.81 g/m*3 11.3 C 17.7 km/h
Sensor: Nr:Datum:Temp:Abs-Feuchte:Windchill:Wind:
Aussen-T/F 476 11-05-2020 15:35:00 11.3 C 5.71 g/m*3 11.3 C 17.7 km/h
477 11-05-2020 15:40:00 11.5 C 5.78 g/m*3 11.5 C 25.7 km/h
478 11-05-2020 15:45:00 11.7 C 5.65 g/m*3 11.7 C 25.7 km/h
479 11-05-2020 15:50:00 11.8 C 5.58 g/m*3 11.8 C 24.1 km/h
480 11-05-2020 15:55:00 12.1 C 5.58 g/m*3 12.1 C 33.8 km/h
481 11-05-2020 16:00:00 12.3 C 5.65 g/m*3 12.3 C 19.3 km/h
482 11-05-2020 16:05:00 12.6 C 5.86 g/m*3 12.6 C 17.7 km/h
483 11-05-2020 16:10:00 12.7 C 5.68 g/m*3 12.7 C 27.4 km/h
484 11-05-2020 16:15:00 12.2 C 5.5 g/m*3 12.2 C 27.4 km/h
485 11-05-2020 16:20:00 11.9 C 5.72 g/m*3 11.9 C 29 km/h
486 11-05-2020 16:25:00 12.1 C 5.68 g/m*3 12.1 C 22.5 km/h
487 11-05-2020 16:30:00 12.1 C 5.68 g/m*3 12.1 C 22.5 km/h
488 11-05-2020 16:35:00 12.1 C 5.25 g/m*3 12.1 C 35.4 km/h
489 11-05-2020 16:40:00 12.1 C 5.25 g/m*3 12.1 C 20.9 km/h
490 11-05-2020 16:45:00 12.1 C 5.36 g/m*3 12.1 C 17.7 km/h
491 11-05-2020 16:50:00 12.3 C 5.1 g/m*3 12.3 C 29 km/h
492 11-05-2020 16:55:00 12.3 C 5.32 g/m*3 12.3 C 20.9 km/h
493 11-05-2020 17:00:00 12.2 C 5.18 g/m*3 12.2 C 17.7 km/h
494 11-05-2020 17:05:00 12.2 C 5.5 g/m*3 12.2 C 20.9 km/h
495 11-05-2020 17:10:00 12.2 C 5.29 g/m*3 12.2 C 27.4 km/h
496 11-05-2020 17:15:00 12.5 C 5.28 g/m*3 12.5 C 25.7 km/h
497 11-05-2020 17:20:00 12.6 C 5.2 g/m*3 12.6 C 22.5 km/h
498 11-05-2020 17:25:00 12.4 C 5.14 g/m*3 12.4 C 24.1 km/h
499 11-05-2020 17:30:00 12.1 C 5.04 g/m*3 12.1 C 17.7 km/h
500 11-05-2020 17:35:00 11.9 C 5.19 g/m*3 11.9 C 19.3 km/h
Sensor: Nr:Datum:Temp:Abs-Feuchte:Windchill:Wind:
Aussen-T/F 501 11-05-2020 17:40:00 11.9 C 5.19 g/m*3 11.9 C 22.5 km/h
502 11-05-2020 17:45:00 11.9 C 5.3 g/m*3 11.9 C 20.9 km/h
503 11-05-2020 17:50:00 11.9 C 5.19 g/m*3 11.9 C 25.7 km/h
504 11-05-2020 17:55:00 12.2 C 5.18 g/m*3 12.2 C 17.7 km/h
505 11-05-2020 18:00:00 11.9 C 5.19 g/m*3 11.9 C 27.4 km/h
506 11-05-2020 18:05:00 11.8 C 5.16 g/m*3 11.8 C 19.3 km/h
507 11-05-2020 18:10:00 11.7 C 5.02 g/m*3 11.7 C 20.9 km/h
508 11-05-2020 18:15:00 11.6 C 5.09 g/m*3 11.6 C 22.5 km/h
509 11-05-2020 18:20:00 11.7 C 5.02 g/m*3 11.7 C 19.3 km/h
510 11-05-2020 18:25:00 11.9 C 5.19 g/m*3 11.9 C 17.7 km/h
511 11-05-2020 18:30:00 11.8 C 4.84 g/m*3 11.8 C 27.4 km/h
512 11-05-2020 18:35:00 11.6 C 4.89 g/m*3 11.6 C 22.5 km/h
513 11-05-2020 18:40:00 11.5 C 4.96 g/m*3 11.5 C 19.3 km/h
514 11-05-2020 18:45:00 11.4 C 4.93 g/m*3 11.4 C 20.9 km/h
515 11-05-2020 18:50:00 11.4 C 4.72 g/m*3 11.4 C 16.1 km/h
516 11-05-2020 18:55:00 11.3 C 4.79 g/m*3 11.3 C 16.1 km/h
517 11-05-2020 19:00:00 11.3 C 4.69 g/m*3 11.3 C 16.1 km/h
518 11-05-2020 19:05:00 11.7 C 4.92 g/m*3 11.7 C 16.1 km/h
519 11-05-2020 19:10:00 11.8 C 4.95 g/m*3 11.8 C 16.1 km/h
520 11-05-2020 19:15:00 12.1 C 4.93 g/m*3 12.1 C 19.3 km/h
521 11-05-2020 19:20:00 12.1 C 5.04 g/m*3 12.1 C 16.1 km/h
522 11-05-2020 19:25:00 11.8 C 5.05 g/m*3 11.8 C 22.5 km/h
523 11-05-2020 19:30:00 11.7 C 5.02 g/m*3 11.7 C 19.3 km/h
524 11-05-2020 19:35:00 11.6 C 4.89 g/m*3 11.6 C 22.5 km/h
525 11-05-2020 19:40:00 11.5 C 4.85 g/m*3 11.5 C 27.4 km/h
Sensor: Nr:Datum:Temp:Abs-Feuchte:Windchill:Wind:
Aussen-T/F 526 11-05-2020 19:45:00 11.3 C 4.79 g/m*3 11.3 C 20.9 km/h
527 11-05-2020 19:50:00 11.3 C 4.79 g/m*3 11.3 C 17.7 km/h
528 11-05-2020 19:55:00 11.3 C 4.69 g/m*3 11.3 C 14.5 km/h
529 11-05-2020 20:00:00 11.4 C 4.93 g/m*3 11.4 C 16.1 km/h
530 11-05-2020 20:05:00 11.5 C 4.65 g/m*3 11.5 C 12.9 km/h
531 11-05-2020 20:10:00 11.4 C 4.62 g/m*3 11.4 C 20.9 km/h
532 11-05-2020 20:15:00 11.3 C 4.69 g/m*3 11.3 C 25.7 km/h
533 11-05-2020 20:20:00 11.2 C 4.66 g/m*3 11.2 C 20.9 km/h
534 11-05-2020 20:25:00 11.1 C 4.73 g/m*3 11.1 C 14.5 km/h
535 11-05-2020 20:30:00 10.8 C 4.65 g/m*3 9.16 C 12.9 km/h
536 11-05-2020 20:35:00 10.7 C 4.52 g/m*3 9.04 C 12.9 km/h
537 11-05-2020 20:40:00 10.5 C 4.56 g/m*3 8.8 C 12.9 km/h
538 11-05-2020 20:45:00 10.4 C 4.72 g/m*3 9.16 C 9.7 km/h
539 11-05-2020 20:50:00 10.3 C 4.6 g/m*3 8.34 C 14.5 km/h
540 11-05-2020 20:55:00 10.2 C 4.76 g/m*3 8.43 C 12.9 km/h
541 11-05-2020 21:00:00 10.1 C 4.73 g/m*3 9.1 C 8.1 km/h
542 11-05-2020 21:05:00 10.1 C 4.73 g/m*3 8.54 C 11.3 km/h
543 11-05-2020 21:10:00 10 C 4.51 g/m*3 7.78 C 16.1 km/h
544 11-05-2020 21:15:00 10 C 4.42 g/m*3 7.78 C 16.1 km/h
545 11-05-2020 21:20:00 10 C 4.51 g/m*3 7.98 C 14.5 km/h
546 11-05-2020 21:25:00 10 C 4.42 g/m*3 8.42 C 11.3 km/h
547 11-05-2020 21:30:00 10 C 4.51 g/m*3 8.19 C 12.9 km/h
548 11-05-2020 21:35:00 10 C 4.51 g/m*3 8.68 C 9.7 km/h
549 11-05-2020 21:40:00 10 C 4.51 g/m*3 8.99 C 8.1 km/h
550 11-05-2020 21:45:00 9.9 C 4.48 g/m*3 8.87 C 8.1 km/h
Sensor: Nr:Datum:Temp:Abs-Feuchte:Windchill:Wind:
Aussen-T/F 551 11-05-2020 21:50:00 9.8 C 4.55 g/m*3 9.8 C 3.2 km/h
552 11-05-2020 21:55:00 9.8 C 4.64 g/m*3 9.8 C 4.8 km/h
553 11-05-2020 22:00:00 9.7 C 4.61 g/m*3 9.7 C 4.8 km/h
554 11-05-2020 22:05:00 9.6 C 4.67 g/m*3 9.6 C 4.8 km/h
555 11-05-2020 22:10:00 9.6 C 4.67 g/m*3 8.91 C 6.4 km/h
556 11-05-2020 22:15:00 9.5 C 4.92 g/m*3 9.5 C 3.2 km/h
557 11-05-2020 22:20:00 9.4 C 4.88 g/m*3 9.4 C 4.8 km/h
558 11-05-2020 22:25:00 9.4 C 4.88 g/m*3 9.4 C 4.8 km/h
559 11-05-2020 22:30:00 9.4 C 4.88 g/m*3 9.4 C 3.2 km/h
560 11-05-2020 22:35:00 9.3 C 4.85 g/m*3 9.3 C 3.2 km/h
561 11-05-2020 22:40:00 9.3 C 5.3 g/m*3 9.3 C 1.6 km/h
562 11-05-2020 22:45:00 9.2 C 5.45 g/m*3 9.2 C 0 km/h
563 11-05-2020 22:50:00 9 C 5.47 g/m*3 9 C 0 km/h
564 11-05-2020 22:55:00 8.7 C 5.36 g/m*3 8.7 C 0 km/h
565 11-05-2020 23:00:00 8.4 C 5.43 g/m*3 8.4 C 0 km/h
566 11-05-2020 23:05:00 8.2 C 5.44 g/m*3 8.2 C 0 km/h
567 11-05-2020 23:10:00 8 C 5.46 g/m*3 8 C 0 km/h
568 11-05-2020 23:15:00 7.8 C 5.47 g/m*3 7.8 C 0 km/h
569 11-05-2020 23:20:00 7.7 C 5.51 g/m*3 7.7 C 0 km/h
570 11-05-2020 23:25:00 7.6 C 5.56 g/m*3 7.6 C 1.6 km/h
571 11-05-2020 23:30:00 7.6 C 5.48 g/m*3 7.6 C 1.6 km/h
572 11-05-2020 23:35:00 7.5 C 5.52 g/m*3 7.5 C 3.2 km/h
573 11-05-2020 23:40:00 7.4 C 5.49 g/m*3 7.4 C 0 km/h
574 11-05-2020 23:45:00 7.2 C 5.42 g/m*3 7.2 C 1.6 km/h
575 11-05-2020 23:50:00 6.8 C 5.28 g/m*3 6.8 C 0 km/h
Sensor: Nr:Datum:Temp:Abs-Feuchte:Windchill:Wind:
Aussen-T/F 576 11-05-2020 23:55:00 6.6 C 5.36 g/m*3 6.6 C 1.6 km/h
577 12-05-2020 00:00:00 6.3 C 5.33 g/m*3 6.3 C 1.6 km/h
578 12-05-2020 00:05:00 6.1 C 5.33 g/m*3 6.1 C 4.8 km/h
579 12-05-2020 00:10:00 5.8 C 5.16 g/m*3 5.8 C 1.6 km/h
580 12-05-2020 00:15:00 5.7 C 5.19 g/m*3 5.7 C 1.6 km/h
581 12-05-2020 00:20:00 5.6 C 5.23 g/m*3 5.6 C 4.8 km/h
582 12-05-2020 00:25:00 5.4 C 5.16 g/m*3 5.4 C 3.2 km/h
583 12-05-2020 00:30:00 5.2 C 5.16 g/m*3 5.2 C 3.2 km/h
584 12-05-2020 00:35:00 5.1 C 5.2 g/m*3 5.1 C 3.2 km/h
585 12-05-2020 00:40:00 5 C 5.16 g/m*3 5 C 1.6 km/h
586 12-05-2020 00:45:00 4.8 C 5.1 g/m*3 4.8 C 0 km/h
587 12-05-2020 00:50:00 4.8 C 5.16 g/m*3 4.8 C 0 km/h
588 12-05-2020 00:55:00 4.7 C 5.06 g/m*3 4.7 C 3.2 km/h
589 12-05-2020 01:00:00 4.6 C 5.1 g/m*3 4.6 C 4.8 km/h
590 12-05-2020 01:05:00 4.4 C 5.03 g/m*3 4.4 C 0 km/h
591 12-05-2020 01:10:00 4.3 C 4.99 g/m*3 4.3 C 1.6 km/h
592 12-05-2020 01:15:00 4.3 C 4.99 g/m*3 4.3 C 3.2 km/h
593 12-05-2020 01:20:00 4.2 C 4.96 g/m*3 4.2 C 1.6 km/h
594 12-05-2020 01:25:00 4.1 C 4.99 g/m*3 4.1 C 3.2 km/h
595 12-05-2020 01:30:00 3.9 C 4.93 g/m*3 3.9 C 3.2 km/h
596 12-05-2020 01:35:00 3.9 C 4.99 g/m*3 3.9 C 0 km/h
597 12-05-2020 01:40:00 3.8 C 4.96 g/m*3 3.8 C 0 km/h
598 12-05-2020 01:45:00 3.8 C 4.96 g/m*3 3.8 C 1.6 km/h
599 12-05-2020 01:50:00 3.9 C 4.99 g/m*3 3.9 C 1.6 km/h
600 12-05-2020 01:55:00 4.1 C 4.99 g/m*3 4.1 C 3.2 km/h
Sensor: Nr:Datum:Temp:Abs-Feuchte:Windchill:Wind:
Aussen-T/F 601 12-05-2020 02:00:00 4.2 C 4.96 g/m*3 4.2 C 3.2 km/h
602 12-05-2020 02:05:00 4.3 C 4.86 g/m*3 4.3 C 3.2 km/h
603 12-05-2020 02:10:00 4.4 C 4.96 g/m*3 4.4 C 3.2 km/h
604 12-05-2020 02:15:00 4.3 C 4.86 g/m*3 4.3 C 1.6 km/h
605 12-05-2020 02:20:00 4.2 C 4.9 g/m*3 4.2 C 0 km/h
606 12-05-2020 02:25:00 4.2 C 4.77 g/m*3 4.2 C 4.8 km/h
607 12-05-2020 02:30:00 4.3 C 4.86 g/m*3 4.3 C 3.2 km/h
608 12-05-2020 02:35:00 4.3 C 4.86 g/m*3 4.3 C 3.2 km/h
609 12-05-2020 02:40:00 4.2 C 4.9 g/m*3 4.2 C 4.8 km/h
610 12-05-2020 02:45:00 4 C 4.83 g/m*3 4 C 4.8 km/h
611 12-05-2020 02:50:00 3.8 C 4.83 g/m*3 2.21 C 6.4 km/h
612 12-05-2020 02:55:00 3.6 C 4.77 g/m*3 1.98 C 6.4 km/h
613 12-05-2020 03:00:00 3.5 C 4.8 g/m*3 1.86 C 6.4 km/h
614 12-05-2020 03:05:00 3.4 C 4.83 g/m*3 3.4 C 4.8 km/h
615 12-05-2020 03:10:00 3.2 C 4.76 g/m*3 3.2 C 3.2 km/h
616 12-05-2020 03:15:00 3.1 C 4.73 g/m*3 3.1 C 4.8 km/h
617 12-05-2020 03:20:00 3.1 C 4.79 g/m*3 3.1 C 4.8 km/h
618 12-05-2020 03:25:00 2.9 C 4.72 g/m*3 1.17 C 6.4 km/h
619 12-05-2020 03:30:00 2.9 C 4.72 g/m*3 1.17 C 6.4 km/h
620 12-05-2020 03:35:00 2.8 C 4.69 g/m*3 2.8 C 4.8 km/h
621 12-05-2020 03:40:00 2.8 C 4.75 g/m*3 0.52 C 8.1 km/h
622 12-05-2020 03:45:00 2.7 C 4.72 g/m*3 2.7 C 4.8 km/h
623 12-05-2020 03:50:00 2.7 C 4.72 g/m*3 2.7 C 4.8 km/h
624 12-05-2020 03:55:00 2.7 C 4.72 g/m*3 2.7 C 4.8 km/h
625 12-05-2020 04:00:00 2.7 C 4.72 g/m*3 2.7 C 4.8 km/h
Sensor: Nr:Datum:Temp:Abs-Feuchte:Windchill:Wind:
Aussen-T/F 626 12-05-2020 04:05:00 2.6 C 4.69 g/m*3 0.82 C 6.4 km/h
627 12-05-2020 04:10:00 2.6 C 4.75 g/m*3 0.82 C 6.4 km/h
628 12-05-2020 04:15:00 2.5 C 4.71 g/m*3 2.5 C 3.2 km/h
629 12-05-2020 04:20:00 2.5 C 4.71 g/m*3 2.5 C 4.8 km/h
630 12-05-2020 04:25:00 2.4 C 4.68 g/m*3 2.4 C 3.2 km/h
631 12-05-2020 04:30:00 2.3 C 4.65 g/m*3 0.47 C 6.4 km/h
632 12-05-2020 04:35:00 2.3 C 4.65 g/m*3 -0.07 C 8.1 km/h
633 12-05-2020 04:40:00 2.3 C 4.65 g/m*3 -0.07 C 8.1 km/h
634 12-05-2020 04:45:00 2.3 C 4.65 g/m*3 0.47 C 6.4 km/h
635 12-05-2020 04:50:00 2.3 C 4.65 g/m*3 -0.07 C 8.1 km/h
636 12-05-2020 04:55:00 2.4 C 4.68 g/m*3 0.59 C 6.4 km/h
637 12-05-2020 05:00:00 2.3 C 4.65 g/m*3 0.47 C 6.4 km/h
638 12-05-2020 05:05:00 2.3 C 4.65 g/m*3 -0.07 C 8.1 km/h
639 12-05-2020 05:10:00 2.2 C 4.62 g/m*3 -0.18 C 8.1 km/h
640 12-05-2020 05:15:00 2.2 C 4.68 g/m*3 -0.18 C 8.1 km/h
641 12-05-2020 05:20:00 2.2 C 4.68 g/m*3 2.2 C 4.8 km/h
642 12-05-2020 05:25:00 2.1 C 4.64 g/m*3 2.1 C 3.2 km/h
643 12-05-2020 05:30:00 2 C 4.61 g/m*3 0.13 C 6.4 km/h
644 12-05-2020 05:35:00 1.9 C 4.58 g/m*3 1.9 C 4.8 km/h
645 12-05-2020 05:40:00 1.9 C 4.64 g/m*3 1.9 C 0 km/h
646 12-05-2020 05:45:00 1.8 C 4.6 g/m*3 1.8 C 1.6 km/h
647 12-05-2020 05:50:00 1.7 C 4.57 g/m*3 1.7 C 0 km/h
648 12-05-2020 05:55:00 1.6 C 4.6 g/m*3 1.6 C 0 km/h
649 12-05-2020 06:00:00 1.5 C 4.57 g/m*3 1.5 C 0 km/h
650 12-05-2020 06:05:00 1.4 C 4.53 g/m*3 1.4 C 0 km/h
Sensor: Nr:Datum:Temp:Abs-Feuchte:Windchill:Wind:
Aussen-T/F 651 12-05-2020 06:10:00 1.3 C 4.56 g/m*3 1.3 C 0 km/h
652 12-05-2020 06:15:00 1.2 C 4.53 g/m*3 1.2 C 0 km/h
653 12-05-2020 06:20:00 1.2 C 4.58 g/m*3 1.2 C 3.2 km/h
654 12-05-2020 06:25:00 1.1 C 4.55 g/m*3 1.1 C 0 km/h
655 12-05-2020 06:30:00 1.1 C 4.55 g/m*3 1.1 C 0 km/h
656 12-05-2020 06:35:00 1 C 4.57 g/m*3 1 C 0 km/h
657 12-05-2020 06:40:00 1 C 4.57 g/m*3 1 C 0 km/h
658 12-05-2020 06:45:00 1 C 4.57 g/m*3 1 C 0 km/h
659 12-05-2020 06:50:00 1 C 4.62 g/m*3 1 C 0 km/h
660 12-05-2020 06:55:00 0.9 C 4.59 g/m*3 0.9 C 0 km/h
661 12-05-2020 07:00:00 1 C 4.62 g/m*3 1 C 0 km/h
662 12-05-2020 07:05:00 1 C 4.67 g/m*3 1 C 0 km/h
663 12-05-2020 07:10:00 1.1 C 4.7 g/m*3 1.1 C 0 km/h
664 12-05-2020 07:15:00 1.2 C 4.74 g/m*3 1.2 C 0 km/h
665 12-05-2020 07:20:00 1.2 C 4.74 g/m*3 1.2 C 0 km/h
666 12-05-2020 07:25:00 1.2 C 4.74 g/m*3 1.2 C 0 km/h
667 12-05-2020 07:30:00 1.3 C 4.77 g/m*3 1.3 C 0 km/h
668 12-05-2020 07:35:00 1.3 C 4.82 g/m*3 1.3 C 0 km/h
669 12-05-2020 07:40:00 1.4 C 4.85 g/m*3 1.4 C 3.2 km/h
670 12-05-2020 07:45:00 1.5 C 4.89 g/m*3 1.5 C 1.6 km/h
671 12-05-2020 07:50:00 1.6 C 4.92 g/m*3 1.6 C 0 km/h
672 12-05-2020 07:55:00 1.7 C 4.95 g/m*3 1.7 C 0 km/h
673 12-05-2020 08:00:00 1.8 C 4.99 g/m*3 1.8 C 0 km/h
674 12-05-2020 08:05:00 1.9 C 5.02 g/m*3 1.9 C 0 km/h
675 12-05-2020 08:10:00 2.1 C 5.09 g/m*3 2.1 C 0 km/h
Sensor: Nr:Datum:Temp:Abs-Feuchte:Windchill:Wind:
Aussen-T/F 676 12-05-2020 08:15:00 2.1 C 5.09 g/m*3 2.1 C 1.6 km/h
677 12-05-2020 08:20:00 2.2 C 5.07 g/m*3 2.2 C 0 km/h
678 12-05-2020 08:25:00 2.3 C 5.16 g/m*3 2.3 C 0 km/h
679 12-05-2020 08:30:00 2.5 C 5.23 g/m*3 2.5 C 0 km/h
680 12-05-2020 08:35:00 2.7 C 5.3 g/m*3 2.7 C 0 km/h
681 12-05-2020 08:40:00 2.8 C 5.34 g/m*3 2.8 C 0 km/h
682 12-05-2020 08:45:00 3 C 5.35 g/m*3 3 C 0 km/h
683 12-05-2020 08:50:00 3.2 C 5.42 g/m*3 3.2 C 3.2 km/h
684 12-05-2020 08:55:00 3.3 C 5.4 g/m*3 3.3 C 0 km/h
685 12-05-2020 09:00:00 3.5 C 5.47 g/m*3 3.5 C 0 km/h
686 12-05-2020 09:05:00 3.7 C 5.55 g/m*3 3.7 C 0 km/h
687 12-05-2020 09:10:00 3.8 C 5.52 g/m*3 3.8 C 0 km/h
688 12-05-2020 09:15:00 3.9 C 5.56 g/m*3 3.9 C 0 km/h
689 12-05-2020 09:20:00 4.1 C 5.63 g/m*3 4.1 C 0 km/h
690 12-05-2020 09:25:00 4.3 C 5.64 g/m*3 4.3 C 0 km/h
691 12-05-2020 09:30:00 4.4 C 5.55 g/m*3 4.4 C 1.6 km/h
692 12-05-2020 09:35:00 4.7 C 5.53 g/m*3 4.7 C 0 km/h
693 12-05-2020 09:40:00 4.9 C 5.67 g/m*3 4.9 C 0 km/h
694 12-05-2020 09:45:00 5.1 C 5.68 g/m*3 5.1 C 3.2 km/h
695 12-05-2020 09:50:00 5.2 C 5.65 g/m*3 5.2 C 0 km/h
696 12-05-2020 09:55:00 5.4 C 5.65 g/m*3 5.4 C 3.2 km/h
697 12-05-2020 10:00:00 5.5 C 5.69 g/m*3 5.5 C 0 km/h
698 12-05-2020 10:05:00 5.7 C 5.48 g/m*3 5.7 C 1.6 km/h
699 12-05-2020 10:10:00 6.2 C 5.59 g/m*3 6.2 C 1.6 km/h
700 12-05-2020 10:15:00 6.6 C 5.51 g/m*3 6.6 C 3.2 km/h
Sensor: Nr:Datum:Temp:Abs-Feuchte:Windchill:Wind:
Aussen-T/F 701 12-05-2020 10:20:00 6.8 C 5.51 g/m*3 6.8 C 3.2 km/h
702 12-05-2020 10:25:00 6.9 C 5.47 g/m*3 6.9 C 3.2 km/h
703 12-05-2020 10:30:00 7.2 C 5.49 g/m*3 7.2 C 4.8 km/h
704 12-05-2020 10:35:00 7.4 C 5.33 g/m*3 5.93 C 8.1 km/h
705 12-05-2020 10:40:00 7.8 C 5.39 g/m*3 6.4 C 8.1 km/h
706 12-05-2020 10:45:00 7.9 C 5.5 g/m*3 7.9 C 3.2 km/h
707 12-05-2020 10:50:00 8.2 C 5.44 g/m*3 7.29 C 6.4 km/h
708 12-05-2020 10:55:00 8.4 C 5.51 g/m*3 8.4 C 1.6 km/h
709 12-05-2020 11:00:00 8.6 C 5.33 g/m*3 8.6 C 1.6 km/h
710 12-05-2020 11:05:00 8.7 C 5.19 g/m*3 7.46 C 8.1 km/h
711 12-05-2020 11:10:00 8.8 C 5.22 g/m*3 8.8 C 3.2 km/h
712 12-05-2020 11:15:00 8.8 C 5.05 g/m*3 7.98 C 6.4 km/h
713 12-05-2020 11:20:00 8.8 C 5.05 g/m*3 8.8 C 3.2 km/h
714 12-05-2020 11:25:00 9 C 5.03 g/m*3 7.81 C 8.1 km/h
715 12-05-2020 11:30:00 9.2 C 5.18 g/m*3 9.2 C 3.2 km/h
716 12-05-2020 11:35:00 9.2 C 5 g/m*3 8.45 C 6.4 km/h
717 12-05-2020 11:40:00 9.3 C 5.03 g/m*3 9.3 C 3.2 km/h
718 12-05-2020 11:45:00 9.4 C 4.79 g/m*3 7.97 C 9.7 km/h
719 12-05-2020 11:50:00 9.5 C 4.82 g/m*3 7.82 C 11.3 km/h
720 12-05-2020 11:55:00 9.6 C 4.67 g/m*3 8.21 C 9.7 km/h
721 12-05-2020 12:00:00 9.7 C 4.61 g/m*3 8.06 C 11.3 km/h
722 12-05-2020 12:05:00 9.7 C 4.52 g/m*3 8.63 C 8.1 km/h
723 12-05-2020 12:10:00 9.6 C 4.49 g/m*3 8.21 C 9.7 km/h
724 12-05-2020 12:15:00 9.7 C 4.43 g/m*3 8.06 C 11.3 km/h
725 12-05-2020 12:20:00 9.8 C 4.36 g/m*3 8.75 C 8.1 km/h
Sensor: Nr:Datum:Temp:Abs-Feuchte:Windchill:Wind:
Aussen-T/F 726 12-05-2020 12:25:00 9.7 C 4.33 g/m*3 8.63 C 8.1 km/h
727 12-05-2020 12:30:00 9.7 C 4.06 g/m*3 8.33 C 9.7 km/h
728 12-05-2020 12:35:00 9.8 C 4.18 g/m*3 8.18 C 11.3 km/h
729 12-05-2020 12:40:00 10.2 C 3.81 g/m*3 8.92 C 9.7 km/h
730 12-05-2020 12:45:00 10.4 C 3.57 g/m*3 9.46 C 8.1 km/h
731 12-05-2020 12:50:00 10.4 C 3.47 g/m*3 9.46 C 8.1 km/h
732 12-05-2020 12:55:00 10.4 C 3.76 g/m*3 10.4 C 4.8 km/h
733 12-05-2020 13:00:00 10.3 C 3.83 g/m*3 10.3 C 3.2 km/h
734 12-05-2020 13:05:00 10.4 C 3.66 g/m*3 9.16 C 9.7 km/h
735 12-05-2020 13:10:00 10.6 C 3.9 g/m*3 9.4 C 9.7 km/h
736 12-05-2020 13:15:00 10.8 C 3.95 g/m*3 9.16 C 12.9 km/h
737 12-05-2020 13:20:00 11 C 4.2 g/m*3 9.4 C 12.9 km/h
738 12-05-2020 13:25:00 11.1 C 4.23 g/m*3 11.1 C 8.1 km/h
739 12-05-2020 13:30:00 11.1 C 4.03 g/m*3 11.1 C 11.3 km/h
740 12-05-2020 13:35:00 11.1 C 4.13 g/m*3 11.1 C 9.7 km/h
741 12-05-2020 13:40:00 11.2 C 4.36 g/m*3 11.2 C 11.3 km/h
742 12-05-2020 13:45:00 11.2 C 4.26 g/m*3 11.2 C 6.4 km/h
743 12-05-2020 13:50:00 11.2 C 4.46 g/m*3 11.2 C 6.4 km/h
744 12-05-2020 13:55:00 11.2 C 4.36 g/m*3 11.2 C 6.4 km/h
745 12-05-2020 14:00:00 11.3 C 4.69 g/m*3 11.3 C 4.8 km/h
746 12-05-2020 14:05:00 11.5 C 4.54 g/m*3 11.5 C 16.1 km/h
747 12-05-2020 14:10:00 11.7 C 4.29 g/m*3 11.7 C 16.1 km/h
748 12-05-2020 14:15:00 11.9 C 4.55 g/m*3 11.9 C 9.7 km/h
749 12-05-2020 14:20:00 11.9 C 4.45 g/m*3 11.9 C 8.1 km/h
750 12-05-2020 14:25:00 11.9 C 4.45 g/m*3 11.9 C 6.4 km/h
Sensor: Nr:Datum:Temp:Abs-Feuchte:Windchill:Wind:
Aussen-T/F 751 12-05-2020 14:30:00 12.2 C 4.64 g/m*3 12.2 C 8.1 km/h
752 12-05-2020 14:35:00 12.2 C 5.07 g/m*3 12.2 C 11.3 km/h
753 12-05-2020 14:40:00 12.3 C 4.78 g/m*3 12.3 C 11.3 km/h
754 12-05-2020 14:45:00 12.5 C 5.06 g/m*3 12.5 C 8.1 km/h
755 12-05-2020 14:50:00 12.7 C 4.79 g/m*3 12.7 C 14.5 km/h
756 12-05-2020 14:55:00 12.7 C 4.79 g/m*3 12.7 C 8.1 km/h
757 12-05-2020 15:00:00 12.8 C 4.7 g/m*3 12.8 C 11.3 km/h
758 12-05-2020 15:05:00 12.7 C 4.79 g/m*3 12.7 C 8.1 km/h
759 12-05-2020 15:10:00 12.6 C 4.65 g/m*3 12.6 C 9.7 km/h
760 12-05-2020 15:15:00 12.6 C 4.98 g/m*3 12.6 C 14.5 km/h
761 12-05-2020 15:20:00 12.8 C 5.04 g/m*3 12.8 C 17.7 km/h
762 12-05-2020 15:25:00 12.8 C 4.93 g/m*3 12.8 C 11.3 km/h
763 12-05-2020 15:30:00 12.7 C 4.79 g/m*3 12.7 C 8.1 km/h
764 12-05-2020 15:35:00 12.8 C 4.93 g/m*3 12.8 C 3.2 km/h
765 12-05-2020 15:40:00 13.3 C 5.31 g/m*3 13.3 C 9.7 km/h
766 12-05-2020 15:45:00 13.9 C 5.27 g/m*3 13.9 C 12.9 km/h
767 12-05-2020 15:50:00 14.2 C 5.25 g/m*3 14.2 C 14.5 km/h
768 12-05-2020 15:55:00 14.1 C 4.98 g/m*3 14.1 C 14.5 km/h
769 12-05-2020 16:00:00 13.8 C 4.89 g/m*3 13.8 C 9.7 km/h
770 12-05-2020 16:05:00 14.1 C 5.22 g/m*3 14.1 C 12.9 km/h
771 12-05-2020 16:10:00 14.3 C 5.04 g/m*3 14.3 C 4.8 km/h
772 12-05-2020 16:15:00 14.7 C 5.29 g/m*3 14.7 C 8.1 km/h
773 12-05-2020 16:20:00 14.7 C 5.16 g/m*3 14.7 C 11.3 km/h
774 12-05-2020 16:25:00 14.2 C 5.01 g/m*3 14.2 C 8.1 km/h
775 12-05-2020 16:30:00 13.7 C 5.21 g/m*3 13.7 C 3.2 km/h
Sensor: Nr:Datum:Temp:Abs-Feuchte:Windchill:Wind:
Aussen-T/F 776 12-05-2020 16:35:00 13.9 C 4.92 g/m*3 13.9 C 11.3 km/h
777 12-05-2020 16:40:00 14.1 C 5.34 g/m*3 14.1 C 6.4 km/h
778 12-05-2020 16:45:00 14 C 5.07 g/m*3 14 C 11.3 km/h
779 12-05-2020 16:50:00 13.6 C 5.06 g/m*3 13.6 C 14.5 km/h
780 12-05-2020 16:55:00 13.8 C 5.12 g/m*3 13.8 C 8.1 km/h
781 12-05-2020 17:00:00 14.1 C 5.22 g/m*3 14.1 C 6.4 km/h
782 12-05-2020 17:05:00 14.3 C 5.16 g/m*3 14.3 C 9.7 km/h
783 12-05-2020 17:10:00 14.4 C 5.19 g/m*3 14.4 C 9.7 km/h
784 12-05-2020 17:15:00 14.5 C 5.35 g/m*3 14.5 C 12.9 km/h
785 12-05-2020 17:20:00 14.7 C 5.16 g/m*3 14.7 C 12.9 km/h
786 12-05-2020 17:25:00 14 C 5.07 g/m*3 14 C 12.9 km/h
787 12-05-2020 17:30:00 13.4 C 5.11 g/m*3 13.4 C 8.1 km/h
788 12-05-2020 17:35:00 13.4 C 5.35 g/m*3 13.4 C 4.8 km/h
789 12-05-2020 17:40:00 13.8 C 5.24 g/m*3 13.8 C 8.1 km/h
790 12-05-2020 17:45:00 14.1 C 5.22 g/m*3 14.1 C 8.1 km/h
791 12-05-2020 17:50:00 14.6 C 5.51 g/m*3 14.6 C 8.1 km/h
792 12-05-2020 17:55:00 15 C 5.39 g/m*3 15 C 8.1 km/h
793 12-05-2020 18:00:00 15.2 C 5.32 g/m*3 15.2 C 4.8 km/h
794 12-05-2020 18:05:00 15.3 C 5.22 g/m*3 15.3 C 8.1 km/h
795 12-05-2020 18:10:00 15.1 C 5.16 g/m*3 15.1 C 8.1 km/h
796 12-05-2020 18:15:00 14.9 C 5.23 g/m*3 14.9 C 11.3 km/h
797 12-05-2020 18:20:00 15 C 5.39 g/m*3 15 C 9.7 km/h
798 12-05-2020 18:25:00 15 C 5.26 g/m*3 15 C 8.1 km/h
799 12-05-2020 18:30:00 15 C 5.51 g/m*3 15 C 6.4 km/h
800 12-05-2020 18:35:00 15.1 C 5.42 g/m*3 15.1 C 6.4 km/h
Sensor: Nr:Datum:Temp:Abs-Feuchte:Windchill:Wind:
Aussen-T/F 801 12-05-2020 18:40:00 14.9 C 5.35 g/m*3 14.9 C 4.8 km/h
802 12-05-2020 18:45:00 14.8 C 5.45 g/m*3 14.8 C 6.4 km/h
803 12-05-2020 18:50:00 14.7 C 5.41 g/m*3 14.7 C 8.1 km/h
804 12-05-2020 18:55:00 14.8 C 5.57 g/m*3 14.8 C 6.4 km/h
805 12-05-2020 19:00:00 14.7 C 5.29 g/m*3 14.7 C 8.1 km/h
806 12-05-2020 19:05:00 14.4 C 5.19 g/m*3 14.4 C 8.1 km/h
807 12-05-2020 19:10:00 14.2 C 5.25 g/m*3 14.2 C 6.4 km/h
808 12-05-2020 19:15:00 14.1 C 5.22 g/m*3 14.1 C 3.2 km/h
809 12-05-2020 19:20:00 13.8 C 5.24 g/m*3 13.8 C 6.4 km/h
810 12-05-2020 19:25:00 13.6 C 5.3 g/m*3 13.6 C 4.8 km/h
811 12-05-2020 19:30:00 13.4 C 5.23 g/m*3 13.4 C 6.4 km/h
812 12-05-2020 19:35:00 13.2 C 5.28 g/m*3 13.2 C 6.4 km/h
813 12-05-2020 19:40:00 12.9 C 5.18 g/m*3 12.9 C 8.1 km/h
814 12-05-2020 19:45:00 12.8 C 5.26 g/m*3 12.8 C 6.4 km/h
815 12-05-2020 19:50:00 12.7 C 5.23 g/m*3 12.7 C 9.7 km/h
816 12-05-2020 19:55:00 12.6 C 5.31 g/m*3 12.6 C 4.8 km/h
817 12-05-2020 20:00:00 12.4 C 5.24 g/m*3 12.4 C 4.8 km/h
818 12-05-2020 20:05:00 12.3 C 5.21 g/m*3 12.3 C 6.4 km/h
819 12-05-2020 20:10:00 12.3 C 5.21 g/m*3 12.3 C 4.8 km/h
820 12-05-2020 20:15:00 12.3 C 5.21 g/m*3 12.3 C 3.2 km/h
821 12-05-2020 20:20:00 12.3 C 5.21 g/m*3 12.3 C 1.6 km/h
822 12-05-2020 20:25:00 12.2 C 5.4 g/m*3 12.2 C 3.2 km/h
823 12-05-2020 20:30:00 12.2 C 5.94 g/m*3 12.2 C 3.2 km/h
824 12-05-2020 20:35:00 12 C 6.07 g/m*3 12 C 0 km/h
825 12-05-2020 20:40:00 11.8 C 6.21 g/m*3 11.8 C 0 km/h
Sensor: Nr:Datum:Temp:Abs-Feuchte:Windchill:Wind:
Aussen-T/F 826 12-05-2020 20:45:00 11.4 C 6.06 g/m*3 11.4 C 1.6 km/h
827 12-05-2020 20:50:00 11.1 C 6.14 g/m*3 11.1 C 0 km/h
828 12-05-2020 20:55:00 10.7 C 6.09 g/m*3 10.7 C 1.6 km/h
829 12-05-2020 21:00:00 10.2 C 6 g/m*3 10.2 C 0 km/h
830 12-05-2020 21:05:00 9.9 C 6.07 g/m*3 9.9 C 1.6 km/h
831 12-05-2020 21:10:00 9.6 C 6.05 g/m*3 9.6 C 1.6 km/h
832 12-05-2020 21:15:00 9.3 C 6.02 g/m*3 9.3 C 0 km/h
833 12-05-2020 21:20:00 9.1 C 5.94 g/m*3 9.1 C 0 km/h
834 12-05-2020 21:25:00 8.8 C 5.74 g/m*3 8.8 C 4.8 km/h
835 12-05-2020 21:30:00 8.7 C 5.79 g/m*3 8.7 C 0 km/h
836 12-05-2020 21:35:00 8.5 C 5.72 g/m*3 8.5 C 3.2 km/h
837 12-05-2020 21:40:00 8.3 C 5.73 g/m*3 8.3 C 4.8 km/h
838 12-05-2020 21:45:00 8.2 C 5.69 g/m*3 8.2 C 3.2 km/h
839 12-05-2020 21:50:00 8.1 C 5.74 g/m*3 8.1 C 0 km/h
840 12-05-2020 21:55:00 7.9 C 5.75 g/m*3 7.9 C 0 km/h
841 12-05-2020 22:00:00 7.8 C 5.63 g/m*3 7.8 C 0 km/h
842 12-05-2020 22:05:00 7.7 C 5.59 g/m*3 7.7 C 3.2 km/h
843 12-05-2020 22:10:00 7.7 C 5.59 g/m*3 7.7 C 4.8 km/h
844 12-05-2020 22:15:00 7.7 C 5.59 g/m*3 7.7 C 3.2 km/h
845 12-05-2020 22:20:00 7.6 C 5.56 g/m*3 7.6 C 3.2 km/h
846 12-05-2020 22:25:00 7.4 C 5.49 g/m*3 7.4 C 3.2 km/h
847 12-05-2020 22:30:00 7.3 C 5.45 g/m*3 7.3 C 4.8 km/h
848 12-05-2020 22:35:00 7.3 C 5.61 g/m*3 7.3 C 4.8 km/h
849 12-05-2020 22:40:00 7.2 C 5.49 g/m*3 7.2 C 4.8 km/h
850 12-05-2020 22:45:00 7.2 C 5.57 g/m*3 7.2 C 4.8 km/h
Sensor: Nr:Datum:Temp:Abs-Feuchte:Windchill:Wind:
Aussen-T/F 851 12-05-2020 22:50:00 7.1 C 5.54 g/m*3 6.02 C 6.4 km/h
852 12-05-2020 22:55:00 7 C 5.5 g/m*3 7 C 4.8 km/h
853 12-05-2020 23:00:00 6.9 C 5.54 g/m*3 5.79 C 6.4 km/h
854 12-05-2020 23:05:00 6.9 C 5.54 g/m*3 6.9 C 4.8 km/h
855 12-05-2020 23:10:00 6.8 C 5.51 g/m*3 6.8 C 4.8 km/h
856 12-05-2020 23:15:00 6.8 C 5.58 g/m*3 6.8 C 4.8 km/h
857 12-05-2020 23:20:00 6.8 C 5.51 g/m*3 6.8 C 4.8 km/h
858 12-05-2020 23:25:00 6.7 C 5.47 g/m*3 5.56 C 6.4 km/h
859 12-05-2020 23:30:00 6.7 C 5.47 g/m*3 6.7 C 4.8 km/h
860 12-05-2020 23:35:00 6.7 C 5.55 g/m*3 6.7 C 1.6 km/h
861 12-05-2020 23:40:00 6.6 C 5.59 g/m*3 6.6 C 4.8 km/h
862 12-05-2020 23:45:00 6.4 C 5.51 g/m*3 4.75 C 8.1 km/h
863 12-05-2020 23:50:00 6.4 C 5.51 g/m*3 6.4 C 4.8 km/h
864 12-05-2020 23:55:00 6.4 C 5.59 g/m*3 6.4 C 0 km/h
865 13-05-2020 00:00:00 6.3 C 5.63 g/m*3 6.3 C 1.6 km/h
866 13-05-2020 00:05:00 6.2 C 5.59 g/m*3 6.2 C 0 km/h
867 13-05-2020 00:10:00 6.1 C 5.63 g/m*3 6.1 C 0 km/h
868 13-05-2020 00:15:00 5.9 C 5.55 g/m*3 5.9 C 0 km/h
869 13-05-2020 00:20:00 5.8 C 5.59 g/m*3 5.8 C 0 km/h
870 13-05-2020 00:25:00 5.6 C 5.51 g/m*3 5.6 C 0 km/h
871 13-05-2020 00:30:00 5.4 C 5.51 g/m*3 5.4 C 0 km/h
872 13-05-2020 00:35:00 5.3 C 5.48 g/m*3 5.3 C 0 km/h
873 13-05-2020 00:40:00 5.2 C 5.51 g/m*3 5.2 C 0 km/h
874 13-05-2020 00:45:00 5.1 C 5.47 g/m*3 5.1 C 1.6 km/h
875 13-05-2020 00:50:00 5 C 5.44 g/m*3 5 C 0 km/h
Sensor: Nr:Datum:Temp:Abs-Feuchte:Windchill:Wind:
Aussen-T/F 876 13-05-2020 00:55:00 4.9 C 5.47 g/m*3 4.9 C 0 km/h
877 13-05-2020 01:00:00 4.8 C 5.43 g/m*3 4.8 C 0 km/h
878 13-05-2020 01:05:00 4.7 C 5.4 g/m*3 4.7 C 0 km/h
879 13-05-2020 01:10:00 4.6 C 5.43 g/m*3 4.6 C 0 km/h
880 13-05-2020 01:15:00 4.5 C 5.39 g/m*3 4.5 C 0 km/h
881 13-05-2020 01:20:00 4.3 C 5.32 g/m*3 4.3 C 0 km/h
882 13-05-2020 01:25:00 4.2 C 5.35 g/m*3 4.2 C 0 km/h
883 13-05-2020 01:30:00 4.2 C 5.35 g/m*3 4.2 C 0 km/h
884 13-05-2020 01:35:00 4.1 C 5.31 g/m*3 4.1 C 0 km/h
885 13-05-2020 01:40:00 4 C 5.34 g/m*3 4 C 0 km/h
886 13-05-2020 01:45:00 3.9 C 5.31 g/m*3 3.9 C 0 km/h
887 13-05-2020 01:50:00 3.8 C 5.27 g/m*3 3.8 C 0 km/h
888 13-05-2020 01:55:00 3.7 C 5.23 g/m*3 3.7 C 0 km/h
889 13-05-2020 02:00:00 3.7 C 5.23 g/m*3 3.7 C 0 km/h
890 13-05-2020 02:05:00 3.6 C 5.2 g/m*3 3.6 C 0 km/h
891 13-05-2020 02:10:00 3.5 C 5.23 g/m*3 3.5 C 1.6 km/h
892 13-05-2020 02:15:00 3.5 C 5.23 g/m*3 3.5 C 0 km/h
893 13-05-2020 02:20:00 3.4 C 5.19 g/m*3 3.4 C 0 km/h
894 13-05-2020 02:25:00 3.3 C 5.16 g/m*3 3.3 C 0 km/h
895 13-05-2020 02:30:00 3.3 C 5.16 g/m*3 3.3 C 0 km/h
896 13-05-2020 02:35:00 3.2 C 5.12 g/m*3 3.2 C 0 km/h
897 13-05-2020 02:40:00 3.2 C 5.18 g/m*3 3.2 C 0 km/h
898 13-05-2020 02:45:00 3.1 C 5.15 g/m*3 3.1 C 0 km/h
899 13-05-2020 02:50:00 3.1 C 5.15 g/m*3 3.1 C 0 km/h
900 13-05-2020 02:55:00 3 C 5.11 g/m*3 3 C 0 km/h
Sensor: Nr:Datum:Temp:Abs-Feuchte:Windchill:Wind:
Aussen-T/F 901 13-05-2020 03:00:00 3 C 5.17 g/m*3 3 C 0 km/h
902 13-05-2020 03:05:00 2.9 C 5.14 g/m*3 2.9 C 0 km/h
903 13-05-2020 03:10:00 2.9 C 5.14 g/m*3 2.9 C 0 km/h
904 13-05-2020 03:15:00 2.8 C 5.1 g/m*3 2.8 C 0 km/h
905 13-05-2020 03:20:00 2.8 C 5.1 g/m*3 2.8 C 0 km/h
906 13-05-2020 03:25:00 2.7 C 5.13 g/m*3 2.7 C 0 km/h
907 13-05-2020 03:30:00 2.6 C 5.09 g/m*3 2.6 C 0 km/h
908 13-05-2020 03:35:00 2.6 C 5.09 g/m*3 2.6 C 0 km/h
909 13-05-2020 03:40:00 2.5 C 5.06 g/m*3 2.5 C 0 km/h
910 13-05-2020 03:45:00 2.4 C 5.08 g/m*3 2.4 C 1.6 km/h
911 13-05-2020 03:50:00 2.4 C 5.08 g/m*3 2.4 C 0 km/h
912 13-05-2020 03:55:00 2.4 C 5.08 g/m*3 2.4 C 0 km/h
913 13-05-2020 04:00:00 2.3 C 5.05 g/m*3 2.3 C 1.6 km/h
914 13-05-2020 04:05:00 2.3 C 5.05 g/m*3 2.3 C 0 km/h
915 13-05-2020 04:10:00 2.3 C 5.05 g/m*3 2.3 C 0 km/h
916 13-05-2020 04:15:00 2.3 C 5.1 g/m*3 2.3 C 0 km/h
917 13-05-2020 04:20:00 2.2 C 5.07 g/m*3 2.2 C 0 km/h
918 13-05-2020 04:25:00 2.2 C 5.07 g/m*3 2.2 C 0 km/h
919 13-05-2020 04:30:00 2.1 C 5.04 g/m*3 2.1 C 0 km/h
920 13-05-2020 04:35:00 2.1 C 5.04 g/m*3 2.1 C 1.6 km/h
921 13-05-2020 04:40:00 2.1 C 5.04 g/m*3 2.1 C 0 km/h
922 13-05-2020 04:45:00 2 C 5 g/m*3 2 C 0 km/h
923 13-05-2020 04:50:00 1.9 C 4.97 g/m*3 1.9 C 0 km/h
924 13-05-2020 04:55:00 1.9 C 5.02 g/m*3 1.9 C 0 km/h
925 13-05-2020 05:00:00 1.9 C 5.02 g/m*3 1.9 C 0 km/h
Sensor: Nr:Datum:Temp:Abs-Feuchte:Windchill:Wind:
Aussen-T/F 926 13-05-2020 05:05:00 1.9 C 5.02 g/m*3 1.9 C 0 km/h
927 13-05-2020 05:10:00 1.9 C 5.02 g/m*3 1.9 C 1.6 km/h
928 13-05-2020 05:15:00 1.8 C 4.99 g/m*3 1.8 C 0 km/h
929 13-05-2020 05:20:00 1.9 C 5.02 g/m*3 1.9 C 0 km/h
930 13-05-2020 05:25:00 1.9 C 5.08 g/m*3 1.9 C 0 km/h
931 13-05-2020 05:30:00 2 C 5.11 g/m*3 2 C 0 km/h
932 13-05-2020 05:35:00 2.1 C 5.15 g/m*3 2.1 C 0 km/h
933 13-05-2020 05:40:00 2.2 C 5.18 g/m*3 2.2 C 0 km/h
934 13-05-2020 05:45:00 2.3 C 5.27 g/m*3 2.3 C 0 km/h
935 13-05-2020 05:50:00 2.4 C 5.31 g/m*3 2.4 C 0 km/h
936 13-05-2020 05:55:00 2.4 C 5.25 g/m*3 2.4 C 0 km/h
937 13-05-2020 06:00:00 2.5 C 5.29 g/m*3 2.5 C 0 km/h
938 13-05-2020 06:05:00 2.6 C 5.38 g/m*3 2.6 C 0 km/h
939 13-05-2020 06:10:00 2.7 C 5.42 g/m*3 2.7 C 0 km/h
940 13-05-2020 06:15:00 2.7 C 5.36 g/m*3 2.7 C 0 km/h
941 13-05-2020 06:20:00 2.8 C 5.4 g/m*3 2.8 C 4.8 km/h
942 13-05-2020 06:25:00 2.9 C 5.43 g/m*3 2.9 C 4.8 km/h
943 13-05-2020 06:30:00 3 C 5.47 g/m*3 3 C 0 km/h
944 13-05-2020 06:35:00 3.1 C 5.51 g/m*3 3.1 C 0 km/h
945 13-05-2020 06:40:00 3.1 C 5.51 g/m*3 3.1 C 0 km/h
946 13-05-2020 06:45:00 3.1 C 5.51 g/m*3 3.1 C 0 km/h
947 13-05-2020 06:50:00 3.2 C 5.48 g/m*3 3.2 C 0 km/h
948 13-05-2020 06:55:00 3.3 C 5.52 g/m*3 3.3 C 0 km/h
949 13-05-2020 07:00:00 3.3 C 5.52 g/m*3 3.3 C 0 km/h
950 13-05-2020 07:05:00 3.4 C 5.56 g/m*3 3.4 C 0 km/h
Sensor: Nr:Datum:Temp:Abs-Feuchte:Windchill:Wind:
Aussen-T/F 951 13-05-2020 07:10:00 3.4 C 5.56 g/m*3 3.4 C 0 km/h
952 13-05-2020 07:15:00 3.5 C 5.6 g/m*3 3.5 C 3.2 km/h
953 13-05-2020 07:20:00 3.6 C 5.57 g/m*3 3.6 C 1.6 km/h
954 13-05-2020 07:25:00 3.7 C 5.61 g/m*3 3.7 C 1.6 km/h
955 13-05-2020 07:30:00 3.7 C 5.61 g/m*3 2.09 C 6.4 km/h
956 13-05-2020 07:35:00 3.8 C 5.65 g/m*3 2.21 C 6.4 km/h
957 13-05-2020 07:40:00 3.9 C 5.62 g/m*3 3.9 C 4.8 km/h
958 13-05-2020 07:45:00 4.1 C 5.7 g/m*3 4.1 C 3.2 km/h
959 13-05-2020 07:50:00 4.2 C 5.73 g/m*3 4.2 C 4.8 km/h
960 13-05-2020 07:55:00 4.3 C 5.77 g/m*3 4.3 C 3.2 km/h
961 13-05-2020 08:00:00 4.5 C 5.78 g/m*3 4.5 C 3.2 km/h
962 13-05-2020 08:05:00 4.7 C 5.8 g/m*3 4.7 C 0 km/h
963 13-05-2020 08:10:00 4.8 C 5.83 g/m*3 4.8 C 3.2 km/h
964 13-05-2020 08:15:00 5 C 5.84 g/m*3 5 C 3.2 km/h
965 13-05-2020 08:20:00 5.2 C 5.85 g/m*3 5.2 C 3.2 km/h
966 13-05-2020 08:25:00 5.3 C 5.82 g/m*3 5.3 C 1.6 km/h
967 13-05-2020 08:30:00 5.5 C 5.9 g/m*3 5.5 C 0 km/h
968 13-05-2020 08:35:00 5.6 C 5.94 g/m*3 5.6 C 1.6 km/h
969 13-05-2020 08:40:00 5.7 C 5.91 g/m*3 5.7 C 0 km/h
970 13-05-2020 08:45:00 5.8 C 5.95 g/m*3 5.8 C 0 km/h
971 13-05-2020 08:50:00 5.9 C 5.98 g/m*3 5.9 C 0 km/h
972 13-05-2020 08:55:00 6 C 5.95 g/m*3 6 C 0 km/h
973 13-05-2020 09:00:00 6.1 C 6.06 g/m*3 6.1 C 0 km/h
974 13-05-2020 09:05:00 6.1 C 6.06 g/m*3 6.1 C 0 km/h
975 13-05-2020 09:10:00 6.2 C 6.18 g/m*3 6.2 C 1.6 km/h
Sensor: Nr:Datum:Temp:Abs-Feuchte:Windchill:Wind:
Aussen-T/F 976 13-05-2020 09:15:00 6.2 C 6.25 g/m*3 6.2 C 0 km/h
977 13-05-2020 09:20:00 6.2 C 6.25 g/m*3 6.2 C 1.6 km/h
978 13-05-2020 09:25:00 6.3 C 6.22 g/m*3 6.3 C 3.2 km/h
979 13-05-2020 09:30:00 6.3 C 6.29 g/m*3 6.3 C 0 km/h
980 13-05-2020 09:35:00 6.4 C 6.33 g/m*3 6.4 C 0 km/h
981 13-05-2020 09:40:00 6.6 C 6.34 g/m*3 6.6 C 0 km/h
982 13-05-2020 09:45:00 6.7 C 6.38 g/m*3 6.7 C 0 km/h
983 13-05-2020 09:50:00 6.9 C 6.47 g/m*3 6.9 C 0 km/h
984 13-05-2020 09:55:00 7 C 6.43 g/m*3 7 C 1.6 km/h
985 13-05-2020 10:00:00 7.2 C 6.12 g/m*3 7.2 C 3.2 km/h
986 13-05-2020 10:05:00 7.6 C 6.2 g/m*3 7.6 C 1.6 km/h
987 13-05-2020 10:10:00 7.8 C 6.2 g/m*3 7.8 C 1.6 km/h
988 13-05-2020 10:15:00 8.2 C 5.86 g/m*3 8.2 C 4.8 km/h
989 13-05-2020 10:20:00 8.4 C 6.11 g/m*3 8.4 C 0 km/h
990 13-05-2020 10:25:00 8.8 C 6.01 g/m*3 8.8 C 3.2 km/h
991 13-05-2020 10:30:00 9.2 C 5.98 g/m*3 9.2 C 3.2 km/h
992 13-05-2020 10:35:00 9.6 C 5.95 g/m*3 9.6 C 4.8 km/h
993 13-05-2020 10:40:00 9.8 C 5.85 g/m*3 9.8 C 1.6 km/h
994 13-05-2020 10:45:00 10.1 C 5.86 g/m*3 10.1 C 1.6 km/h
995 13-05-2020 10:50:00 10.3 C 5.84 g/m*3 10.3 C 3.2 km/h
996 13-05-2020 10:55:00 10.6 C 5.95 g/m*3 10.6 C 1.6 km/h
997 13-05-2020 11:00:00 10.7 C 5.99 g/m*3 10.18 C 6.4 km/h
998 13-05-2020 11:05:00 11.1 C 6.04 g/m*3 11.1 C 8.1 km/h
999 13-05-2020 11:10:00 11.4 C 5.95 g/m*3 11.4 C 11.3 km/h
1000 13-05-2020 11:15:00 11.5 C 5.99 g/m*3 11.5 C 3.2 km/h
Sensor: Nr:Datum:Temp:Abs-Feuchte:Windchill:Wind:
Aussen-T/F 1001 13-05-2020 11:20:00 11.6 C 5.82 g/m*3 11.6 C 6.4 km/h
1002 13-05-2020 11:25:00 11.7 C 5.86 g/m*3 11.7 C 4.8 km/h
1003 13-05-2020 11:30:00 11.9 C 5.93 g/m*3 11.9 C 4.8 km/h
1004 13-05-2020 11:35:00 12.1 C 5.9 g/m*3 12.1 C 6.4 km/h
1005 13-05-2020 11:40:00 12.2 C 5.83 g/m*3 12.2 C 11.3 km/h
1006 13-05-2020 11:45:00 12.2 C 5.94 g/m*3 12.2 C 6.4 km/h
1007 13-05-2020 11:50:00 12.3 C 5.75 g/m*3 12.3 C 9.7 km/h
1008 13-05-2020 11:55:00 12.3 C 5.75 g/m*3 12.3 C 6.4 km/h
1009 13-05-2020 12:00:00 12.3 C 5.54 g/m*3 12.3 C 12.9 km/h
1010 13-05-2020 12:05:00 12.4 C 5.57 g/m*3 12.4 C 6.4 km/h
1011 13-05-2020 12:10:00 12.4 C 5.68 g/m*3 12.4 C 9.7 km/h
1012 13-05-2020 12:15:00 12.7 C 5.79 g/m*3 12.7 C 9.7 km/h
1013 13-05-2020 12:20:00 12.8 C 5.71 g/m*3 12.8 C 9.7 km/h
1014 13-05-2020 12:25:00 13.1 C 5.71 g/m*3 13.1 C 3.2 km/h
1015 13-05-2020 12:30:00 13.2 C 5.74 g/m*3 13.2 C 8.1 km/h
1016 13-05-2020 12:35:00 13.3 C 5.55 g/m*3 13.3 C 6.4 km/h
1017 13-05-2020 12:40:00 13.5 C 5.73 g/m*3 13.5 C 8.1 km/h
1018 13-05-2020 12:45:00 13.6 C 5.53 g/m*3 13.6 C 8.1 km/h
1019 13-05-2020 12:50:00 13.6 C 5.77 g/m*3 13.6 C 11.3 km/h
1020 13-05-2020 12:55:00 13.7 C 5.92 g/m*3 13.7 C 8.1 km/h
1021 13-05-2020 13:00:00 13.8 C 5.96 g/m*3 13.8 C 12.9 km/h
1022 13-05-2020 13:05:00 13.8 C 5.84 g/m*3 13.8 C 11.3 km/h
1023 13-05-2020 13:10:00 13.8 C 5.96 g/m*3 13.8 C 9.7 km/h
1024 13-05-2020 13:15:00 13.8 C 5.84 g/m*3 13.8 C 12.9 km/h
1025 13-05-2020 13:20:00 13.6 C 5.88 g/m*3 13.6 C 8.1 km/h
Sensor: Nr:Datum:Temp:Abs-Feuchte:Windchill:Wind:
Aussen-T/F 1026 13-05-2020 13:25:00 13.5 C 5.85 g/m*3 13.5 C 9.7 km/h
1027 13-05-2020 13:30:00 13.4 C 5.93 g/m*3 13.4 C 6.4 km/h
1028 13-05-2020 13:35:00 13.5 C 5.85 g/m*3 13.5 C 12.9 km/h
1029 13-05-2020 13:40:00 13.6 C 6 g/m*3 13.6 C 6.4 km/h
1030 13-05-2020 13:45:00 13.7 C 5.8 g/m*3 13.7 C 6.4 km/h
1031 13-05-2020 13:50:00 13.6 C 5.88 g/m*3 13.6 C 14.5 km/h
1032 13-05-2020 13:55:00 13.6 C 5.88 g/m*3 13.6 C 16.1 km/h
1033 13-05-2020 14:00:00 13.4 C 5.7 g/m*3 13.4 C 16.1 km/h
1034 13-05-2020 14:05:00 13.4 C 5.7 g/m*3 13.4 C 8.1 km/h
1035 13-05-2020 14:10:00 13.8 C 5.96 g/m*3 13.8 C 9.7 km/h
1036 13-05-2020 14:15:00 14.1 C 5.95 g/m*3 14.1 C 11.3 km/h
1037 13-05-2020 14:20:00 14.2 C 6.11 g/m*3 14.2 C 8.1 km/h
1038 13-05-2020 14:25:00 14.3 C 6.02 g/m*3 14.3 C 6.4 km/h
1039 13-05-2020 14:30:00 14.4 C 5.69 g/m*3 14.4 C 6.4 km/h
1040 13-05-2020 14:35:00 14.3 C 5.65 g/m*3 14.3 C 12.9 km/h
1041 13-05-2020 14:40:00 14.4 C 5.69 g/m*3 14.4 C 11.3 km/h
1042 13-05-2020 14:45:00 14.4 C 5.81 g/m*3 14.4 C 9.7 km/h
1043 13-05-2020 14:50:00 14.6 C 5.88 g/m*3 14.6 C 8.1 km/h
1044 13-05-2020 14:55:00 14.7 C 5.79 g/m*3 14.7 C 12.9 km/h
1045 13-05-2020 15:00:00 14.6 C 5.76 g/m*3 14.6 C 12.9 km/h
1046 13-05-2020 15:05:00 14.8 C 5.83 g/m*3 14.8 C 12.9 km/h
1047 13-05-2020 15:10:00 14.7 C 5.67 g/m*3 14.7 C 11.3 km/h
1048 13-05-2020 15:15:00 14.6 C 5.76 g/m*3 14.6 C 14.5 km/h
1049 13-05-2020 15:20:00 14.4 C 5.69 g/m*3 14.4 C 16.1 km/h
1050 13-05-2020 15:25:00 14.1 C 5.83 g/m*3 14.1 C 14.5 km/h
Sensor: Nr:Datum:Temp:Abs-Feuchte:Windchill:Wind:
Aussen-T/F 1051 13-05-2020 15:30:00 14.1 C 5.7 g/m*3 14.1 C 12.9 km/h
1052 13-05-2020 15:35:00 14.4 C 5.93 g/m*3 14.4 C 14.5 km/h
1053 13-05-2020 15:40:00 14.8 C 5.83 g/m*3 14.8 C 12.9 km/h
1054 13-05-2020 15:45:00 15 C 5.77 g/m*3 15 C 11.3 km/h
1055 13-05-2020 15:50:00 15.2 C 5.71 g/m*3 15.2 C 16.1 km/h
1056 13-05-2020 15:55:00 15.1 C 5.81 g/m*3 15.1 C 11.3 km/h
1057 13-05-2020 16:00:00 15.2 C 5.84 g/m*3 15.2 C 9.7 km/h
1058 13-05-2020 16:05:00 15.3 C 5.75 g/m*3 15.3 C 8.1 km/h
1059 13-05-2020 16:10:00 15.2 C 5.71 g/m*3 15.2 C 6.4 km/h
1060 13-05-2020 16:15:00 15.1 C 5.81 g/m*3 15.1 C 12.9 km/h
1061 13-05-2020 16:20:00 15.2 C 5.71 g/m*3 15.2 C 9.7 km/h
1062 13-05-2020 16:25:00 15.1 C 5.68 g/m*3 15.1 C 8.1 km/h
1063 13-05-2020 16:30:00 15.1 C 5.81 g/m*3 15.1 C 12.9 km/h
1064 13-05-2020 16:35:00 14.8 C 5.57 g/m*3 14.8 C 16.1 km/h
1065 13-05-2020 16:40:00 14.5 C 5.47 g/m*3 14.5 C 12.9 km/h
1066 13-05-2020 16:45:00 14.4 C 5.56 g/m*3 14.4 C 16.1 km/h
1067 13-05-2020 16:50:00 14.3 C 5.65 g/m*3 14.3 C 14.5 km/h
1068 13-05-2020 16:55:00 14.3 C 5.65 g/m*3 14.3 C 11.3 km/h
1069 13-05-2020 17:00:00 14.6 C 5.88 g/m*3 14.6 C 9.7 km/h
1070 13-05-2020 17:05:00 14.9 C 5.74 g/m*3 14.9 C 9.7 km/h
1071 13-05-2020 17:10:00 14.8 C 5.57 g/m*3 14.8 C 8.1 km/h
1072 13-05-2020 17:15:00 14.6 C 5.51 g/m*3 14.6 C 9.7 km/h
1073 13-05-2020 17:20:00 14.6 C 5.76 g/m*3 14.6 C 8.1 km/h
1074 13-05-2020 17:25:00 14.6 C 5.63 g/m*3 14.6 C 11.3 km/h
1075 13-05-2020 17:30:00 14.4 C 5.56 g/m*3 14.4 C 14.5 km/h
Sensor: Nr:Datum:Temp:Abs-Feuchte:Windchill:Wind:
Aussen-T/F 1076 13-05-2020 17:35:00 14.4 C 5.69 g/m*3 14.4 C 12.9 km/h
1077 13-05-2020 17:40:00 14.6 C 5.63 g/m*3 14.6 C 11.3 km/h
1078 13-05-2020 17:45:00 14.6 C 5.63 g/m*3 14.6 C 16.1 km/h
1079 13-05-2020 17:50:00 14.5 C 5.6 g/m*3 14.5 C 9.7 km/h
1080 13-05-2020 17:55:00 14.4 C 5.44 g/m*3 14.4 C 6.4 km/h
1081 13-05-2020 18:00:00 14.4 C 5.56 g/m*3 14.4 C 9.7 km/h
1082 13-05-2020 18:05:00 14.3 C 5.41 g/m*3 14.3 C 9.7 km/h
1083 13-05-2020 18:10:00 14.3 C 5.41 g/m*3 14.3 C 12.9 km/h
1084 13-05-2020 18:15:00 14.2 C 5.37 g/m*3 14.2 C 16.1 km/h
1085 13-05-2020 18:20:00 13.9 C 5.39 g/m*3 13.9 C 14.5 km/h
1086 13-05-2020 18:25:00 13.7 C 5.33 g/m*3 13.7 C 14.5 km/h
1087 13-05-2020 18:30:00 13.6 C 5.53 g/m*3 13.6 C 9.7 km/h
1088 13-05-2020 18:35:00 13.4 C 5.46 g/m*3 13.4 C 8.1 km/h
1089 13-05-2020 18:40:00 13.3 C 5.55 g/m*3 13.3 C 6.4 km/h
1090 13-05-2020 18:45:00 13.3 C 5.55 g/m*3 13.3 C 9.7 km/h
1091 13-05-2020 18:50:00 13.2 C 5.51 g/m*3 13.2 C 9.7 km/h
1092 13-05-2020 18:55:00 13.1 C 5.36 g/m*3 13.1 C 11.3 km/h
1093 13-05-2020 19:00:00 13 C 5.33 g/m*3 13 C 11.3 km/h
1094 13-05-2020 19:05:00 13 C 5.44 g/m*3 13 C 8.1 km/h
1095 13-05-2020 19:10:00 13.1 C 5.36 g/m*3 13.1 C 9.7 km/h
1096 13-05-2020 19:15:00 13.1 C 5.36 g/m*3 13.1 C 11.3 km/h
1097 13-05-2020 19:20:00 13 C 5.44 g/m*3 13 C 9.7 km/h
1098 13-05-2020 19:25:00 12.9 C 5.41 g/m*3 12.9 C 4.8 km/h
1099 13-05-2020 19:30:00 12.9 C 5.41 g/m*3 12.9 C 9.7 km/h
1100 13-05-2020 19:35:00 12.8 C 5.49 g/m*3 12.8 C 9.7 km/h
Sensor: Nr:Datum:Temp:Abs-Feuchte:Windchill:Wind:
Aussen-T/F 1101 13-05-2020 19:40:00 12.8 C 5.38 g/m*3 12.8 C 12.9 km/h
1102 13-05-2020 19:45:00 12.8 C 5.38 g/m*3 12.8 C 8.1 km/h
1103 13-05-2020 19:50:00 12.7 C 5.45 g/m*3 12.7 C 4.8 km/h
1104 13-05-2020 19:55:00 12.7 C 5.45 g/m*3 12.7 C 6.4 km/h
1105 13-05-2020 20:00:00 12.7 C 5.57 g/m*3 12.7 C 6.4 km/h
1106 13-05-2020 20:05:00 12.7 C 5.57 g/m*3 12.7 C 3.2 km/h
1107 13-05-2020 20:10:00 12.8 C 5.6 g/m*3 12.8 C 4.8 km/h
1108 13-05-2020 20:15:00 12.8 C 5.71 g/m*3 12.8 C 4.8 km/h
1109 13-05-2020 20:20:00 12.9 C 5.52 g/m*3 12.9 C 6.4 km/h
1110 13-05-2020 20:25:00 12.9 C 5.52 g/m*3 12.9 C 6.4 km/h
1111 13-05-2020 20:30:00 12.9 C 5.41 g/m*3 12.9 C 6.4 km/h
1112 13-05-2020 20:35:00 12.9 C 5.52 g/m*3 12.9 C 4.8 km/h
1113 13-05-2020 20:40:00 12.9 C 5.41 g/m*3 12.9 C 4.8 km/h
1114 13-05-2020 20:45:00 12.8 C 5.49 g/m*3 12.8 C 4.8 km/h
1115 13-05-2020 20:50:00 12.7 C 5.57 g/m*3 12.7 C 4.8 km/h
1116 13-05-2020 20:55:00 12.6 C 5.53 g/m*3 12.6 C 1.6 km/h
1117 13-05-2020 21:00:00 12.5 C 5.39 g/m*3 12.5 C 4.8 km/h
1118 13-05-2020 21:05:00 12.4 C 5.46 g/m*3 12.4 C 4.8 km/h
1119 13-05-2020 21:10:00 12.3 C 5.43 g/m*3 12.3 C 4.8 km/h
1120 13-05-2020 21:15:00 12.2 C 5.5 g/m*3 12.2 C 8.1 km/h
1121 13-05-2020 21:20:00 12.1 C 5.79 g/m*3 12.1 C 8.1 km/h
1122 13-05-2020 21:25:00 11.9 C 6.04 g/m*3 11.9 C 4.8 km/h
1123 13-05-2020 21:30:00 11.7 C 6.17 g/m*3 11.7 C 9.7 km/h
1124 13-05-2020 21:35:00 11.6 C 6.34 g/m*3 11.6 C 11.3 km/h
1125 13-05-2020 21:40:00 11.4 C 6.47 g/m*3 11.4 C 8.1 km/h
Sensor: Nr:Datum:Temp:Abs-Feuchte:Windchill:Wind:
Aussen-T/F 1126 13-05-2020 21:45:00 11.2 C 6.59 g/m*3 11.2 C 9.7 km/h
1127 13-05-2020 21:50:00 11.1 C 6.65 g/m*3 11.1 C 12.9 km/h
1128 13-05-2020 21:55:00 10.9 C 6.66 g/m*3 9.76 C 9.7 km/h
1129 13-05-2020 22:00:00 10.8 C 6.72 g/m*3 10.29 C 6.4 km/h
1130 13-05-2020 22:05:00 10.7 C 6.68 g/m*3 10.18 C 6.4 km/h
1131 13-05-2020 22:10:00 10.5 C 6.69 g/m*3 9.95 C 6.4 km/h
1132 13-05-2020 22:15:00 10.4 C 6.65 g/m*3 9.46 C 8.1 km/h
1133 13-05-2020 22:20:00 10.3 C 6.7 g/m*3 10.3 C 4.8 km/h
1134 13-05-2020 22:25:00 10.2 C 6.66 g/m*3 9.22 C 8.1 km/h
1135 13-05-2020 22:30:00 10 C 6.67 g/m*3 10 C 4.8 km/h
1136 13-05-2020 22:35:00 9.9 C 6.63 g/m*3 8.56 C 9.7 km/h
1137 13-05-2020 22:40:00 9.8 C 6.68 g/m*3 7.94 C 12.9 km/h
1138 13-05-2020 22:45:00 9.7 C 6.64 g/m*3 9.02 C 6.4 km/h
1139 13-05-2020 22:50:00 9.6 C 6.6 g/m*3 8.91 C 6.4 km/h
1140 13-05-2020 22:55:00 9.4 C 6.51 g/m*3 8.28 C 8.1 km/h
1141 13-05-2020 23:00:00 9.3 C 6.56 g/m*3 8.56 C 6.4 km/h
1142 13-05-2020 23:05:00 9.2 C 6.52 g/m*3 8.45 C 6.4 km/h
1143 13-05-2020 23:10:00 9.1 C 6.48 g/m*3 7.09 C 12.9 km/h
1144 13-05-2020 23:15:00 9 C 6.44 g/m*3 7.21 C 11.3 km/h
1145 13-05-2020 23:20:00 8.9 C 6.39 g/m*3 8.9 C 4.8 km/h
1146 13-05-2020 23:25:00 8.8 C 6.44 g/m*3 8.8 C 4.8 km/h
1147 13-05-2020 23:30:00 8.8 C 6.44 g/m*3 7.98 C 6.4 km/h
1148 13-05-2020 23:35:00 8.7 C 6.49 g/m*3 7.46 C 8.1 km/h
1149 13-05-2020 23:40:00 8.6 C 6.44 g/m*3 7.34 C 8.1 km/h
1150 13-05-2020 23:45:00 8.6 C 6.44 g/m*3 8.6 C 1.6 km/h
Sensor: Nr:Datum:Temp:Abs-Feuchte:Windchill:Wind:
Aussen-T/F 1151 13-05-2020 23:50:00 8.6 C 6.53 g/m*3 8.6 C 3.2 km/h
1152 13-05-2020 23:55:00 8.4 C 6.45 g/m*3 7.11 C 8.1 km/h
1153 14-05-2020 00:00:00 8.4 C 6.45 g/m*3 8.4 C 4.8 km/h
1154 14-05-2020 00:05:00 8.4 C 6.45 g/m*3 6.24 C 12.9 km/h
1155 14-05-2020 00:10:00 8.3 C 6.49 g/m*3 7.41 C 6.4 km/h
1156 14-05-2020 00:15:00 8.3 C 6.41 g/m*3 6.99 C 8.1 km/h
1157 14-05-2020 00:20:00 8.2 C 6.36 g/m*3 6.87 C 8.1 km/h
1158 14-05-2020 00:25:00 8.2 C 6.36 g/m*3 6.25 C 11.3 km/h
1159 14-05-2020 00:30:00 8.1 C 6.32 g/m*3 6.42 C 9.7 km/h
1160 14-05-2020 00:35:00 8.1 C 6.32 g/m*3 6.75 C 8.1 km/h
1161 14-05-2020 00:40:00 8 C 6.28 g/m*3 7.06 C 6.4 km/h
1162 14-05-2020 00:45:00 7.9 C 6.24 g/m*3 6.18 C 9.7 km/h
1163 14-05-2020 00:50:00 7.9 C 6.24 g/m*3 6.18 C 9.7 km/h
1164 14-05-2020 00:55:00 7.9 C 6.24 g/m*3 6.18 C 9.7 km/h
1165 14-05-2020 01:00:00 7.8 C 6.2 g/m*3 6.83 C 6.4 km/h
1166 14-05-2020 01:05:00 7.8 C 6.2 g/m*3 6.83 C 6.4 km/h
1167 14-05-2020 01:10:00 7.7 C 6.16 g/m*3 6.71 C 6.4 km/h
1168 14-05-2020 01:15:00 7.7 C 6.16 g/m*3 5.94 C 9.7 km/h
1169 14-05-2020 01:20:00 7.6 C 6.2 g/m*3 6.6 C 6.4 km/h
1170 14-05-2020 01:25:00 7.6 C 6.2 g/m*3 6.16 C 8.1 km/h
1171 14-05-2020 01:30:00 7.5 C 6.16 g/m*3 6.05 C 8.1 km/h
1172 14-05-2020 01:35:00 7.4 C 6.12 g/m*3 7.4 C 0 km/h
1173 14-05-2020 01:40:00 7.2 C 6.12 g/m*3 7.2 C 1.6 km/h
1174 14-05-2020 01:45:00 7.1 C 6.08 g/m*3 7.1 C 3.2 km/h
1175 14-05-2020 01:50:00 6.9 C 6.08 g/m*3 6.9 C 1.6 km/h
Sensor: Nr:Datum:Temp:Abs-Feuchte:Windchill:Wind:
Aussen-T/F 1176 14-05-2020 01:55:00 6.7 C 6 g/m*3 6.7 C 0 km/h
1177 14-05-2020 02:00:00 6.4 C 5.89 g/m*3 6.4 C 0 km/h
1178 14-05-2020 02:05:00 6.2 C 5.88 g/m*3 6.2 C 1.6 km/h
1179 14-05-2020 02:10:00 6.1 C 5.99 g/m*3 6.1 C 3.2 km/h
1180 14-05-2020 02:15:00 6.1 C 5.99 g/m*3 4.86 C 6.4 km/h
1181 14-05-2020 02:20:00 6.2 C 6.03 g/m*3 4.98 C 6.4 km/h
1182 14-05-2020 02:25:00 6.3 C 6.07 g/m*3 6.3 C 3.2 km/h
1183 14-05-2020 02:30:00 6.4 C 6.04 g/m*3 6.4 C 3.2 km/h
1184 14-05-2020 02:35:00 6.5 C 6.07 g/m*3 6.5 C 3.2 km/h
1185 14-05-2020 02:40:00 6.5 C 6.07 g/m*3 6.5 C 1.6 km/h
1186 14-05-2020 02:45:00 6.4 C 6.04 g/m*3 6.4 C 4.8 km/h
1187 14-05-2020 02:50:00 6.4 C 6.04 g/m*3 4.75 C 8.1 km/h
1188 14-05-2020 02:55:00 6.4 C 6.04 g/m*3 6.4 C 0 km/h
1189 14-05-2020 03:00:00 6.3 C 6 g/m*3 6.3 C 1.6 km/h
1190 14-05-2020 03:05:00 6.3 C 6.07 g/m*3 5.1 C 6.4 km/h
1191 14-05-2020 03:10:00 6.3 C 6.07 g/m*3 6.3 C 1.6 km/h
1192 14-05-2020 03:15:00 6.3 C 6.07 g/m*3 6.3 C 4.8 km/h
1193 14-05-2020 03:20:00 6.3 C 6.07 g/m*3 6.3 C 0 km/h
1194 14-05-2020 03:25:00 6.3 C 6.07 g/m*3 6.3 C 0 km/h
1195 14-05-2020 03:30:00 6.2 C 6.03 g/m*3 6.2 C 3.2 km/h
1196 14-05-2020 03:35:00 6.1 C 6.06 g/m*3 6.1 C 1.6 km/h
1197 14-05-2020 03:40:00 6.1 C 6.06 g/m*3 6.1 C 1.6 km/h
1198 14-05-2020 03:45:00 6.1 C 6.06 g/m*3 6.1 C 0 km/h
1199 14-05-2020 03:50:00 6.2 C 6.1 g/m*3 6.2 C 1.6 km/h
1200 14-05-2020 03:55:00 6.2 C 6.1 g/m*3 6.2 C 1.6 km/h
Sensor: Nr:Datum:Temp:Abs-Feuchte:Windchill:Wind:
Aussen-T/F 1201 14-05-2020 04:00:00 6.3 C 6.14 g/m*3 6.3 C 0 km/h
1202 14-05-2020 04:05:00 6.3 C 6.07 g/m*3 6.3 C 4.8 km/h
1203 14-05-2020 04:10:00 6.3 C 6.07 g/m*3 6.3 C 1.6 km/h
1204 14-05-2020 04:15:00 6.3 C 6.07 g/m*3 6.3 C 1.6 km/h
1205 14-05-2020 04:20:00 6.3 C 6.07 g/m*3 6.3 C 1.6 km/h
1206 14-05-2020 04:25:00 6.2 C 6.03 g/m*3 6.2 C 4.8 km/h
1207 14-05-2020 04:30:00 6.1 C 5.99 g/m*3 6.1 C 0 km/h
1208 14-05-2020 04:35:00 5.9 C 5.98 g/m*3 5.9 C 3.2 km/h
1209 14-05-2020 04:40:00 5.8 C 5.95 g/m*3 5.8 C 4.8 km/h
1210 14-05-2020 04:45:00 5.8 C 5.95 g/m*3 5.8 C 3.2 km/h
1211 14-05-2020 04:50:00 5.8 C 5.95 g/m*3 5.8 C 1.6 km/h
1212 14-05-2020 04:55:00 5.8 C 5.95 g/m*3 5.8 C 1.6 km/h
1213 14-05-2020 05:00:00 5.8 C 5.95 g/m*3 5.8 C 1.6 km/h
1214 14-05-2020 05:05:00 5.8 C 5.95 g/m*3 5.8 C 1.6 km/h
1215 14-05-2020 05:10:00 5.8 C 5.95 g/m*3 5.8 C 3.2 km/h
1216 14-05-2020 05:15:00 5.8 C 5.95 g/m*3 5.8 C 4.8 km/h
1217 14-05-2020 05:20:00 5.8 C 5.95 g/m*3 4.52 C 6.4 km/h
1218 14-05-2020 05:25:00 5.8 C 5.95 g/m*3 4.52 C 6.4 km/h
1219 14-05-2020 05:30:00 5.9 C 5.98 g/m*3 3.8 C 9.7 km/h
1220 14-05-2020 05:35:00 5.9 C 5.98 g/m*3 4.63 C 6.4 km/h
1221 14-05-2020 05:40:00 5.9 C 5.98 g/m*3 4.63 C 6.4 km/h
1222 14-05-2020 05:45:00 6 C 6.02 g/m*3 6 C 4.8 km/h
1223 14-05-2020 05:50:00 5.9 C 5.98 g/m*3 4.17 C 8.1 km/h
1224 14-05-2020 05:55:00 5.9 C 5.98 g/m*3 5.9 C 4.8 km/h
1225 14-05-2020 06:00:00 5.9 C 5.98 g/m*3 4.63 C 6.4 km/h
Sensor: Nr:Datum:Temp:Abs-Feuchte:Windchill:Wind:
Aussen-T/F 1226 14-05-2020 06:05:00 5.8 C 5.95 g/m*3 5.8 C 1.6 km/h
1227 14-05-2020 06:10:00 5.7 C 5.91 g/m*3 5.7 C 0 km/h
1228 14-05-2020 06:15:00 5.4 C 5.79 g/m*3 5.4 C 3.2 km/h
1229 14-05-2020 06:20:00 5.2 C 5.78 g/m*3 5.2 C 1.6 km/h
1230 14-05-2020 06:25:00 5.1 C 5.81 g/m*3 5.1 C 1.6 km/h
1231 14-05-2020 06:30:00 4.8 C 5.7 g/m*3 4.8 C 3.2 km/h
1232 14-05-2020 06:35:00 4.7 C 5.73 g/m*3 4.7 C 3.2 km/h
1233 14-05-2020 06:40:00 4.6 C 5.76 g/m*3 4.6 C 0 km/h
1234 14-05-2020 06:45:00 4.6 C 5.76 g/m*3 4.6 C 0 km/h
1235 14-05-2020 06:50:00 4.5 C 5.78 g/m*3 4.5 C 0 km/h
1236 14-05-2020 06:55:00 4.4 C 5.75 g/m*3 4.4 C 3.2 km/h
1237 14-05-2020 07:00:00 4.4 C 5.75 g/m*3 4.4 C 3.2 km/h
1238 14-05-2020 07:05:00 4.4 C 5.81 g/m*3 4.4 C 0 km/h
1239 14-05-2020 07:10:00 4.4 C 5.81 g/m*3 4.4 C 0 km/h
1240 14-05-2020 07:15:00 4.3 C 5.77 g/m*3 4.3 C 0 km/h
1241 14-05-2020 07:20:00 4.3 C 5.77 g/m*3 4.3 C 0 km/h
1242 14-05-2020 07:25:00 4.4 C 5.88 g/m*3 4.4 C 0 km/h
1243 14-05-2020 07:30:00 4.4 C 5.88 g/m*3 4.4 C 0 km/h
1244 14-05-2020 07:35:00 4.5 C 5.92 g/m*3 4.5 C 1.6 km/h
1245 14-05-2020 07:40:00 4.7 C 6 g/m*3 4.7 C 4.8 km/h
1246 14-05-2020 07:45:00 4.9 C 6.01 g/m*3 3.48 C 6.4 km/h
1247 14-05-2020 07:50:00 5.3 C 6.03 g/m*3 3.08 C 9.7 km/h
1248 14-05-2020 07:55:00 5.7 C 6.12 g/m*3 2.95 C 12.9 km/h
1249 14-05-2020 08:00:00 5.9 C 6.06 g/m*3 3.8 C 9.7 km/h
1250 14-05-2020 08:05:00 6.1 C 6.06 g/m*3 4.86 C 6.4 km/h
Sensor: Nr:Datum:Temp:Abs-Feuchte:Windchill:Wind:
Aussen-T/F 1251 14-05-2020 08:10:00 6.2 C 6.03 g/m*3 4.15 C 9.7 km/h
1252 14-05-2020 08:15:00 6.3 C 6.07 g/m*3 3.96 C 11.3 km/h
1253 14-05-2020 08:20:00 6.4 C 6.04 g/m*3 5.21 C 6.4 km/h
1254 14-05-2020 08:25:00 6.6 C 6.11 g/m*3 6.6 C 4.8 km/h
1255 14-05-2020 08:30:00 6.7 C 6.15 g/m*3 5.56 C 6.4 km/h
1256 14-05-2020 08:35:00 6.7 C 6.08 g/m*3 5.56 C 6.4 km/h
1257 14-05-2020 08:40:00 6.8 C 6.12 g/m*3 5.67 C 6.4 km/h
1258 14-05-2020 08:45:00 7 C 6.12 g/m*3 5.11 C 9.7 km/h
1259 14-05-2020 08:50:00 7.1 C 6.16 g/m*3 6.02 C 6.4 km/h
1260 14-05-2020 08:55:00 7.2 C 6.2 g/m*3 5.69 C 8.1 km/h
1261 14-05-2020 09:00:00 7.3 C 6.08 g/m*3 5.81 C 8.1 km/h
1262 14-05-2020 09:05:00 7.4 C 6.12 g/m*3 7.4 C 4.8 km/h
1263 14-05-2020 09:10:00 7.5 C 6.16 g/m*3 7.5 C 4.8 km/h
1264 14-05-2020 09:15:00 7.6 C 6.12 g/m*3 5.82 C 9.7 km/h
1265 14-05-2020 09:20:00 7.7 C 6.08 g/m*3 5.38 C 12.9 km/h
1266 14-05-2020 09:25:00 7.8 C 6.12 g/m*3 7.8 C 4.8 km/h
1267 14-05-2020 09:30:00 7.8 C 6.12 g/m*3 6.83 C 6.4 km/h
1268 14-05-2020 09:35:00 7.8 C 6.04 g/m*3 6.83 C 6.4 km/h
1269 14-05-2020 09:40:00 7.9 C 6.08 g/m*3 6.94 C 6.4 km/h
1270 14-05-2020 09:45:00 8.1 C 6.07 g/m*3 7.17 C 6.4 km/h
1271 14-05-2020 09:50:00 8.1 C 6.07 g/m*3 7.17 C 6.4 km/h
1272 14-05-2020 09:55:00 8.3 C 6.15 g/m*3 6.37 C 11.3 km/h
1273 14-05-2020 10:00:00 8.3 C 6.07 g/m*3 7.41 C 6.4 km/h
1274 14-05-2020 10:05:00 8.4 C 6.02 g/m*3 7.52 C 6.4 km/h
1275 14-05-2020 10:10:00 8.4 C 6.11 g/m*3 6.78 C 9.7 km/h
Sensor: Nr:Datum:Temp:Abs-Feuchte:Windchill:Wind:
Aussen-T/F 1276 14-05-2020 10:15:00 8.7 C 6.05 g/m*3 6.38 C 14.5 km/h
1277 14-05-2020 10:20:00 8.8 C 6.09 g/m*3 8.8 C 0 km/h
1278 14-05-2020 10:25:00 8.9 C 6.22 g/m*3 7.09 C 11.3 km/h
1279 14-05-2020 10:30:00 9.1 C 6.21 g/m*3 8.33 C 6.4 km/h
1280 14-05-2020 10:35:00 9.3 C 6.29 g/m*3 8.56 C 6.4 km/h
1281 14-05-2020 10:40:00 9.4 C 6.24 g/m*3 8.28 C 8.1 km/h
1282 14-05-2020 10:45:00 9.7 C 6.27 g/m*3 8.63 C 8.1 km/h
1283 14-05-2020 10:50:00 9.8 C 6.22 g/m*3 9.14 C 6.4 km/h
1284 14-05-2020 10:55:00 10.1 C 6.24 g/m*3 9.48 C 6.4 km/h
1285 14-05-2020 11:00:00 10.3 C 6.22 g/m*3 9.34 C 8.1 km/h
1286 14-05-2020 11:05:00 10.4 C 6.17 g/m*3 9.83 C 6.4 km/h
1287 14-05-2020 11:10:00 10.5 C 6.11 g/m*3 8.8 C 12.9 km/h
1288 14-05-2020 11:15:00 10.6 C 6.25 g/m*3 9.14 C 11.3 km/h
1289 14-05-2020 11:20:00 10.8 C 6.33 g/m*3 9.16 C 12.9 km/h
1290 14-05-2020 11:25:00 10.9 C 6.27 g/m*3 10.04 C 8.1 km/h
1291 14-05-2020 11:30:00 10.9 C 6.07 g/m*3 9.76 C 9.7 km/h
1292 14-05-2020 11:35:00 11 C 6.21 g/m*3 11 C 4.8 km/h
1293 14-05-2020 11:40:00 11 C 6.31 g/m*3 11 C 4.8 km/h
1294 14-05-2020 11:45:00 11.3 C 6.32 g/m*3 11.3 C 11.3 km/h
1295 14-05-2020 11:50:00 11.4 C 6.26 g/m*3 11.4 C 6.4 km/h
1296 14-05-2020 11:55:00 11.6 C 6.34 g/m*3 11.6 C 16.1 km/h
1297 14-05-2020 12:00:00 11.7 C 6.28 g/m*3 11.7 C 9.7 km/h
1298 14-05-2020 12:05:00 11.8 C 6.31 g/m*3 11.8 C 9.7 km/h
1299 14-05-2020 12:10:00 11.8 C 6.21 g/m*3 11.8 C 8.1 km/h
1300 14-05-2020 12:15:00 11.9 C 6.35 g/m*3 11.9 C 6.4 km/h
Sensor: Nr:Datum:Temp:Abs-Feuchte:Windchill:Wind:
Aussen-T/F 1301 14-05-2020 12:20:00 12 C 6.18 g/m*3 12 C 8.1 km/h
1302 14-05-2020 12:25:00 12.1 C 6.11 g/m*3 12.1 C 14.5 km/h
1303 14-05-2020 12:30:00 12.2 C 6.15 g/m*3 12.2 C 12.9 km/h
1304 14-05-2020 12:35:00 12.3 C 6.08 g/m*3 12.3 C 11.3 km/h
1305 14-05-2020 12:40:00 12.3 C 6.08 g/m*3 12.3 C 11.3 km/h
1306 14-05-2020 12:45:00 12.5 C 6.27 g/m*3 12.5 C 14.5 km/h
1307 14-05-2020 12:50:00 12.8 C 6.05 g/m*3 12.8 C 17.7 km/h
1308 14-05-2020 12:55:00 12.9 C 5.97 g/m*3 12.9 C 12.9 km/h
1309 14-05-2020 13:00:00 13 C 6.12 g/m*3 13 C 14.5 km/h
1310 14-05-2020 13:05:00 13 C 6.12 g/m*3 13 C 8.1 km/h
1311 14-05-2020 13:10:00 13.1 C 6.28 g/m*3 13.1 C 9.7 km/h
1312 14-05-2020 13:15:00 13.3 C 6.12 g/m*3 13.3 C 14.5 km/h
1313 14-05-2020 13:20:00 13.2 C 6.09 g/m*3 13.2 C 14.5 km/h
1314 14-05-2020 13:25:00 13.1 C 6.16 g/m*3 13.1 C 8.1 km/h
1315 14-05-2020 13:30:00 13.2 C 5.97 g/m*3 13.2 C 11.3 km/h
1316 14-05-2020 13:35:00 13.2 C 6.09 g/m*3 13.2 C 12.9 km/h
1317 14-05-2020 13:40:00 13.4 C 6.04 g/m*3 13.4 C 11.3 km/h
1318 14-05-2020 13:45:00 13.8 C 6.31 g/m*3 13.8 C 14.5 km/h
1319 14-05-2020 13:50:00 13.9 C 6.11 g/m*3 13.9 C 9.7 km/h
1320 14-05-2020 13:55:00 14 C 6.03 g/m*3 14 C 6.4 km/h
1321 14-05-2020 14:00:00 13.9 C 5.99 g/m*3 13.9 C 6.4 km/h
1322 14-05-2020 14:05:00 13.8 C 5.96 g/m*3 13.8 C 6.4 km/h
1323 14-05-2020 14:10:00 13.8 C 5.96 g/m*3 13.8 C 8.1 km/h
1324 14-05-2020 14:15:00 13.8 C 5.84 g/m*3 13.8 C 11.3 km/h
1325 14-05-2020 14:20:00 13.9 C 5.75 g/m*3 13.9 C 9.7 km/h
Sensor: Nr:Datum:Temp:Abs-Feuchte:Windchill:Wind:
Aussen-T/F 1326 14-05-2020 14:25:00 14.1 C 5.83 g/m*3 14.1 C 4.8 km/h
1327 14-05-2020 14:30:00 14.2 C 5.98 g/m*3 14.2 C 14.5 km/h
1328 14-05-2020 14:35:00 14.3 C 6.14 g/m*3 14.3 C 6.4 km/h
1329 14-05-2020 14:40:00 14.5 C 5.85 g/m*3 14.5 C 11.3 km/h
1330 14-05-2020 14:45:00 14.6 C 5.76 g/m*3 14.6 C 6.4 km/h
1331 14-05-2020 14:50:00 14.5 C 5.85 g/m*3 14.5 C 6.4 km/h
1332 14-05-2020 14:55:00 14.4 C 5.69 g/m*3 14.4 C 11.3 km/h
1333 14-05-2020 15:00:00 14.3 C 5.77 g/m*3 14.3 C 8.1 km/h
1334 14-05-2020 15:05:00 14.2 C 5.62 g/m*3 14.2 C 6.4 km/h
1335 14-05-2020 15:10:00 14.2 C 5.74 g/m*3 14.2 C 6.4 km/h
1336 14-05-2020 15:15:00 14.2 C 6.11 g/m*3 14.2 C 4.8 km/h
1337 14-05-2020 15:20:00 14.3 C 6.02 g/m*3 14.3 C 4.8 km/h
1338 14-05-2020 15:25:00 14.3 C 5.65 g/m*3 14.3 C 12.9 km/h
1339 14-05-2020 15:30:00 14.4 C 5.81 g/m*3 14.4 C 9.7 km/h
1340 14-05-2020 15:35:00 14.6 C 5.88 g/m*3 14.6 C 9.7 km/h
1341 14-05-2020 15:40:00 14.6 C 5.76 g/m*3 14.6 C 11.3 km/h
1342 14-05-2020 15:45:00 14.6 C 5.88 g/m*3 14.6 C 6.4 km/h
1343 14-05-2020 15:50:00 14.6 C 5.88 g/m*3 14.6 C 8.1 km/h
1344 14-05-2020 15:55:00 14.6 C 5.76 g/m*3 14.6 C 9.7 km/h
1345 14-05-2020 16:00:00 14.6 C 5.51 g/m*3 14.6 C 12.9 km/h
1346 14-05-2020 16:05:00 14.6 C 5.51 g/m*3 14.6 C 9.7 km/h
1347 14-05-2020 16:10:00 14.9 C 5.99 g/m*3 14.9 C 11.3 km/h
1348 14-05-2020 16:15:00 15.4 C 5.65 g/m*3 15.4 C 9.7 km/h
1349 14-05-2020 16:20:00 15.3 C 5.62 g/m*3 15.3 C 17.7 km/h
1350 14-05-2020 16:25:00 15.1 C 5.68 g/m*3 15.1 C 9.7 km/h
Sensor: Nr:Datum:Temp:Abs-Feuchte:Windchill:Wind:
Aussen-T/F 1351 14-05-2020 16:30:00 15.1 C 5.68 g/m*3 15.1 C 11.3 km/h
1352 14-05-2020 16:35:00 15.1 C 5.81 g/m*3 15.1 C 11.3 km/h
1353 14-05-2020 16:40:00 14.9 C 5.61 g/m*3 14.9 C 8.1 km/h
1354 14-05-2020 16:45:00 14.7 C 5.79 g/m*3 14.7 C 8.1 km/h
1355 14-05-2020 16:50:00 14.5 C 5.6 g/m*3 14.5 C 9.7 km/h
1356 14-05-2020 16:55:00 14.4 C 5.69 g/m*3 14.4 C 16.1 km/h
1357 14-05-2020 17:00:00 14.3 C 5.53 g/m*3 14.3 C 12.9 km/h
1358 14-05-2020 17:05:00 14.3 C 5.65 g/m*3 14.3 C 11.3 km/h
1359 14-05-2020 17:10:00 14.3 C 5.65 g/m*3 14.3 C 17.7 km/h
1360 14-05-2020 17:15:00 14.5 C 5.72 g/m*3 14.5 C 14.5 km/h
1361 14-05-2020 17:20:00 14.7 C 5.79 g/m*3 14.7 C 14.5 km/h
1362 14-05-2020 17:25:00 14.7 C 5.79 g/m*3 14.7 C 12.9 km/h
1363 14-05-2020 17:30:00 14.5 C 5.85 g/m*3 14.5 C 11.3 km/h
1364 14-05-2020 17:35:00 14.4 C 5.69 g/m*3 14.4 C 14.5 km/h
1365 14-05-2020 17:40:00 14.3 C 5.65 g/m*3 14.3 C 16.1 km/h
1366 14-05-2020 17:45:00 14.3 C 5.77 g/m*3 14.3 C 11.3 km/h
1367 14-05-2020 17:50:00 14.2 C 5.74 g/m*3 14.2 C 17.7 km/h
1368 14-05-2020 17:55:00 14.2 C 5.74 g/m*3 14.2 C 12.9 km/h
1369 14-05-2020 18:00:00 14.2 C 5.74 g/m*3 14.2 C 12.9 km/h
1370 14-05-2020 18:05:00 14.3 C 5.65 g/m*3 14.3 C 17.7 km/h
1371 14-05-2020 18:10:00 14.6 C 5.88 g/m*3 14.6 C 9.7 km/h
1372 14-05-2020 18:15:00 15 C 5.64 g/m*3 15 C 16.1 km/h
1373 14-05-2020 18:20:00 15 C 5.77 g/m*3 15 C 17.7 km/h
1374 14-05-2020 18:25:00 14.9 C 5.74 g/m*3 14.9 C 12.9 km/h
1375 14-05-2020 18:30:00 14.7 C 5.79 g/m*3 14.7 C 9.7 km/h
Sensor: Nr:Datum:Temp:Abs-Feuchte:Windchill:Wind:
Aussen-T/F 1376 14-05-2020 18:35:00 14.7 C 5.67 g/m*3 14.7 C 12.9 km/h
1377 14-05-2020 18:40:00 14.9 C 5.74 g/m*3 14.9 C 12.9 km/h
1378 14-05-2020 18:45:00 15.2 C 5.71 g/m*3 15.2 C 11.3 km/h
1379 14-05-2020 18:50:00 15.4 C 5.65 g/m*3 15.4 C 8.1 km/h
1380 14-05-2020 18:55:00 15.4 C 5.52 g/m*3 15.4 C 17.7 km/h
1381 14-05-2020 19:00:00 15.4 C 5.39 g/m*3 15.4 C 14.5 km/h
1382 14-05-2020 19:05:00 15.3 C 5.35 g/m*3 15.3 C 12.9 km/h
1383 14-05-2020 19:10:00 15.1 C 5.29 g/m*3 15.1 C 9.7 km/h
1384 14-05-2020 19:15:00 15.1 C 5.16 g/m*3 15.1 C 4.8 km/h
1385 14-05-2020 19:20:00 15.1 C 5.16 g/m*3 15.1 C 8.1 km/h
1386 14-05-2020 19:25:00 15 C 5.39 g/m*3 15 C 4.8 km/h
1387 14-05-2020 19:30:00 14.9 C 5.74 g/m*3 14.9 C 1.6 km/h
1388 14-05-2020 19:35:00 14.8 C 6.08 g/m*3 14.8 C 0 km/h
1389 14-05-2020 19:40:00 14.6 C 5.88 g/m*3 14.6 C 3.2 km/h
1390 14-05-2020 19:45:00 14.3 C 6.14 g/m*3 14.3 C 0 km/h
1391 14-05-2020 19:50:00 14.1 C 6.19 g/m*3 14.1 C 0 km/h
1392 14-05-2020 19:55:00 13.8 C 6.31 g/m*3 13.8 C 3.2 km/h
1393 14-05-2020 20:00:00 13.6 C 6.36 g/m*3 13.6 C 1.6 km/h
1394 14-05-2020 20:05:00 13.2 C 6.32 g/m*3 13.2 C 1.6 km/h
1395 14-05-2020 20:10:00 12.9 C 6.2 g/m*3 12.9 C 1.6 km/h
1396 14-05-2020 20:15:00 12.6 C 6.31 g/m*3 12.6 C 1.6 km/h
1397 14-05-2020 20:20:00 12.3 C 6.19 g/m*3 12.3 C 0 km/h
1398 14-05-2020 20:25:00 12 C 6.18 g/m*3 12 C 3.2 km/h
1399 14-05-2020 20:30:00 11.7 C 5.96 g/m*3 11.7 C 0 km/h
1400 14-05-2020 20:35:00 11.4 C 5.85 g/m*3 11.4 C 0 km/h
Sensor: Nr:Datum:Temp:Abs-Feuchte:Windchill:Wind:
Aussen-T/F 1401 14-05-2020 20:40:00 11.2 C 5.88 g/m*3 11.2 C 1.6 km/h
1402 14-05-2020 20:45:00 10.9 C 5.77 g/m*3 10.9 C 4.8 km/h
1403 14-05-2020 20:50:00 10.7 C 5.89 g/m*3 10.7 C 3.2 km/h
1404 14-05-2020 20:55:00 10.5 C 5.82 g/m*3 9.95 C 6.4 km/h
1405 14-05-2020 21:00:00 10.3 C 5.84 g/m*3 10.3 C 1.6 km/h
1406 14-05-2020 21:05:00 10.1 C 5.86 g/m*3 10.1 C 3.2 km/h
1407 14-05-2020 21:10:00 9.8 C 5.75 g/m*3 9.8 C 0 km/h
1408 14-05-2020 21:15:00 9.6 C 5.77 g/m*3 9.6 C 4.8 km/h
1409 14-05-2020 21:20:00 9.4 C 5.79 g/m*3 9.4 C 3.2 km/h
1410 14-05-2020 21:25:00 9.2 C 5.71 g/m*3 9.2 C 3.2 km/h
1411 14-05-2020 21:30:00 9 C 5.73 g/m*3 9 C 0 km/h
1412 14-05-2020 21:35:00 8.8 C 5.66 g/m*3 8.8 C 1.6 km/h
1413 14-05-2020 21:40:00 8.7 C 5.62 g/m*3 8.7 C 3.2 km/h
1414 14-05-2020 21:45:00 8.6 C 5.59 g/m*3 8.6 C 3.2 km/h
1415 14-05-2020 21:50:00 8.5 C 5.55 g/m*3 8.5 C 4.8 km/h
1416 14-05-2020 21:55:00 8.4 C 5.6 g/m*3 8.4 C 3.2 km/h
1417 14-05-2020 22:00:00 8.3 C 5.56 g/m*3 8.3 C 3.2 km/h
1418 14-05-2020 22:05:00 8.2 C 5.61 g/m*3 8.2 C 4.8 km/h
1419 14-05-2020 22:10:00 8.1 C 5.57 g/m*3 8.1 C 4.8 km/h
1420 14-05-2020 22:15:00 7.9 C 5.5 g/m*3 7.9 C 3.2 km/h
1421 14-05-2020 22:20:00 7.9 C 5.67 g/m*3 7.9 C 1.6 km/h
1422 14-05-2020 22:25:00 7.9 C 5.59 g/m*3 7.9 C 1.6 km/h
1423 14-05-2020 22:30:00 7.8 C 5.63 g/m*3 7.8 C 3.2 km/h
1424 14-05-2020 22:35:00 7.7 C 5.51 g/m*3 7.7 C 1.6 km/h
1425 14-05-2020 22:40:00 7.6 C 5.56 g/m*3 7.6 C 4.8 km/h
Sensor: Nr:Datum:Temp:Abs-Feuchte:Windchill:Wind:
Aussen-T/F 1426 14-05-2020 22:45:00 7.5 C 5.52 g/m*3 7.5 C 3.2 km/h
1427 14-05-2020 22:50:00 7.4 C 5.49 g/m*3 7.4 C 4.8 km/h
1428 14-05-2020 22:55:00 7.4 C 5.49 g/m*3 7.4 C 4.8 km/h
1429 14-05-2020 23:00:00 7.3 C 5.45 g/m*3 5.81 C 8.1 km/h
1430 14-05-2020 23:05:00 7.4 C 5.49 g/m*3 6.37 C 6.4 km/h
1431 14-05-2020 23:10:00 7.4 C 5.49 g/m*3 7.4 C 4.8 km/h
1432 14-05-2020 23:15:00 7.3 C 5.53 g/m*3 6.25 C 6.4 km/h
1433 14-05-2020 23:20:00 7.3 C 5.45 g/m*3 7.3 C 4.8 km/h
1434 14-05-2020 23:25:00 7.2 C 5.49 g/m*3 7.2 C 4.8 km/h
1435 14-05-2020 23:30:00 7.2 C 5.49 g/m*3 7.2 C 4.8 km/h
1436 14-05-2020 23:35:00 7.1 C 5.54 g/m*3 7.1 C 4.8 km/h
1437 14-05-2020 23:40:00 6.9 C 5.47 g/m*3 6.9 C 4.8 km/h
1438 14-05-2020 23:45:00 6.8 C 5.51 g/m*3 6.8 C 3.2 km/h
1439 14-05-2020 23:50:00 6.8 C 5.51 g/m*3 5.67 C 6.4 km/h
1440 14-05-2020 23:55:00 6.7 C 5.47 g/m*3 6.7 C 3.2 km/h
1441 15-05-2020 00:00:00 6.8 C 5.51 g/m*3 6.8 C 4.8 km/h
1442 15-05-2020 00:05:00 6.8 C 5.51 g/m*3 6.8 C 3.2 km/h
1443 15-05-2020 00:10:00 6.8 C 5.51 g/m*3 6.8 C 4.8 km/h
1444 15-05-2020 00:15:00 6.8 C 5.51 g/m*3 6.8 C 3.2 km/h
1445 15-05-2020 00:20:00 6.7 C 5.55 g/m*3 6.7 C 1.6 km/h
1446 15-05-2020 00:25:00 6.6 C 5.59 g/m*3 6.6 C 0 km/h
1447 15-05-2020 00:30:00 6.3 C 5.48 g/m*3 6.3 C 1.6 km/h
1448 15-05-2020 00:35:00 6.1 C 5.48 g/m*3 6.1 C 3.2 km/h
1449 15-05-2020 00:40:00 5.9 C 5.48 g/m*3 5.9 C 3.2 km/h
1450 15-05-2020 00:45:00 5.8 C 5.44 g/m*3 5.8 C 0 km/h
Sensor: Nr:Datum:Temp:Abs-Feuchte:Windchill:Wind:
Aussen-T/F 1451 15-05-2020 00:50:00 5.7 C 5.48 g/m*3 5.7 C 3.2 km/h
1452 15-05-2020 00:55:00 5.6 C 5.44 g/m*3 5.6 C 4.8 km/h
1453 15-05-2020 01:00:00 5.6 C 5.44 g/m*3 5.6 C 4.8 km/h
1454 15-05-2020 01:05:00 5.6 C 5.44 g/m*3 4.29 C 6.4 km/h
1455 15-05-2020 01:10:00 5.6 C 5.51 g/m*3 5.6 C 0 km/h
1456 15-05-2020 01:15:00 5.5 C 5.48 g/m*3 5.5 C 4.8 km/h
1457 15-05-2020 01:20:00 5.5 C 5.41 g/m*3 5.5 C 1.6 km/h
1458 15-05-2020 01:25:00 5.4 C 5.44 g/m*3 5.4 C 0 km/h
1459 15-05-2020 01:30:00 5.4 C 5.44 g/m*3 5.4 C 4.8 km/h
1460 15-05-2020 01:35:00 5.4 C 5.44 g/m*3 5.4 C 3.2 km/h
1461 15-05-2020 01:40:00 5.4 C 5.44 g/m*3 5.4 C 4.8 km/h
1462 15-05-2020 01:45:00 5.4 C 5.44 g/m*3 5.4 C 4.8 km/h
1463 15-05-2020 01:50:00 5.3 C 5.34 g/m*3 5.3 C 3.2 km/h
1464 15-05-2020 01:55:00 5.3 C 5.34 g/m*3 3.94 C 6.4 km/h
1465 15-05-2020 02:00:00 5.3 C 5.41 g/m*3 3.94 C 6.4 km/h
1466 15-05-2020 02:05:00 5.3 C 5.34 g/m*3 3.94 C 6.4 km/h
1467 15-05-2020 02:10:00 5.3 C 5.34 g/m*3 5.3 C 4.8 km/h
1468 15-05-2020 02:15:00 5.2 C 5.3 g/m*3 3.82 C 6.4 km/h
1469 15-05-2020 02:20:00 5.2 C 5.3 g/m*3 3.82 C 6.4 km/h
1470 15-05-2020 02:25:00 5.1 C 5.27 g/m*3 3.71 C 6.4 km/h
1471 15-05-2020 02:30:00 5.1 C 5.27 g/m*3 3.71 C 6.4 km/h
1472 15-05-2020 02:35:00 5.1 C 5.27 g/m*3 5.1 C 4.8 km/h
1473 15-05-2020 02:40:00 5.1 C 5.27 g/m*3 5.1 C 4.8 km/h
1474 15-05-2020 02:45:00 5 C 5.23 g/m*3 5 C 3.2 km/h
1475 15-05-2020 02:50:00 4.9 C 5.27 g/m*3 4.9 C 1.6 km/h
Sensor: Nr:Datum:Temp:Abs-Feuchte:Windchill:Wind:
Aussen-T/F 1476 15-05-2020 02:55:00 4.9 C 5.27 g/m*3 4.9 C 3.2 km/h
1477 15-05-2020 03:00:00 4.8 C 5.23 g/m*3 4.8 C 1.6 km/h
1478 15-05-2020 03:05:00 4.7 C 5.26 g/m*3 4.7 C 1.6 km/h
1479 15-05-2020 03:10:00 4.7 C 5.26 g/m*3 4.7 C 0 km/h
1480 15-05-2020 03:15:00 4.5 C 5.19 g/m*3 4.5 C 0 km/h
1481 15-05-2020 03:20:00 4.4 C 5.22 g/m*3 4.4 C 0 km/h
1482 15-05-2020 03:25:00 4.3 C 5.19 g/m*3 4.3 C 0 km/h
1483 15-05-2020 03:30:00 4.2 C 5.15 g/m*3 4.2 C 0 km/h
1484 15-05-2020 03:35:00 4.1 C 5.18 g/m*3 4.1 C 0 km/h
1485 15-05-2020 03:40:00 3.9 C 5.12 g/m*3 3.9 C 0 km/h
1486 15-05-2020 03:45:00 3.9 C 5.18 g/m*3 3.9 C 4.8 km/h
1487 15-05-2020 03:50:00 3.9 C 5.18 g/m*3 3.9 C 0 km/h
1488 15-05-2020 03:55:00 3.8 C 5.14 g/m*3 3.8 C 0 km/h
1489 15-05-2020 04:00:00 3.8 C 5.14 g/m*3 3.8 C 0 km/h
1490 15-05-2020 04:05:00 3.8 C 5.14 g/m*3 3.8 C 1.6 km/h
1491 15-05-2020 04:10:00 3.7 C 5.11 g/m*3 3.7 C 1.6 km/h
1492 15-05-2020 04:15:00 3.7 C 5.17 g/m*3 3.7 C 0 km/h
1493 15-05-2020 04:20:00 3.7 C 5.17 g/m*3 3.7 C 0 km/h
1494 15-05-2020 04:25:00 3.6 C 5.14 g/m*3 3.6 C 0 km/h
1495 15-05-2020 04:30:00 3.5 C 5.1 g/m*3 3.5 C 0 km/h
1496 15-05-2020 04:35:00 3.4 C 5.07 g/m*3 3.4 C 0 km/h
1497 15-05-2020 04:40:00 3.3 C 5.04 g/m*3 3.3 C 0 km/h
1498 15-05-2020 04:45:00 3.2 C 5.06 g/m*3 3.2 C 0 km/h
1499 15-05-2020 04:50:00 3.1 C 5.03 g/m*3 3.1 C 0 km/h
1500 15-05-2020 04:55:00 3 C 4.99 g/m*3 3 C 0 km/h
Sensor: Nr:Datum:Temp:Abs-Feuchte:Windchill:Wind:
Aussen-T/F 1501 15-05-2020 05:00:00 2.9 C 5.02 g/m*3 2.9 C 0 km/h
1502 15-05-2020 05:05:00 2.8 C 4.99 g/m*3 2.8 C 0 km/h
1503 15-05-2020 05:10:00 2.7 C 4.95 g/m*3 2.7 C 0 km/h
1504 15-05-2020 05:15:00 2.7 C 5.01 g/m*3 2.7 C 0 km/h
1505 15-05-2020 05:20:00 2.6 C 4.98 g/m*3 2.6 C 0 km/h
1506 15-05-2020 05:25:00 2.5 C 5 g/m*3 2.5 C 0 km/h
1507 15-05-2020 05:30:00 2.4 C 4.97 g/m*3 2.4 C 0 km/h
1508 15-05-2020 05:35:00 2.4 C 4.97 g/m*3 2.4 C 0 km/h
1509 15-05-2020 05:40:00 2.3 C 4.93 g/m*3 2.3 C 0 km/h
1510 15-05-2020 05:45:00 2.3 C 4.99 g/m*3 2.3 C 0 km/h
1511 15-05-2020 05:50:00 2.3 C 4.99 g/m*3 2.3 C 0 km/h
1512 15-05-2020 05:55:00 2.2 C 4.96 g/m*3 2.2 C 0 km/h
1513 15-05-2020 06:00:00 2.2 C 4.96 g/m*3 2.2 C 0 km/h
1514 15-05-2020 06:05:00 2.1 C 4.98 g/m*3 2.1 C 0 km/h
1515 15-05-2020 06:10:00 2.1 C 4.98 g/m*3 2.1 C 0 km/h
1516 15-05-2020 06:15:00 2.1 C 4.98 g/m*3 2.1 C 0 km/h
1517 15-05-2020 06:20:00 2.1 C 4.98 g/m*3 2.1 C 0 km/h
1518 15-05-2020 06:25:00 2.1 C 4.98 g/m*3 2.1 C 0 km/h
1519 15-05-2020 06:30:00 2.1 C 5.04 g/m*3 2.1 C 0 km/h
1520 15-05-2020 06:35:00 2.1 C 5.04 g/m*3 2.1 C 0 km/h
1521 15-05-2020 06:40:00 2.2 C 5.07 g/m*3 2.2 C 0 km/h
1522 15-05-2020 06:45:00 2.2 C 5.07 g/m*3 2.2 C 0 km/h
1523 15-05-2020 06:50:00 2.2 C 5.07 g/m*3 2.2 C 0 km/h
1524 15-05-2020 06:55:00 2.3 C 5.16 g/m*3 2.3 C 0 km/h
1525 15-05-2020 07:00:00 2.3 C 5.16 g/m*3 2.3 C 0 km/h
Sensor: Nr:Datum:Temp:Abs-Feuchte:Windchill:Wind:
Aussen-T/F 1526 15-05-2020 07:05:00 2.5 C 5.23 g/m*3 2.5 C 3.2 km/h
1527 15-05-2020 07:10:00 2.7 C 5.3 g/m*3 2.7 C 1.6 km/h
1528 15-05-2020 07:15:00 2.8 C 5.34 g/m*3 2.8 C 0 km/h
1529 15-05-2020 07:20:00 2.9 C 5.32 g/m*3 2.9 C 0 km/h
1530 15-05-2020 07:25:00 3.1 C 5.39 g/m*3 3.1 C 0 km/h
1531 15-05-2020 07:30:00 3.2 C 5.42 g/m*3 3.2 C 0 km/h
1532 15-05-2020 07:35:00 3.4 C 5.5 g/m*3 3.4 C 0 km/h
1533 15-05-2020 07:40:00 3.6 C 5.51 g/m*3 3.6 C 0 km/h
1534 15-05-2020 07:45:00 3.7 C 5.55 g/m*3 3.7 C 3.2 km/h
1535 15-05-2020 07:50:00 3.8 C 5.52 g/m*3 3.8 C 3.2 km/h
1536 15-05-2020 07:55:00 3.9 C 5.56 g/m*3 3.9 C 3.2 km/h
1537 15-05-2020 08:00:00 4.1 C 5.63 g/m*3 4.1 C 0 km/h
1538 15-05-2020 08:05:00 4.2 C 5.67 g/m*3 4.2 C 4.8 km/h
1539 15-05-2020 08:10:00 4.3 C 5.64 g/m*3 4.3 C 1.6 km/h
1540 15-05-2020 08:15:00 4.4 C 5.68 g/m*3 4.4 C 4.8 km/h
1541 15-05-2020 08:20:00 4.6 C 5.69 g/m*3 4.6 C 1.6 km/h
1542 15-05-2020 08:25:00 4.8 C 5.77 g/m*3 4.8 C 3.2 km/h
1543 15-05-2020 08:30:00 4.9 C 5.81 g/m*3 4.9 C 0 km/h
1544 15-05-2020 08:35:00 5.1 C 5.88 g/m*3 5.1 C 4.8 km/h
1545 15-05-2020 08:40:00 5.3 C 5.82 g/m*3 5.3 C 3.2 km/h
1546 15-05-2020 08:45:00 5.7 C 5.91 g/m*3 5.7 C 0 km/h
1547 15-05-2020 08:50:00 5.8 C 6.02 g/m*3 5.8 C 0 km/h
1548 15-05-2020 08:55:00 5.9 C 5.98 g/m*3 4.63 C 6.4 km/h
1549 15-05-2020 09:00:00 6.1 C 5.92 g/m*3 6.1 C 3.2 km/h
1550 15-05-2020 09:05:00 6.3 C 6 g/m*3 6.3 C 4.8 km/h
Sensor: Nr:Datum:Temp:Abs-Feuchte:Windchill:Wind:
Aussen-T/F 1551 15-05-2020 09:10:00 6.5 C 6 g/m*3 6.5 C 1.6 km/h
1552 15-05-2020 09:15:00 6.7 C 6.08 g/m*3 5.56 C 6.4 km/h
1553 15-05-2020 09:20:00 7.1 C 6.08 g/m*3 7.1 C 4.8 km/h
1554 15-05-2020 09:25:00 7.2 C 6.12 g/m*3 7.2 C 1.6 km/h
1555 15-05-2020 09:30:00 7.3 C 6.08 g/m*3 7.3 C 4.8 km/h
1556 15-05-2020 09:35:00 7.7 C 6 g/m*3 6.28 C 8.1 km/h
1557 15-05-2020 09:40:00 8.1 C 5.91 g/m*3 6.75 C 8.1 km/h
1558 15-05-2020 09:45:00 8.5 C 5.98 g/m*3 8.5 C 4.8 km/h
1559 15-05-2020 09:50:00 8.9 C 5.96 g/m*3 8.1 C 6.4 km/h
1560 15-05-2020 09:55:00 9.2 C 5.98 g/m*3 8.45 C 6.4 km/h
1561 15-05-2020 10:00:00 9.3 C 6.02 g/m*3 9.3 C 1.6 km/h
1562 15-05-2020 10:05:00 9.4 C 6.06 g/m*3 9.4 C 3.2 km/h
1563 15-05-2020 10:10:00 9.6 C 5.95 g/m*3 8.91 C 6.4 km/h
1564 15-05-2020 10:15:00 9.9 C 5.98 g/m*3 9.25 C 6.4 km/h
1565 15-05-2020 10:20:00 10.2 C 5.9 g/m*3 10.2 C 4.8 km/h
1566 15-05-2020 10:25:00 10.4 C 5.98 g/m*3 9.16 C 9.7 km/h
1567 15-05-2020 10:30:00 10.7 C 6.19 g/m*3 9.52 C 9.7 km/h
1568 15-05-2020 10:35:00 10.9 C 6.07 g/m*3 10.41 C 6.4 km/h
1569 15-05-2020 10:40:00 11.1 C 6.04 g/m*3 11.1 C 9.7 km/h
1570 15-05-2020 10:45:00 11.4 C 6.06 g/m*3 11.4 C 8.1 km/h
1571 15-05-2020 10:50:00 11.6 C 6.24 g/m*3 11.6 C 3.2 km/h
1572 15-05-2020 10:55:00 11.7 C 6.17 g/m*3 11.7 C 3.2 km/h
1573 15-05-2020 11:00:00 12 C 6.39 g/m*3 12 C 4.8 km/h
1574 15-05-2020 11:05:00 12.2 C 6.15 g/m*3 12.2 C 9.7 km/h
1575 15-05-2020 11:10:00 12.5 C 6.16 g/m*3 12.5 C 12.9 km/h
Sensor: Nr:Datum:Temp:Abs-Feuchte:Windchill:Wind:
Aussen-T/F 1576 15-05-2020 11:15:00 12.6 C 6.08 g/m*3 12.6 C 6.4 km/h
1577 15-05-2020 11:20:00 12.6 C 6.2 g/m*3 12.6 C 6.4 km/h
1578 15-05-2020 11:25:00 12.8 C 5.94 g/m*3 12.8 C 6.4 km/h
1579 15-05-2020 11:30:00 12.9 C 5.97 g/m*3 12.9 C 6.4 km/h
1580 15-05-2020 11:35:00 13.1 C 5.93 g/m*3 13.1 C 4.8 km/h
1581 15-05-2020 11:40:00 13.3 C 5.78 g/m*3 13.3 C 14.5 km/h
1582 15-05-2020 11:45:00 13.4 C 5.7 g/m*3 13.4 C 14.5 km/h
1583 15-05-2020 11:50:00 13.6 C 5.65 g/m*3 13.6 C 9.7 km/h
1584 15-05-2020 11:55:00 13.6 C 5.53 g/m*3 13.6 C 12.9 km/h
1585 15-05-2020 12:00:00 13.7 C 5.45 g/m*3 13.7 C 19.3 km/h
1586 15-05-2020 12:05:00 13.8 C 5.6 g/m*3 13.8 C 19.3 km/h
1587 15-05-2020 12:10:00 13.8 C 5.6 g/m*3 13.8 C 8.1 km/h
1588 15-05-2020 12:15:00 13.9 C 5.51 g/m*3 13.9 C 14.5 km/h
1589 15-05-2020 12:20:00 14 C 5.55 g/m*3 14 C 12.9 km/h
1590 15-05-2020 12:25:00 14.1 C 5.46 g/m*3 14.1 C 17.7 km/h
1591 15-05-2020 12:30:00 14.2 C 5.49 g/m*3 14.2 C 14.5 km/h
1592 15-05-2020 12:35:00 14.3 C 5.41 g/m*3 14.3 C 12.9 km/h
1593 15-05-2020 12:40:00 14.2 C 5.37 g/m*3 14.2 C 6.4 km/h
1594 15-05-2020 12:45:00 14.3 C 5.41 g/m*3 14.3 C 14.5 km/h
1595 15-05-2020 12:50:00 14.4 C 5.44 g/m*3 14.4 C 11.3 km/h
1596 15-05-2020 12:55:00 14.5 C 5.22 g/m*3 14.5 C 14.5 km/h
1597 15-05-2020 13:00:00 14.6 C 5.38 g/m*3 14.6 C 9.7 km/h
1598 15-05-2020 13:05:00 14.7 C 5.41 g/m*3 14.7 C 14.5 km/h
1599 15-05-2020 13:10:00 14.8 C 5.57 g/m*3 14.8 C 9.7 km/h
1600 15-05-2020 13:15:00 14.8 C 5.57 g/m*3 14.8 C 11.3 km/h
Sensor: Nr:Datum:Temp:Abs-Feuchte:Windchill:Wind:
Aussen-T/F 1601 15-05-2020 13:20:00 14.9 C 5.74 g/m*3 14.9 C 11.3 km/h
1602 15-05-2020 13:25:00 14.9 C 5.61 g/m*3 14.9 C 11.3 km/h
1603 15-05-2020 13:30:00 14.8 C 5.7 g/m*3 14.8 C 6.4 km/h
1604 15-05-2020 13:35:00 14.8 C 5.83 g/m*3 14.8 C 6.4 km/h
1605 15-05-2020 13:40:00 14.9 C 5.99 g/m*3 14.9 C 9.7 km/h
1606 15-05-2020 13:45:00 15.1 C 5.68 g/m*3 15.1 C 14.5 km/h
1607 15-05-2020 13:50:00 15.3 C 6.01 g/m*3 15.3 C 11.3 km/h
1608 15-05-2020 13:55:00 15.4 C 5.78 g/m*3 15.4 C 14.5 km/h
1609 15-05-2020 14:00:00 15.4 C 5.78 g/m*3 15.4 C 12.9 km/h
1610 15-05-2020 14:05:00 15.5 C 5.82 g/m*3 15.5 C 6.4 km/h
1611 15-05-2020 14:10:00 15.5 C 5.82 g/m*3 15.5 C 11.3 km/h
1612 15-05-2020 14:15:00 15.7 C 5.75 g/m*3 15.7 C 12.9 km/h
1613 15-05-2020 14:20:00 15.9 C 5.82 g/m*3 15.9 C 9.7 km/h
1614 15-05-2020 14:25:00 16 C 5.86 g/m*3 16 C 11.3 km/h
1615 15-05-2020 14:30:00 16.2 C 5.93 g/m*3 16.2 C 9.7 km/h
1616 15-05-2020 14:35:00 16.2 C 5.79 g/m*3 16.2 C 9.7 km/h
1617 15-05-2020 14:40:00 16.3 C 5.97 g/m*3 16.3 C 12.9 km/h
1618 15-05-2020 14:45:00 16.4 C 5.72 g/m*3 16.4 C 12.9 km/h
1619 15-05-2020 14:50:00 16.4 C 5.86 g/m*3 16.4 C 8.1 km/h
1620 15-05-2020 14:55:00 16.6 C 6.07 g/m*3 16.6 C 11.3 km/h
1621 15-05-2020 15:00:00 16.8 C 5.86 g/m*3 16.8 C 12.9 km/h
1622 15-05-2020 15:05:00 16.9 C 5.75 g/m*3 16.9 C 11.3 km/h
1623 15-05-2020 15:10:00 17.1 C 5.68 g/m*3 17.1 C 12.9 km/h
1624 15-05-2020 15:15:00 17.3 C 5.75 g/m*3 17.3 C 11.3 km/h
1625 15-05-2020 15:20:00 17.4 C 5.63 g/m*3 17.4 C 12.9 km/h
Sensor: Nr:Datum:Temp:Abs-Feuchte:Windchill:Wind:
Aussen-T/F 1626 15-05-2020 15:25:00 17.6 C 6 g/m*3 17.6 C 14.5 km/h
1627 15-05-2020 15:30:00 18 C 5.84 g/m*3 18 C 14.5 km/h
1628 15-05-2020 15:35:00 18.1 C 5.72 g/m*3 18.1 C 12.9 km/h
1629 15-05-2020 15:40:00 18.3 C 5.94 g/m*3 18.3 C 12.9 km/h
1630 15-05-2020 15:45:00 18.4 C 5.66 g/m*3 18.4 C 16.1 km/h
1631 15-05-2020 15:50:00 18.7 C 5.76 g/m*3 18.7 C 6.4 km/h
1632 15-05-2020 15:55:00 18.7 C 5.76 g/m*3 18.7 C 17.7 km/h
1633 15-05-2020 16:00:00 18.6 C 5.73 g/m*3 18.6 C 12.9 km/h
1634 15-05-2020 16:05:00 18.5 C 5.85 g/m*3 18.5 C 9.7 km/h
1635 15-05-2020 16:10:00 18.6 C 5.89 g/m*3 18.6 C 16.1 km/h
1636 15-05-2020 16:15:00 18.7 C 5.76 g/m*3 18.7 C 12.9 km/h
1637 15-05-2020 16:20:00 18.8 C 5.64 g/m*3 18.8 C 12.9 km/h
1638 15-05-2020 16:25:00 18.7 C 5.6 g/m*3 18.7 C 17.7 km/h
1639 15-05-2020 16:30:00 18.3 C 5.47 g/m*3 18.3 C 11.3 km/h
1640 15-05-2020 16:35:00 18.3 C 5.63 g/m*3 18.3 C 17.7 km/h
1641 15-05-2020 16:40:00 18.3 C 5.47 g/m*3 18.3 C 19.3 km/h
1642 15-05-2020 16:45:00 18.4 C 5.66 g/m*3 18.4 C 9.7 km/h
1643 15-05-2020 16:50:00 18.6 C 5.57 g/m*3 18.6 C 12.9 km/h
1644 15-05-2020 16:55:00 18.5 C 5.38 g/m*3 18.5 C 17.7 km/h
1645 15-05-2020 17:00:00 18.4 C 5.35 g/m*3 18.4 C 14.5 km/h
1646 15-05-2020 17:05:00 18.4 C 5.35 g/m*3 18.4 C 16.1 km/h
1647 15-05-2020 17:10:00 18.3 C 5.16 g/m*3 18.3 C 11.3 km/h
1648 15-05-2020 17:15:00 18.2 C 5.44 g/m*3 18.2 C 9.7 km/h
1649 15-05-2020 17:20:00 18.4 C 5.35 g/m*3 18.4 C 16.1 km/h
1650 15-05-2020 17:25:00 18.8 C 5.31 g/m*3 18.8 C 11.3 km/h
Sensor: Nr:Datum:Temp:Abs-Feuchte:Windchill:Wind:
Aussen-T/F 1651 15-05-2020 17:30:00 18.8 C 5.31 g/m*3 18.8 C 9.7 km/h
1652 15-05-2020 17:35:00 18.8 C 5.48 g/m*3 18.8 C 8.1 km/h
1653 15-05-2020 17:40:00 19 C 5.38 g/m*3 19 C 9.7 km/h
1654 15-05-2020 17:45:00 18.8 C 5.48 g/m*3 18.8 C 9.7 km/h
1655 15-05-2020 17:50:00 18.4 C 5.35 g/m*3 18.4 C 14.5 km/h
1656 15-05-2020 17:55:00 18.3 C 5.16 g/m*3 18.3 C 11.3 km/h
1657 15-05-2020 18:00:00 18.2 C 5.28 g/m*3 18.2 C 14.5 km/h
1658 15-05-2020 18:05:00 18.1 C 5.41 g/m*3 18.1 C 11.3 km/h
1659 15-05-2020 18:10:00 18.1 C 5.41 g/m*3 18.1 C 12.9 km/h
1660 15-05-2020 18:15:00 18 C 5.22 g/m*3 18 C 12.9 km/h
1661 15-05-2020 18:20:00 17.9 C 5.34 g/m*3 17.9 C 11.3 km/h
1662 15-05-2020 18:25:00 17.9 C 5.34 g/m*3 17.9 C 9.7 km/h
1663 15-05-2020 18:30:00 18 C 5.22 g/m*3 18 C 11.3 km/h
1664 15-05-2020 18:35:00 18.1 C 5.1 g/m*3 18.1 C 12.9 km/h
1665 15-05-2020 18:40:00 18.1 C 5.1 g/m*3 18.1 C 11.3 km/h
1666 15-05-2020 18:45:00 18.3 C 5.32 g/m*3 18.3 C 8.1 km/h
1667 15-05-2020 18:50:00 18.2 C 5.13 g/m*3 18.2 C 11.3 km/h
1668 15-05-2020 18:55:00 17.8 C 5.16 g/m*3 17.8 C 11.3 km/h
1669 15-05-2020 19:00:00 17.8 C 5.16 g/m*3 17.8 C 9.7 km/h
1670 15-05-2020 19:05:00 17.8 C 5.16 g/m*3 17.8 C 9.7 km/h
1671 15-05-2020 19:10:00 17.8 C 5.01 g/m*3 17.8 C 9.7 km/h
1672 15-05-2020 19:15:00 17.8 C 5.16 g/m*3 17.8 C 12.9 km/h
1673 15-05-2020 19:20:00 17.7 C 5.13 g/m*3 17.7 C 6.4 km/h
1674 15-05-2020 19:25:00 17.6 C 4.95 g/m*3 17.6 C 11.3 km/h
1675 15-05-2020 19:30:00 17.4 C 4.89 g/m*3 17.4 C 9.7 km/h
Sensor: Nr:Datum:Temp:Abs-Feuchte:Windchill:Wind:
Aussen-T/F 1676 15-05-2020 19:35:00 17.2 C 4.98 g/m*3 17.2 C 11.3 km/h
1677 15-05-2020 19:40:00 17.1 C 5.09 g/m*3 17.1 C 9.7 km/h
1678 15-05-2020 19:45:00 16.9 C 4.89 g/m*3 16.9 C 9.7 km/h
1679 15-05-2020 19:50:00 16.7 C 4.97 g/m*3 16.7 C 9.7 km/h
1680 15-05-2020 19:55:00 16.5 C 4.91 g/m*3 16.5 C 8.1 km/h
1681 15-05-2020 20:00:00 16.4 C 5.02 g/m*3 16.4 C 8.1 km/h
1682 15-05-2020 20:05:00 16.3 C 5.13 g/m*3 16.3 C 4.8 km/h
1683 15-05-2020 20:10:00 16.3 C 4.99 g/m*3 16.3 C 6.4 km/h
1684 15-05-2020 20:15:00 16.2 C 5.24 g/m*3 16.2 C 6.4 km/h
1685 15-05-2020 20:20:00 16.1 C 5.07 g/m*3 16.1 C 6.4 km/h
1686 15-05-2020 20:25:00 15.9 C 5.01 g/m*3 15.9 C 6.4 km/h
1687 15-05-2020 20:30:00 15.7 C 5.08 g/m*3 15.7 C 4.8 km/h
1688 15-05-2020 20:35:00 15.5 C 5.02 g/m*3 15.5 C 4.8 km/h
1689 15-05-2020 20:40:00 15.3 C 5.09 g/m*3 15.3 C 1.6 km/h
1690 15-05-2020 20:45:00 15.1 C 5.03 g/m*3 15.1 C 3.2 km/h
1691 15-05-2020 20:50:00 14.9 C 5.61 g/m*3 14.9 C 1.6 km/h
1692 15-05-2020 20:55:00 14.7 C 5.54 g/m*3 14.7 C 1.6 km/h
1693 15-05-2020 21:00:00 14.3 C 5.77 g/m*3 14.3 C 3.2 km/h
1694 15-05-2020 21:05:00 13.8 C 5.6 g/m*3 13.8 C 1.6 km/h
1695 15-05-2020 21:10:00 13.3 C 5.55 g/m*3 13.3 C 1.6 km/h
1696 15-05-2020 21:15:00 13 C 5.67 g/m*3 13 C 3.2 km/h
1697 15-05-2020 21:20:00 12.6 C 5.64 g/m*3 12.6 C 4.8 km/h
1698 15-05-2020 21:25:00 12.1 C 5.68 g/m*3 12.1 C 3.2 km/h
1699 15-05-2020 21:30:00 11.7 C 5.65 g/m*3 11.7 C 4.8 km/h
1700 15-05-2020 21:35:00 11.3 C 5.51 g/m*3 11.3 C 3.2 km/h
Sensor: Nr:Datum:Temp:Abs-Feuchte:Windchill:Wind:
Aussen-T/F 1701 15-05-2020 21:40:00 11 C 5.51 g/m*3 11 C 4.8 km/h
1702 15-05-2020 21:45:00 10.8 C 5.63 g/m*3 10.8 C 4.8 km/h
1703 15-05-2020 21:50:00 10.6 C 5.56 g/m*3 10.06 C 6.4 km/h
1704 15-05-2020 21:55:00 10.9 C 5.47 g/m*3 10.04 C 8.1 km/h
1705 15-05-2020 22:00:00 11.3 C 5.81 g/m*3 11.3 C 4.8 km/h
1706 15-05-2020 22:05:00 11.2 C 5.78 g/m*3 11.2 C 3.2 km/h
1707 15-05-2020 22:10:00 10.9 C 5.77 g/m*3 10.9 C 3.2 km/h
1708 15-05-2020 22:15:00 10.7 C 5.8 g/m*3 10.7 C 4.8 km/h
1709 15-05-2020 22:20:00 10.3 C 5.75 g/m*3 10.3 C 1.6 km/h
1710 15-05-2020 22:25:00 10.1 C 5.86 g/m*3 10.1 C 4.8 km/h
1711 15-05-2020 22:30:00 9.8 C 5.85 g/m*3 9.8 C 1.6 km/h
1712 15-05-2020 22:35:00 9.7 C 5.9 g/m*3 9.7 C 3.2 km/h
1713 15-05-2020 22:40:00 9.5 C 5.92 g/m*3 9.5 C 3.2 km/h
1714 15-05-2020 22:45:00 9.3 C 5.84 g/m*3 9.3 C 4.8 km/h
1715 15-05-2020 22:50:00 9.3 C 5.93 g/m*3 9.3 C 1.6 km/h
1716 15-05-2020 22:55:00 9.2 C 5.89 g/m*3 9.2 C 1.6 km/h
1717 15-05-2020 23:00:00 9.1 C 5.94 g/m*3 9.1 C 3.2 km/h
1718 15-05-2020 23:05:00 9 C 5.91 g/m*3 9 C 4.8 km/h
1719 15-05-2020 23:10:00 8.9 C 5.87 g/m*3 8.9 C 3.2 km/h
1720 15-05-2020 23:15:00 8.9 C 5.87 g/m*3 8.9 C 1.6 km/h
1721 15-05-2020 23:20:00 8.9 C 5.87 g/m*3 8.9 C 3.2 km/h
1722 15-05-2020 23:25:00 9.1 C 5.94 g/m*3 9.1 C 3.2 km/h
1723 15-05-2020 23:30:00 9.2 C 5.98 g/m*3 9.2 C 0 km/h
1724 15-05-2020 23:35:00 9.1 C 5.86 g/m*3 9.1 C 0 km/h
1725 15-05-2020 23:40:00 8.9 C 5.87 g/m*3 8.9 C 1.6 km/h
Sensor: Nr:Datum:Temp:Abs-Feuchte:Windchill:Wind:
Aussen-T/F 1726 15-05-2020 23:45:00 8.8 C 5.83 g/m*3 8.8 C 0 km/h
1727 15-05-2020 23:50:00 8.6 C 5.84 g/m*3 8.6 C 3.2 km/h
1728 15-05-2020 23:55:00 8.4 C 5.77 g/m*3 8.4 C 0 km/h
1729 16-05-2020 00:00:00 8.2 C 5.69 g/m*3 8.2 C 3.2 km/h
1730 16-05-2020 00:05:00 8.1 C 5.74 g/m*3 8.1 C 4.8 km/h
1731 16-05-2020 00:10:00 8.1 C 5.74 g/m*3 8.1 C 3.2 km/h
1732 16-05-2020 00:15:00 7.9 C 5.67 g/m*3 7.9 C 3.2 km/h
1733 16-05-2020 00:20:00 7.9 C 5.67 g/m*3 7.9 C 3.2 km/h
1734 16-05-2020 00:25:00 7.8 C 5.71 g/m*3 7.8 C 3.2 km/h
1735 16-05-2020 00:30:00 7.7 C 5.68 g/m*3 7.7 C 3.2 km/h
1736 16-05-2020 00:35:00 7.7 C 5.68 g/m*3 7.7 C 1.6 km/h
1737 16-05-2020 00:40:00 7.6 C 5.72 g/m*3 7.6 C 3.2 km/h
1738 16-05-2020 00:45:00 7.5 C 5.68 g/m*3 7.5 C 3.2 km/h
1739 16-05-2020 00:50:00 7.4 C 5.73 g/m*3 7.4 C 3.2 km/h
1740 16-05-2020 00:55:00 7.3 C 5.69 g/m*3 7.3 C 1.6 km/h
1741 16-05-2020 01:00:00 7.1 C 5.69 g/m*3 7.1 C 1.6 km/h
1742 16-05-2020 01:05:00 6.9 C 5.7 g/m*3 6.9 C 0 km/h
1743 16-05-2020 01:10:00 6.8 C 5.74 g/m*3 6.8 C 0 km/h
1744 16-05-2020 01:15:00 6.7 C 5.7 g/m*3 6.7 C 0 km/h
1745 16-05-2020 01:20:00 6.5 C 5.7 g/m*3 6.5 C 0 km/h
1746 16-05-2020 01:25:00 6.3 C 5.7 g/m*3 6.3 C 0 km/h
1747 16-05-2020 01:30:00 6.2 C 5.66 g/m*3 6.2 C 0 km/h
1748 16-05-2020 01:35:00 5.9 C 5.62 g/m*3 5.9 C 0 km/h
1749 16-05-2020 01:40:00 5.8 C 5.59 g/m*3 5.8 C 0 km/h
1750 16-05-2020 01:45:00 5.6 C 5.59 g/m*3 5.6 C 0 km/h
Sensor: Nr:Datum:Temp:Abs-Feuchte:Windchill:Wind:
Aussen-T/F 1751 16-05-2020 01:50:00 5.5 C 5.55 g/m*3 5.5 C 0 km/h
1752 16-05-2020 01:55:00 5.3 C 5.54 g/m*3 5.3 C 0 km/h
1753 16-05-2020 02:00:00 5.3 C 5.54 g/m*3 5.3 C 0 km/h
1754 16-05-2020 02:05:00 5.2 C 5.51 g/m*3 5.2 C 0 km/h
1755 16-05-2020 02:10:00 5.1 C 5.54 g/m*3 5.1 C 0 km/h
1756 16-05-2020 02:15:00 5 C 5.5 g/m*3 5 C 0 km/h
1757 16-05-2020 02:20:00 4.9 C 5.47 g/m*3 4.9 C 0 km/h
1758 16-05-2020 02:25:00 4.8 C 5.5 g/m*3 4.8 C 0 km/h
1759 16-05-2020 02:30:00 4.7 C 5.46 g/m*3 4.7 C 0 km/h
1760 16-05-2020 02:35:00 4.7 C 5.53 g/m*3 4.7 C 0 km/h
1761 16-05-2020 02:40:00 4.6 C 5.49 g/m*3 4.6 C 0 km/h
1762 16-05-2020 02:45:00 4.5 C 5.46 g/m*3 4.5 C 0 km/h
1763 16-05-2020 02:50:00 4.4 C 5.48 g/m*3 4.4 C 0 km/h
1764 16-05-2020 02:55:00 4.4 C 5.48 g/m*3 4.4 C 0 km/h
1765 16-05-2020 03:00:00 4.3 C 5.45 g/m*3 4.3 C 0 km/h
1766 16-05-2020 03:05:00 4.3 C 5.45 g/m*3 4.3 C 0 km/h
1767 16-05-2020 03:10:00 4.2 C 5.41 g/m*3 4.2 C 0 km/h
1768 16-05-2020 03:15:00 4.2 C 5.48 g/m*3 4.2 C 0 km/h
1769 16-05-2020 03:20:00 4.1 C 5.44 g/m*3 4.1 C 0 km/h
1770 16-05-2020 03:25:00 4 C 5.4 g/m*3 4 C 0 km/h
1771 16-05-2020 03:30:00 3.9 C 5.43 g/m*3 3.9 C 0 km/h
1772 16-05-2020 03:35:00 3.9 C 5.43 g/m*3 3.9 C 0 km/h
1773 16-05-2020 03:40:00 3.8 C 5.4 g/m*3 3.8 C 0 km/h
1774 16-05-2020 03:45:00 3.8 C 5.4 g/m*3 3.8 C 0 km/h
1775 16-05-2020 03:50:00 3.8 C 5.4 g/m*3 3.8 C 0 km/h
Sensor: Nr:Datum:Temp:Abs-Feuchte:Windchill:Wind:
Aussen-T/F 1776 16-05-2020 03:55:00 3.7 C 5.42 g/m*3 3.7 C 0 km/h
1777 16-05-2020 04:00:00 3.7 C 5.36 g/m*3 3.7 C 0 km/h
1778 16-05-2020 04:05:00 3.6 C 5.39 g/m*3 3.6 C 0 km/h
1779 16-05-2020 04:10:00 3.6 C 5.39 g/m*3 3.6 C 0 km/h
1780 16-05-2020 04:15:00 3.5 C 5.35 g/m*3 3.5 C 0 km/h
1781 16-05-2020 04:20:00 3.4 C 5.31 g/m*3 3.4 C 0 km/h
1782 16-05-2020 04:25:00 3.4 C 5.37 g/m*3 3.4 C 0 km/h
1783 16-05-2020 04:30:00 3.3 C 5.34 g/m*3 3.3 C 0 km/h
1784 16-05-2020 04:35:00 3.3 C 5.34 g/m*3 3.3 C 0 km/h
1785 16-05-2020 04:40:00 3.2 C 5.3 g/m*3 3.2 C 0 km/h
1786 16-05-2020 04:45:00 3.2 C 5.36 g/m*3 3.2 C 0 km/h
1787 16-05-2020 04:50:00 3.2 C 5.36 g/m*3 3.2 C 0 km/h
1788 16-05-2020 04:55:00 3.1 C 5.33 g/m*3 3.1 C 0 km/h
1789 16-05-2020 05:00:00 3.1 C 5.33 g/m*3 3.1 C 0 km/h
1790 16-05-2020 05:05:00 3.1 C 5.33 g/m*3 3.1 C 0 km/h
1791 16-05-2020 05:10:00 3 C 5.29 g/m*3 3 C 0 km/h
1792 16-05-2020 05:15:00 3 C 5.29 g/m*3 3 C 0 km/h
1793 16-05-2020 05:20:00 2.9 C 5.32 g/m*3 2.9 C 0 km/h
1794 16-05-2020 05:25:00 2.9 C 5.32 g/m*3 2.9 C 0 km/h
1795 16-05-2020 05:30:00 2.8 C 5.28 g/m*3 2.8 C 0 km/h
1796 16-05-2020 05:35:00 2.8 C 5.28 g/m*3 2.8 C 1.6 km/h
1797 16-05-2020 05:40:00 2.8 C 5.28 g/m*3 2.8 C 0 km/h
1798 16-05-2020 05:45:00 2.7 C 5.24 g/m*3 2.7 C 0 km/h
1799 16-05-2020 05:50:00 2.7 C 5.24 g/m*3 2.7 C 0 km/h
1800 16-05-2020 05:55:00 2.6 C 5.21 g/m*3 2.6 C 0 km/h
Sensor: Nr:Datum:Temp:Abs-Feuchte:Windchill:Wind:
Aussen-T/F 1801 16-05-2020 06:00:00 2.6 C 5.21 g/m*3 2.6 C 0 km/h
1802 16-05-2020 06:05:00 2.6 C 5.27 g/m*3 2.6 C 0 km/h
1803 16-05-2020 06:10:00 2.6 C 5.27 g/m*3 2.6 C 0 km/h
1804 16-05-2020 06:15:00 2.6 C 5.27 g/m*3 2.6 C 0 km/h
1805 16-05-2020 06:20:00 2.6 C 5.27 g/m*3 2.6 C 0 km/h
1806 16-05-2020 06:25:00 2.6 C 5.27 g/m*3 2.6 C 0 km/h
1807 16-05-2020 06:30:00 2.6 C 5.27 g/m*3 2.6 C 0 km/h
1808 16-05-2020 06:35:00 2.6 C 5.27 g/m*3 2.6 C 0 km/h
1809 16-05-2020 06:40:00 2.6 C 5.27 g/m*3 2.6 C 0 km/h
1810 16-05-2020 06:45:00 2.6 C 5.27 g/m*3 2.6 C 0 km/h
1811 16-05-2020 06:50:00 2.6 C 5.27 g/m*3 2.6 C 0 km/h
1812 16-05-2020 06:55:00 2.6 C 5.32 g/m*3 2.6 C 0 km/h
1813 16-05-2020 07:00:00 2.7 C 5.36 g/m*3 2.7 C 0 km/h
1814 16-05-2020 07:05:00 2.7 C 5.36 g/m*3 2.7 C 0 km/h
1815 16-05-2020 07:10:00 2.7 C 5.36 g/m*3 2.7 C 0 km/h
1816 16-05-2020 07:15:00 2.8 C 5.4 g/m*3 2.8 C 0 km/h
1817 16-05-2020 07:20:00 2.8 C 5.4 g/m*3 2.8 C 0 km/h
1818 16-05-2020 07:25:00 2.9 C 5.43 g/m*3 2.9 C 0 km/h
1819 16-05-2020 07:30:00 3 C 5.53 g/m*3 3 C 0 km/h
1820 16-05-2020 07:35:00 3.1 C 5.57 g/m*3 3.1 C 0 km/h
1821 16-05-2020 07:40:00 3.2 C 5.54 g/m*3 3.2 C 0 km/h
1822 16-05-2020 07:45:00 3.2 C 5.6 g/m*3 3.2 C 0 km/h
1823 16-05-2020 07:50:00 3.3 C 5.64 g/m*3 3.3 C 0 km/h
1824 16-05-2020 07:55:00 3.4 C 5.68 g/m*3 3.4 C 0 km/h
1825 16-05-2020 08:00:00 3.6 C 5.76 g/m*3 3.6 C 0 km/h
Sensor: Nr:Datum:Temp:Abs-Feuchte:Windchill:Wind:
Aussen-T/F 1826 16-05-2020 08:05:00 3.7 C 5.8 g/m*3 3.7 C 0 km/h
1827 16-05-2020 08:10:00 3.8 C 5.83 g/m*3 3.8 C 0 km/h
1828 16-05-2020 08:15:00 3.9 C 5.87 g/m*3 3.9 C 0 km/h
1829 16-05-2020 08:20:00 4 C 5.91 g/m*3 4 C 1.6 km/h
1830 16-05-2020 08:25:00 4.1 C 5.95 g/m*3 4.1 C 1.6 km/h
1831 16-05-2020 08:30:00 4.2 C 5.93 g/m*3 4.2 C 1.6 km/h
1832 16-05-2020 08:35:00 4.4 C 6.07 g/m*3 4.4 C 0 km/h
1833 16-05-2020 08:40:00 4.6 C 6.09 g/m*3 4.6 C 0 km/h
1834 16-05-2020 08:45:00 4.8 C 6.24 g/m*3 4.8 C 0 km/h
1835 16-05-2020 08:50:00 5 C 6.25 g/m*3 5 C 0 km/h
1836 16-05-2020 08:55:00 5.2 C 6.33 g/m*3 5.2 C 0 km/h
1837 16-05-2020 09:00:00 5.3 C 6.38 g/m*3 5.3 C 0 km/h
1838 16-05-2020 09:05:00 5.5 C 6.46 g/m*3 5.5 C 0 km/h
1839 16-05-2020 09:10:00 5.7 C 6.55 g/m*3 5.7 C 0 km/h
1840 16-05-2020 09:15:00 5.8 C 6.59 g/m*3 5.8 C 0 km/h
1841 16-05-2020 09:20:00 6 C 6.6 g/m*3 6 C 0 km/h
1842 16-05-2020 09:25:00 6.2 C 6.69 g/m*3 6.2 C 0 km/h
1843 16-05-2020 09:30:00 6.4 C 6.78 g/m*3 6.4 C 0 km/h
1844 16-05-2020 09:35:00 6.6 C 6.79 g/m*3 6.6 C 0 km/h
1845 16-05-2020 09:40:00 6.8 C 6.88 g/m*3 6.8 C 0 km/h
1846 16-05-2020 09:45:00 7.1 C 6.94 g/m*3 7.1 C 0 km/h
1847 16-05-2020 09:50:00 7.3 C 6.95 g/m*3 7.3 C 0 km/h
1848 16-05-2020 09:55:00 7.5 C 7.04 g/m*3 7.5 C 0 km/h
1849 16-05-2020 10:00:00 7.7 C 7.05 g/m*3 7.7 C 0 km/h
1850 16-05-2020 10:05:00 7.9 C 6.98 g/m*3 7.9 C 1.6 km/h
Sensor: Nr:Datum:Temp:Abs-Feuchte:Windchill:Wind:
Aussen-T/F 1851 16-05-2020 10:10:00 8.3 C 7 g/m*3 8.3 C 0 km/h
1852 16-05-2020 10:15:00 8.7 C 7.18 g/m*3 8.7 C 0 km/h
1853 16-05-2020 10:20:00 9.1 C 7.1 g/m*3 9.1 C 0 km/h
1854 16-05-2020 10:25:00 9.6 C 7.24 g/m*3 9.6 C 3.2 km/h
1855 16-05-2020 10:30:00 10.1 C 7 g/m*3 10.1 C 1.6 km/h
1856 16-05-2020 10:35:00 10.6 C 7.12 g/m*3 10.6 C 1.6 km/h
1857 16-05-2020 10:40:00 11.1 C 7.05 g/m*3 11.1 C 1.6 km/h
1858 16-05-2020 10:45:00 11.4 C 6.36 g/m*3 11.4 C 3.2 km/h
1859 16-05-2020 10:50:00 11.9 C 6.25 g/m*3 11.9 C 0 km/h
1860 16-05-2020 10:55:00 12.1 C 6.43 g/m*3 12.1 C 1.6 km/h
1861 16-05-2020 11:00:00 12.3 C 6.3 g/m*3 12.3 C 4.8 km/h
1862 16-05-2020 11:05:00 12.7 C 6.35 g/m*3 12.7 C 4.8 km/h
1863 16-05-2020 11:10:00 13.1 C 6.39 g/m*3 13.1 C 4.8 km/h
1864 16-05-2020 11:15:00 13.3 C 6.12 g/m*3 13.3 C 8.1 km/h
1865 16-05-2020 11:20:00 13.5 C 6.08 g/m*3 13.5 C 6.4 km/h
1866 16-05-2020 11:25:00 13.7 C 6.28 g/m*3 13.7 C 9.7 km/h
1867 16-05-2020 11:30:00 13.8 C 6.08 g/m*3 13.8 C 8.1 km/h
1868 16-05-2020 11:35:00 13.8 C 5.96 g/m*3 13.8 C 4.8 km/h
1869 16-05-2020 11:40:00 13.9 C 6.11 g/m*3 13.9 C 8.1 km/h
1870 16-05-2020 11:45:00 14.2 C 6.23 g/m*3 14.2 C 8.1 km/h
1871 16-05-2020 11:50:00 14.4 C 6.18 g/m*3 14.4 C 8.1 km/h
1872 16-05-2020 11:55:00 14.3 C 5.9 g/m*3 14.3 C 4.8 km/h
1873 16-05-2020 12:00:00 14.3 C 6.14 g/m*3 14.3 C 4.8 km/h
1874 16-05-2020 12:05:00 14.4 C 6.06 g/m*3 14.4 C 9.7 km/h
1875 16-05-2020 12:10:00 14.6 C 6.01 g/m*3 14.6 C 11.3 km/h
Sensor: Nr:Datum:Temp:Abs-Feuchte:Windchill:Wind:
Aussen-T/F 1876 16-05-2020 12:15:00 14.6 C 5.88 g/m*3 14.6 C 11.3 km/h
1877 16-05-2020 12:20:00 14.6 C 5.88 g/m*3 14.6 C 6.4 km/h
1878 16-05-2020 12:25:00 14.6 C 6.13 g/m*3 14.6 C 4.8 km/h
1879 16-05-2020 12:30:00 14.7 C 5.92 g/m*3 14.7 C 8.1 km/h
1880 16-05-2020 12:35:00 14.7 C 6.04 g/m*3 14.7 C 6.4 km/h
1881 16-05-2020 12:40:00 14.7 C 6.04 g/m*3 14.7 C 6.4 km/h
1882 16-05-2020 12:45:00 14.8 C 6.08 g/m*3 14.8 C 6.4 km/h
1883 16-05-2020 12:50:00 14.9 C 5.99 g/m*3 14.9 C 8.1 km/h
1884 16-05-2020 12:55:00 14.9 C 5.86 g/m*3 14.9 C 4.8 km/h
1885 16-05-2020 13:00:00 14.9 C 5.86 g/m*3 14.9 C 4.8 km/h
1886 16-05-2020 13:05:00 15.1 C 5.93 g/m*3 15.1 C 4.8 km/h
1887 16-05-2020 13:10:00 15.1 C 6.06 g/m*3 15.1 C 0 km/h
1888 16-05-2020 13:15:00 15.3 C 6.14 g/m*3 15.3 C 4.8 km/h
1889 16-05-2020 13:20:00 15.5 C 6.08 g/m*3 15.5 C 8.1 km/h
1890 16-05-2020 13:25:00 15.7 C 6.02 g/m*3 15.7 C 8.1 km/h
1891 16-05-2020 13:30:00 15.8 C 6.06 g/m*3 15.8 C 6.4 km/h
1892 16-05-2020 13:35:00 15.9 C 5.96 g/m*3 15.9 C 11.3 km/h
1893 16-05-2020 13:40:00 16 C 5.99 g/m*3 16 C 9.7 km/h
1894 16-05-2020 13:45:00 16.1 C 6.03 g/m*3 16.1 C 9.7 km/h
1895 16-05-2020 13:50:00 16.2 C 6.21 g/m*3 16.2 C 4.8 km/h
1896 16-05-2020 13:55:00 16.3 C 6.1 g/m*3 16.3 C 12.9 km/h
1897 16-05-2020 14:00:00 16.5 C 6.04 g/m*3 16.5 C 12.9 km/h
1898 16-05-2020 14:05:00 16.6 C 6.07 g/m*3 16.6 C 11.3 km/h
1899 16-05-2020 14:10:00 16.7 C 6.25 g/m*3 16.7 C 6.4 km/h
1900 16-05-2020 14:15:00 16.8 C 6.15 g/m*3 16.8 C 6.4 km/h
Sensor: Nr:Datum:Temp:Abs-Feuchte:Windchill:Wind:
Aussen-T/F 1901 16-05-2020 14:20:00 16.7 C 5.83 g/m*3 16.7 C 6.4 km/h
1902 16-05-2020 14:25:00 16.7 C 5.97 g/m*3 16.7 C 4.8 km/h
1903 16-05-2020 14:30:00 16.8 C 6.15 g/m*3 16.8 C 8.1 km/h
1904 16-05-2020 14:35:00 17.2 C 6 g/m*3 17.2 C 8.1 km/h
1905 16-05-2020 14:40:00 17.4 C 5.93 g/m*3 17.4 C 11.3 km/h
1906 16-05-2020 14:45:00 17.5 C 5.81 g/m*3 17.5 C 12.9 km/h
1907 16-05-2020 14:50:00 17.7 C 6.04 g/m*3 17.7 C 9.7 km/h
1908 16-05-2020 14:55:00 17.8 C 5.62 g/m*3 17.8 C 9.7 km/h
1909 16-05-2020 15:00:00 17.8 C 5.46 g/m*3 17.8 C 11.3 km/h
1910 16-05-2020 15:05:00 17.8 C 5.46 g/m*3 17.8 C 12.9 km/h
1911 16-05-2020 15:10:00 17.9 C 5.65 g/m*3 17.9 C 6.4 km/h
1912 16-05-2020 15:15:00 18 C 5.84 g/m*3 18 C 12.9 km/h
1913 16-05-2020 15:20:00 18.3 C 5.63 g/m*3 18.3 C 9.7 km/h
1914 16-05-2020 15:25:00 18.7 C 5.76 g/m*3 18.7 C 12.9 km/h
1915 16-05-2020 15:30:00 18.8 C 5.8 g/m*3 18.8 C 9.7 km/h
1916 16-05-2020 15:35:00 18.9 C 5.83 g/m*3 18.9 C 9.7 km/h
1917 16-05-2020 15:40:00 19.1 C 5.9 g/m*3 19.1 C 9.7 km/h
1918 16-05-2020 15:45:00 19.3 C 5.81 g/m*3 19.3 C 8.1 km/h
1919 16-05-2020 15:50:00 19.3 C 5.64 g/m*3 19.3 C 6.4 km/h
1920 16-05-2020 15:55:00 19.3 C 5.64 g/m*3 19.3 C 9.7 km/h
1921 16-05-2020 16:00:00 19.2 C 6.1 g/m*3 19.2 C 12.9 km/h
1922 16-05-2020 16:05:00 19.3 C 6.14 g/m*3 19.3 C 4.8 km/h
1923 16-05-2020 16:10:00 19.5 C 6.04 g/m*3 19.5 C 6.4 km/h
1924 16-05-2020 16:15:00 19.8 C 6.15 g/m*3 19.8 C 11.3 km/h
1925 16-05-2020 16:20:00 19.7 C 6.11 g/m*3 19.7 C 8.1 km/h
Sensor: Nr:Datum:Temp:Abs-Feuchte:Windchill:Wind:
Aussen-T/F 1926 16-05-2020 16:25:00 20.3 C 6.86 g/m*3 20.3 C 4.8 km/h
1927 16-05-2020 16:30:00 20.9 C 6.37 g/m*3 20.9 C 1.6 km/h
1928 16-05-2020 16:35:00 20.7 C 5.94 g/m*3 20.7 C 9.7 km/h
1929 16-05-2020 16:40:00 20 C 6.05 g/m*3 20 C 11.3 km/h
1930 16-05-2020 16:45:00 19.9 C 6.01 g/m*3 19.9 C 6.4 km/h
1931 16-05-2020 16:50:00 19.7 C 5.94 g/m*3 19.7 C 9.7 km/h
1932 16-05-2020 16:55:00 19.3 C 5.97 g/m*3 19.3 C 3.2 km/h
1933 16-05-2020 17:00:00 19.2 C 6.43 g/m*3 19.2 C 3.2 km/h
1934 16-05-2020 17:05:00 19.2 C 6.1 g/m*3 19.2 C 6.4 km/h
1935 16-05-2020 17:10:00 18.9 C 6.16 g/m*3 18.9 C 4.8 km/h
1936 16-05-2020 17:15:00 18.8 C 6.12 g/m*3 18.8 C 3.2 km/h
1937 16-05-2020 17:20:00 18.8 C 6.44 g/m*3 18.8 C 3.2 km/h
1938 16-05-2020 17:25:00 18.8 C 6.28 g/m*3 18.8 C 8.1 km/h
1939 16-05-2020 17:30:00 18.8 C 6.28 g/m*3 18.8 C 6.4 km/h
1940 16-05-2020 17:35:00 18.8 C 6.28 g/m*3 18.8 C 3.2 km/h
1941 16-05-2020 17:40:00 18.8 C 6.44 g/m*3 18.8 C 0 km/h
1942 16-05-2020 17:45:00 18.8 C 6.28 g/m*3 18.8 C 1.6 km/h
1943 16-05-2020 17:50:00 18.8 C 6.44 g/m*3 18.8 C 4.8 km/h
1944 16-05-2020 17:55:00 18.8 C 6.12 g/m*3 18.8 C 8.1 km/h
1945 16-05-2020 18:00:00 18.7 C 6.24 g/m*3 18.7 C 4.8 km/h
1946 16-05-2020 18:05:00 18.8 C 6.12 g/m*3 18.8 C 6.4 km/h
1947 16-05-2020 18:10:00 18.9 C 6.16 g/m*3 18.9 C 3.2 km/h
1948 16-05-2020 18:15:00 19.1 C 6.23 g/m*3 19.1 C 4.8 km/h
1949 16-05-2020 18:20:00 19.2 C 6.43 g/m*3 19.2 C 4.8 km/h
1950 16-05-2020 18:25:00 19.1 C 6.23 g/m*3 19.1 C 9.7 km/h
Sensor: Nr:Datum:Temp:Abs-Feuchte:Windchill:Wind:
Aussen-T/F 1951 16-05-2020 18:30:00 19.1 C 6.39 g/m*3 19.1 C 8.1 km/h
1952 16-05-2020 18:35:00 19.6 C 6.42 g/m*3 19.6 C 8.1 km/h
1953 16-05-2020 18:40:00 20.1 C 6.61 g/m*3 20.1 C 3.2 km/h
1954 16-05-2020 18:45:00 20.3 C 6.16 g/m*3 20.3 C 9.7 km/h
1955 16-05-2020 18:50:00 20.2 C 6.47 g/m*3 20.2 C 12.9 km/h
1956 16-05-2020 18:55:00 19.9 C 6.36 g/m*3 19.9 C 12.9 km/h
1957 16-05-2020 19:00:00 19.4 C 6.34 g/m*3 19.4 C 11.3 km/h
1958 16-05-2020 19:05:00 19.2 C 6.27 g/m*3 19.2 C 12.9 km/h
1959 16-05-2020 19:10:00 18.9 C 6.48 g/m*3 18.9 C 6.4 km/h
1960 16-05-2020 19:15:00 18.6 C 6.37 g/m*3 18.6 C 3.2 km/h
1961 16-05-2020 19:20:00 18.4 C 6.76 g/m*3 18.4 C 3.2 km/h
1962 16-05-2020 19:25:00 18.3 C 6.57 g/m*3 18.3 C 4.8 km/h
1963 16-05-2020 19:30:00 18.3 C 6.41 g/m*3 18.3 C 8.1 km/h
1964 16-05-2020 19:35:00 18.3 C 6.41 g/m*3 18.3 C 8.1 km/h
1965 16-05-2020 19:40:00 18.4 C 6.45 g/m*3 18.4 C 6.4 km/h
1966 16-05-2020 19:45:00 18.4 C 6.29 g/m*3 18.4 C 4.8 km/h
1967 16-05-2020 19:50:00 18.4 C 6.61 g/m*3 18.4 C 3.2 km/h
1968 16-05-2020 19:55:00 18.4 C 6.61 g/m*3 18.4 C 6.4 km/h
1969 16-05-2020 20:00:00 18.4 C 6.61 g/m*3 18.4 C 4.8 km/h
1970 16-05-2020 20:05:00 18.3 C 6.72 g/m*3 18.3 C 6.4 km/h
1971 16-05-2020 20:10:00 18.2 C 6.68 g/m*3 18.2 C 6.4 km/h
1972 16-05-2020 20:15:00 18 C 6.76 g/m*3 18 C 6.4 km/h
1973 16-05-2020 20:20:00 17.8 C 6.37 g/m*3 17.8 C 6.4 km/h
1974 16-05-2020 20:25:00 17.7 C 6.64 g/m*3 17.7 C 6.4 km/h
1975 16-05-2020 20:30:00 17.6 C 6.45 g/m*3 17.6 C 6.4 km/h
Sensor: Nr:Datum:Temp:Abs-Feuchte:Windchill:Wind:
Aussen-T/F 1976 16-05-2020 20:35:00 17.3 C 6.48 g/m*3 17.3 C 4.8 km/h
1977 16-05-2020 20:40:00 17.2 C 6.59 g/m*3 17.2 C 4.8 km/h
1978 16-05-2020 20:45:00 16.9 C 6.47 g/m*3 16.9 C 3.2 km/h
1979 16-05-2020 20:50:00 16.8 C 7.29 g/m*3 16.8 C 0 km/h
1980 16-05-2020 20:55:00 16.3 C 7.21 g/m*3 16.3 C 0 km/h
1981 16-05-2020 21:00:00 15.7 C 7.23 g/m*3 15.7 C 1.6 km/h
1982 16-05-2020 21:05:00 15.2 C 7.01 g/m*3 15.2 C 1.6 km/h
1983 16-05-2020 21:10:00 14.7 C 7.05 g/m*3 14.7 C 1.6 km/h
1984 16-05-2020 21:15:00 14.5 C 6.96 g/m*3 14.5 C 4.8 km/h
1985 16-05-2020 21:20:00 14.4 C 7.05 g/m*3 14.4 C 0 km/h
1986 16-05-2020 21:25:00 14.3 C 7 g/m*3 14.3 C 3.2 km/h
1987 16-05-2020 21:30:00 14.2 C 7.08 g/m*3 14.2 C 0 km/h
1988 16-05-2020 21:35:00 14 C 7.12 g/m*3 14 C 0 km/h
1989 16-05-2020 21:40:00 13.8 C 7.15 g/m*3 13.8 C 3.2 km/h
1990 16-05-2020 21:45:00 13.7 C 7.1 g/m*3 13.7 C 1.6 km/h
1991 16-05-2020 21:50:00 13.5 C 7.25 g/m*3 13.5 C 4.8 km/h
1992 16-05-2020 21:55:00 13.4 C 7.21 g/m*3 13.4 C 4.8 km/h
1993 16-05-2020 22:00:00 13.3 C 7.16 g/m*3 13.3 C 4.8 km/h
1994 16-05-2020 22:05:00 13.2 C 7 g/m*3 13.2 C 4.8 km/h
1995 16-05-2020 22:10:00 13.1 C 7.07 g/m*3 13.1 C 8.1 km/h
1996 16-05-2020 22:15:00 12.9 C 6.99 g/m*3 12.9 C 6.4 km/h
1997 16-05-2020 22:20:00 12.9 C 6.99 g/m*3 12.9 C 6.4 km/h
1998 16-05-2020 22:25:00 12.8 C 6.94 g/m*3 12.8 C 8.1 km/h
1999 16-05-2020 22:30:00 12.8 C 6.94 g/m*3 12.8 C 6.4 km/h
2000 16-05-2020 22:35:00 12.7 C 6.9 g/m*3 12.7 C 6.4 km/h
Sensor: Nr:Datum:Temp:Abs-Feuchte:Windchill:Wind:
Aussen-T/F 2001 16-05-2020 22:40:00 12.6 C 6.97 g/m*3 12.6 C 6.4 km/h
2002 16-05-2020 22:45:00 12.6 C 6.97 g/m*3 12.6 C 6.4 km/h
2003 16-05-2020 22:50:00 12.5 C 6.93 g/m*3 12.5 C 6.4 km/h
2004 16-05-2020 22:55:00 12.4 C 6.99 g/m*3 12.4 C 6.4 km/h
2005 16-05-2020 23:00:00 12.3 C 7.17 g/m*3 12.3 C 3.2 km/h
2006 16-05-2020 23:05:00 12.2 C 7.12 g/m*3 12.2 C 3.2 km/h
2007 16-05-2020 23:10:00 12 C 6.93 g/m*3 12 C 4.8 km/h
2008 16-05-2020 23:15:00 12.2 C 7.01 g/m*3 12.2 C 8.1 km/h
2009 16-05-2020 23:20:00 12.3 C 6.95 g/m*3 12.3 C 4.8 km/h
2010 16-05-2020 23:25:00 12.4 C 6.99 g/m*3 12.4 C 6.4 km/h
2011 16-05-2020 23:30:00 12.4 C 6.99 g/m*3 12.4 C 3.2 km/h
2012 16-05-2020 23:35:00 12.4 C 6.99 g/m*3 12.4 C 4.8 km/h
2013 16-05-2020 23:40:00 12.2 C 7.12 g/m*3 12.2 C 4.8 km/h
2014 16-05-2020 23:45:00 12 C 7.14 g/m*3 12 C 3.2 km/h
2015 16-05-2020 23:50:00 11.8 C 7.05 g/m*3 11.8 C 4.8 km/h
2016 16-05-2020 23:55:00 11.8 C 7.16 g/m*3 11.8 C 3.2 km/h

Legende:
   Min
   Max


Maximal/Minimal-Werte vom 23.02.2003 - 17.05.2020

Sensor Min Max Avg
Temp
(Aussen-T/F)
-16.4 °C
20-12-2009  01:30:01
40.4 °C
25-07-2019  16:20:00
11.1 °C

Die Daten stammen von einer Davis Vantage Pro 2 Wetter-Station und werden unter Linux mit der Software wview2wettercgi und aufbereitet. Alle Angaben erfolgen ohne Gewähr für ihre Vollständigkeit oder Richtigkeit.
Kontakt: Rainer Krienke krienke@uni-koblenz.de . Meine Webseiten an der Uni Koblenz oder privat.
Version: $Revision: 0.78 $